<?xml version="1.0" encoding="UTF-8" standalone="no" ?>
<gpx xmlns="http://www.topografix.com/GPX/1/1" xmlns:xsi="http://www.w3.org/2001/XMLSchema-instance" xsi:schemaLocation="http://www.topografix.com/GPX/1/1 http://www.topografix.com/GPX/1/1/gpx.xsd" version="1.1" creator="VisuGPX - https://www.visugpx.com">
  <metadata>
    <name>tcn 2016 - theize</name>
    <desc><![CDATA[tcn 2016 - Theize 13.3km et 457 m de D  - joli parcours trail nautre de mars ]]></desc>
  </metadata>
  <trk>
    <name><![CDATA[La TCN - 13km]]></name>
    <trkseg>
      <trkpt lat="45.9399" lon="4.61565">
        <ele>457.522522</ele>
        <time>2015-10-11T07:10:14Z</time>
      </trkpt>
      <trkpt lat="45.93986" lon="4.6157">
        <ele>457.138916</ele>
        <time>2015-10-11T07:10:16Z</time>
      </trkpt>
      <trkpt lat="45.93986" lon="4.61574">
        <ele>457.287231</ele>
        <time>2015-10-11T07:10:17Z</time>
      </trkpt>
      <trkpt lat="45.93984" lon="4.61586">
        <ele>457.39151</ele>
        <time>2015-10-11T07:10:22Z</time>
      </trkpt>
      <trkpt lat="45.93981" lon="4.61603">
        <ele>457.521576</ele>
        <time>2015-10-11T07:10:28Z</time>
      </trkpt>
      <trkpt lat="45.93979" lon="4.61605">
        <ele>457.358307</ele>
        <time>2015-10-11T07:10:29Z</time>
      </trkpt>
      <trkpt lat="45.93976" lon="4.61612">
        <ele>457.219147</ele>
        <time>2015-10-11T07:10:32Z</time>
      </trkpt>
      <trkpt lat="45.93974" lon="4.61615">
        <ele>456.97641</ele>
        <time>2015-10-11T07:10:34Z</time>
      </trkpt>
      <trkpt lat="45.9397" lon="4.61624">
        <ele>456.47998</ele>
        <time>2015-10-11T07:10:37Z</time>
      </trkpt>
      <trkpt lat="45.93969" lon="4.61631">
        <ele>456.545593</ele>
        <time>2015-10-11T07:10:40Z</time>
      </trkpt>
      <trkpt lat="45.93972" lon="4.61635">
        <ele>457.09903</ele>
        <time>2015-10-11T07:10:42Z</time>
      </trkpt>
      <trkpt lat="45.9398" lon="4.61645">
        <ele>458.423859</ele>
        <time>2015-10-11T07:10:46Z</time>
      </trkpt>
      <trkpt lat="45.93982" lon="4.61647">
        <ele>458.810638</ele>
        <time>2015-10-11T07:10:47Z</time>
      </trkpt>
      <trkpt lat="45.93991" lon="4.61655">
        <ele>460.301361</ele>
        <time>2015-10-11T07:10:53Z</time>
      </trkpt>
      <trkpt lat="45.93994" lon="4.61666">
        <ele>461.014374</ele>
        <time>2015-10-11T07:10:57Z</time>
      </trkpt>
      <trkpt lat="45.93997" lon="4.61675">
        <ele>461.588196</ele>
        <time>2015-10-11T07:11:01Z</time>
      </trkpt>
      <trkpt lat="45.93998" lon="4.61676">
        <ele>461.867584</ele>
        <time>2015-10-11T07:11:02Z</time>
      </trkpt>
      <trkpt lat="45.94" lon="4.61686">
        <ele>461.951324</ele>
        <time>2015-10-11T07:11:06Z</time>
      </trkpt>
      <trkpt lat="45.94002" lon="4.61689">
        <ele>462.179901</ele>
        <time>2015-10-11T07:11:07Z</time>
      </trkpt>
      <trkpt lat="45.94006" lon="4.61697">
        <ele>462.463959</ele>
        <time>2015-10-11T07:11:11Z</time>
      </trkpt>
      <trkpt lat="45.94008" lon="4.617">
        <ele>462.644135</ele>
        <time>2015-10-11T07:11:12Z</time>
      </trkpt>
      <trkpt lat="45.9402" lon="4.61718">
        <ele>463.493805</ele>
        <time>2015-10-11T07:11:19Z</time>
      </trkpt>
      <trkpt lat="45.94031" lon="4.61731">
        <ele>463.89859</ele>
        <time>2015-10-11T07:11:25Z</time>
      </trkpt>
      <trkpt lat="45.9404" lon="4.6174">
        <ele>464.352692</ele>
        <time>2015-10-11T07:11:31Z</time>
      </trkpt>
      <trkpt lat="45.94041" lon="4.61742">
        <ele>464.32901</ele>
        <time>2015-10-11T07:11:32Z</time>
      </trkpt>
      <trkpt lat="45.94046" lon="4.61748">
        <ele>464.140839</ele>
        <time>2015-10-11T07:11:35Z</time>
      </trkpt>
      <trkpt lat="45.94053" lon="4.61757">
        <ele>463.815948</ele>
        <time>2015-10-11T07:11:39Z</time>
      </trkpt>
      <trkpt lat="45.94055" lon="4.61763">
        <ele>463.244629</ele>
        <time>2015-10-11T07:11:41Z</time>
      </trkpt>
      <trkpt lat="45.94061" lon="4.6177">
        <ele>462.875549</ele>
        <time>2015-10-11T07:11:44Z</time>
      </trkpt>
      <trkpt lat="45.94062" lon="4.61773">
        <ele>462.583954</ele>
        <time>2015-10-11T07:11:45Z</time>
      </trkpt>
      <trkpt lat="45.94067" lon="4.61778">
        <ele>462.305634</ele>
        <time>2015-10-11T07:11:48Z</time>
      </trkpt>
      <trkpt lat="45.94076" lon="4.61785">
        <ele>461.878906</ele>
        <time>2015-10-11T07:11:52Z</time>
      </trkpt>
      <trkpt lat="45.94088" lon="4.61793">
        <ele>461.405182</ele>
        <time>2015-10-11T07:11:57Z</time>
      </trkpt>
      <trkpt lat="45.9409" lon="4.61794">
        <ele>461.36676</ele>
        <time>2015-10-11T07:11:58Z</time>
      </trkpt>
      <trkpt lat="45.94102" lon="4.61806">
        <ele>460.561066</ele>
        <time>2015-10-11T07:12:04Z</time>
      </trkpt>
      <trkpt lat="45.94117" lon="4.61819">
        <ele>458.842133</ele>
        <time>2015-10-11T07:12:11Z</time>
      </trkpt>
      <trkpt lat="45.94131" lon="4.61834">
        <ele>456.032166</ele>
        <time>2015-10-11T07:12:18Z</time>
      </trkpt>
      <trkpt lat="45.94144" lon="4.61842">
        <ele>454.358734</ele>
        <time>2015-10-11T07:12:24Z</time>
      </trkpt>
      <trkpt lat="45.94156" lon="4.61844">
        <ele>453.771606</ele>
        <time>2015-10-11T07:12:29Z</time>
      </trkpt>
      <trkpt lat="45.94171" lon="4.61849">
        <ele>452.615112</ele>
        <time>2015-10-11T07:12:35Z</time>
      </trkpt>
      <trkpt lat="45.94187" lon="4.61857">
        <ele>450.982544</ele>
        <time>2015-10-11T07:12:42Z</time>
      </trkpt>
      <trkpt lat="45.94199" lon="4.61863">
        <ele>450.064178</ele>
        <time>2015-10-11T07:12:47Z</time>
      </trkpt>
      <trkpt lat="45.94201" lon="4.61863">
        <ele>450.117828</ele>
        <time>2015-10-11T07:12:48Z</time>
      </trkpt>
      <trkpt lat="45.94211" lon="4.61871">
        <ele>449.413971</ele>
        <time>2015-10-11T07:12:53Z</time>
      </trkpt>
      <trkpt lat="45.94218" lon="4.61885">
        <ele>447.493134</ele>
        <time>2015-10-11T07:12:58Z</time>
      </trkpt>
      <trkpt lat="45.9422" lon="4.61902">
        <ele>444.793976</ele>
        <time>2015-10-11T07:13:03Z</time>
      </trkpt>
      <trkpt lat="45.94223" lon="4.61921">
        <ele>441.725189</ele>
        <time>2015-10-11T07:13:09Z</time>
      </trkpt>
      <trkpt lat="45.94227" lon="4.61938">
        <ele>439.292084</ele>
        <time>2015-10-11T07:13:14Z</time>
      </trkpt>
      <trkpt lat="45.94237" lon="4.61955">
        <ele>437.531219</ele>
        <time>2015-10-11T07:13:20Z</time>
      </trkpt>
      <trkpt lat="45.9425" lon="4.61967">
        <ele>436.372864</ele>
        <time>2015-10-11T07:13:26Z</time>
      </trkpt>
      <trkpt lat="45.94263" lon="4.61984">
        <ele>434.352112</ele>
        <time>2015-10-11T07:13:33Z</time>
      </trkpt>
      <trkpt lat="45.94273" lon="4.61999">
        <ele>432.259949</ele>
        <time>2015-10-11T07:13:39Z</time>
      </trkpt>
      <trkpt lat="45.94286" lon="4.62012">
        <ele>430.029724</ele>
        <time>2015-10-11T07:13:45Z</time>
      </trkpt>
      <trkpt lat="45.94297" lon="4.62022">
        <ele>428.473236</ele>
        <time>2015-10-11T07:13:50Z</time>
      </trkpt>
      <trkpt lat="45.94302" lon="4.62025">
        <ele>427.933167</ele>
        <time>2015-10-11T07:13:52Z</time>
      </trkpt>
      <trkpt lat="45.94311" lon="4.62032">
        <ele>426.875946</ele>
        <time>2015-10-11T07:13:57Z</time>
      </trkpt>
      <trkpt lat="45.94322" lon="4.62041">
        <ele>425.399933</ele>
        <time>2015-10-11T07:14:02Z</time>
      </trkpt>
      <trkpt lat="45.94336" lon="4.62058">
        <ele>422.521179</ele>
        <time>2015-10-11T07:14:09Z</time>
      </trkpt>
      <trkpt lat="45.94348" lon="4.6207">
        <ele>420.159729</ele>
        <time>2015-10-11T07:14:15Z</time>
      </trkpt>
      <trkpt lat="45.94356" lon="4.62079">
        <ele>418.525635</ele>
        <time>2015-10-11T07:14:20Z</time>
      </trkpt>
      <trkpt lat="45.94371" lon="4.62084">
        <ele>417.572968</ele>
        <time>2015-10-11T07:14:26Z</time>
      </trkpt>
      <trkpt lat="45.94388" lon="4.62087">
        <ele>416.930481</ele>
        <time>2015-10-11T07:14:32Z</time>
      </trkpt>
      <trkpt lat="45.94407" lon="4.6209">
        <ele>416.185822</ele>
        <time>2015-10-11T07:14:39Z</time>
      </trkpt>
      <trkpt lat="45.94423" lon="4.62096">
        <ele>414.986755</ele>
        <time>2015-10-11T07:14:45Z</time>
      </trkpt>
      <trkpt lat="45.94439" lon="4.62104">
        <ele>413.504059</ele>
        <time>2015-10-11T07:14:51Z</time>
      </trkpt>
      <trkpt lat="45.94448" lon="4.62121">
        <ele>411.351074</ele>
        <time>2015-10-11T07:14:56Z</time>
      </trkpt>
      <trkpt lat="45.94455" lon="4.62138">
        <ele>409.235657</ele>
        <time>2015-10-11T07:15:01Z</time>
      </trkpt>
      <trkpt lat="45.94464" lon="4.6216">
        <ele>406.925659</ele>
        <time>2015-10-11T07:15:08Z</time>
      </trkpt>
      <trkpt lat="45.94467" lon="4.6216">
        <ele>406.800568</ele>
        <time>2015-10-11T07:15:09Z</time>
      </trkpt>
      <trkpt lat="45.94472" lon="4.62158">
        <ele>406.585938</ele>
        <time>2015-10-11T07:15:11Z</time>
      </trkpt>
      <trkpt lat="45.94476" lon="4.62154">
        <ele>406.531921</ele>
        <time>2015-10-11T07:15:13Z</time>
      </trkpt>
      <trkpt lat="45.94484" lon="4.62146">
        <ele>406.666809</ele>
        <time>2015-10-11T07:15:17Z</time>
      </trkpt>
      <trkpt lat="45.9449" lon="4.62142">
        <ele>406.826141</ele>
        <time>2015-10-11T07:15:20Z</time>
      </trkpt>
      <trkpt lat="45.94491" lon="4.6214">
        <ele>406.963776</ele>
        <time>2015-10-11T07:15:21Z</time>
      </trkpt>
      <trkpt lat="45.94495" lon="4.62134">
        <ele>407.31665</ele>
        <time>2015-10-11T07:15:25Z</time>
      </trkpt>
      <trkpt lat="45.94499" lon="4.62127">
        <ele>407.821899</ele>
        <time>2015-10-11T07:15:29Z</time>
      </trkpt>
      <trkpt lat="45.94501" lon="4.62126">
        <ele>407.915344</ele>
        <time>2015-10-11T07:15:30Z</time>
      </trkpt>
      <trkpt lat="45.94511" lon="4.62113">
        <ele>408.359436</ele>
        <time>2015-10-11T07:15:36Z</time>
      </trkpt>
      <trkpt lat="45.94521" lon="4.62101">
        <ele>408.620514</ele>
        <time>2015-10-11T07:15:41Z</time>
      </trkpt>
      <trkpt lat="45.94532" lon="4.62092">
        <ele>408.459076</ele>
        <time>2015-10-11T07:15:46Z</time>
      </trkpt>
      <trkpt lat="45.94543" lon="4.62081">
        <ele>408.881439</ele>
        <time>2015-10-11T07:15:51Z</time>
      </trkpt>
      <trkpt lat="45.94555" lon="4.62073">
        <ele>409.257111</ele>
        <time>2015-10-11T07:15:56Z</time>
      </trkpt>
      <trkpt lat="45.94557" lon="4.62072">
        <ele>409.235046</ele>
        <time>2015-10-11T07:15:57Z</time>
      </trkpt>
      <trkpt lat="45.9457" lon="4.62066">
        <ele>408.955872</ele>
        <time>2015-10-11T07:16:03Z</time>
      </trkpt>
      <trkpt lat="45.94573" lon="4.62065">
        <ele>408.93631</ele>
        <time>2015-10-11T07:16:04Z</time>
      </trkpt>
      <trkpt lat="45.94585" lon="4.62059">
        <ele>408.783356</ele>
        <time>2015-10-11T07:16:09Z</time>
      </trkpt>
      <trkpt lat="45.94603" lon="4.62052">
        <ele>408.634857</ele>
        <time>2015-10-11T07:16:17Z</time>
      </trkpt>
      <trkpt lat="45.94615" lon="4.62045">
        <ele>409.015442</ele>
        <time>2015-10-11T07:16:22Z</time>
      </trkpt>
      <trkpt lat="45.94627" lon="4.62037">
        <ele>409.5672</ele>
        <time>2015-10-11T07:16:27Z</time>
      </trkpt>
      <trkpt lat="45.94633" lon="4.62033">
        <ele>409.734528</ele>
        <time>2015-10-11T07:16:29Z</time>
      </trkpt>
      <trkpt lat="45.94646" lon="4.62022">
        <ele>410.40213</ele>
        <time>2015-10-11T07:16:35Z</time>
      </trkpt>
      <trkpt lat="45.94659" lon="4.62009">
        <ele>411.154449</ele>
        <time>2015-10-11T07:16:41Z</time>
      </trkpt>
      <trkpt lat="45.94671" lon="4.61995">
        <ele>411.737946</ele>
        <time>2015-10-11T07:16:47Z</time>
      </trkpt>
      <trkpt lat="45.94684" lon="4.6198">
        <ele>412.194031</ele>
        <time>2015-10-11T07:16:54Z</time>
      </trkpt>
      <trkpt lat="45.94695" lon="4.61965">
        <ele>413.522064</ele>
        <time>2015-10-11T07:17:00Z</time>
      </trkpt>
      <trkpt lat="45.94712" lon="4.61948">
        <ele>414.873352</ele>
        <time>2015-10-11T07:17:08Z</time>
      </trkpt>
      <trkpt lat="45.94723" lon="4.61941">
        <ele>415.669617</ele>
        <time>2015-10-11T07:17:13Z</time>
      </trkpt>
      <trkpt lat="45.94732" lon="4.61938">
        <ele>415.874817</ele>
        <time>2015-10-11T07:17:17Z</time>
      </trkpt>
      <trkpt lat="45.94743" lon="4.61936">
        <ele>416.336365</ele>
        <time>2015-10-11T07:17:22Z</time>
      </trkpt>
      <trkpt lat="45.94755" lon="4.61937">
        <ele>416.204315</ele>
        <time>2015-10-11T07:17:28Z</time>
      </trkpt>
      <trkpt lat="45.94767" lon="4.6194">
        <ele>415.870178</ele>
        <time>2015-10-11T07:17:33Z</time>
      </trkpt>
      <trkpt lat="45.9478" lon="4.6194">
        <ele>415.969391</ele>
        <time>2015-10-11T07:17:38Z</time>
      </trkpt>
      <trkpt lat="45.94792" lon="4.61941">
        <ele>416.045563</ele>
        <time>2015-10-11T07:17:43Z</time>
      </trkpt>
      <trkpt lat="45.94806" lon="4.61952">
        <ele>415.025757</ele>
        <time>2015-10-11T07:17:49Z</time>
      </trkpt>
      <trkpt lat="45.94808" lon="4.61953">
        <ele>415.027252</ele>
        <time>2015-10-11T07:17:50Z</time>
      </trkpt>
      <trkpt lat="45.94816" lon="4.61956">
        <ele>415.069031</ele>
        <time>2015-10-11T07:17:53Z</time>
      </trkpt>
      <trkpt lat="45.9482" lon="4.61958">
        <ele>415.000793</ele>
        <time>2015-10-11T07:17:55Z</time>
      </trkpt>
      <trkpt lat="45.94827" lon="4.61962">
        <ele>415.281891</ele>
        <time>2015-10-11T07:17:58Z</time>
      </trkpt>
      <trkpt lat="45.94843" lon="4.6197">
        <ele>415.90213</ele>
        <time>2015-10-11T07:18:04Z</time>
      </trkpt>
      <trkpt lat="45.9486" lon="4.61979">
        <ele>416.444641</ele>
        <time>2015-10-11T07:18:10Z</time>
      </trkpt>
      <trkpt lat="45.94866" lon="4.61981">
        <ele>416.737854</ele>
        <time>2015-10-11T07:18:12Z</time>
      </trkpt>
      <trkpt lat="45.94886" lon="4.61985">
        <ele>416.805237</ele>
        <time>2015-10-11T07:18:19Z</time>
      </trkpt>
      <trkpt lat="45.94892" lon="4.61986">
        <ele>416.841217</ele>
        <time>2015-10-11T07:18:21Z</time>
      </trkpt>
      <trkpt lat="45.94905" lon="4.61987">
        <ele>417.036835</ele>
        <time>2015-10-11T07:18:26Z</time>
      </trkpt>
      <trkpt lat="45.94924" lon="4.61989">
        <ele>416.906555</ele>
        <time>2015-10-11T07:18:33Z</time>
      </trkpt>
      <trkpt lat="45.94939" lon="4.61989">
        <ele>416.93689</ele>
        <time>2015-10-11T07:18:39Z</time>
      </trkpt>
      <trkpt lat="45.94956" lon="4.61987">
        <ele>417.572876</ele>
        <time>2015-10-11T07:18:45Z</time>
      </trkpt>
      <trkpt lat="45.94973" lon="4.6198">
        <ele>418.525146</ele>
        <time>2015-10-11T07:18:52Z</time>
      </trkpt>
      <trkpt lat="45.94987" lon="4.61977">
        <ele>418.641052</ele>
        <time>2015-10-11T07:18:57Z</time>
      </trkpt>
      <trkpt lat="45.95004" lon="4.61966">
        <ele>420.39328</ele>
        <time>2015-10-11T07:19:04Z</time>
      </trkpt>
      <trkpt lat="45.95019" lon="4.61953">
        <ele>421.97876</ele>
        <time>2015-10-11T07:19:11Z</time>
      </trkpt>
      <trkpt lat="45.95022" lon="4.61951">
        <ele>422.274597</ele>
        <time>2015-10-11T07:19:12Z</time>
      </trkpt>
      <trkpt lat="45.95036" lon="4.61943">
        <ele>423.103027</ele>
        <time>2015-10-11T07:19:18Z</time>
      </trkpt>
      <trkpt lat="45.95053" lon="4.61938">
        <ele>423.106873</ele>
        <time>2015-10-11T07:19:25Z</time>
      </trkpt>
      <trkpt lat="45.95065" lon="4.61935">
        <ele>422.689972</ele>
        <time>2015-10-11T07:19:31Z</time>
      </trkpt>
      <trkpt lat="45.95071" lon="4.61933">
        <ele>422.695557</ele>
        <time>2015-10-11T07:19:34Z</time>
      </trkpt>
      <trkpt lat="45.95076" lon="4.61932">
        <ele>422.549561</ele>
        <time>2015-10-11T07:19:36Z</time>
      </trkpt>
      <trkpt lat="45.95088" lon="4.61928">
        <ele>422.416779</ele>
        <time>2015-10-11T07:19:41Z</time>
      </trkpt>
      <trkpt lat="45.95098" lon="4.61925">
        <ele>422.161377</ele>
        <time>2015-10-11T07:19:45Z</time>
      </trkpt>
      <trkpt lat="45.95113" lon="4.61919">
        <ele>421.946289</ele>
        <time>2015-10-11T07:19:51Z</time>
      </trkpt>
      <trkpt lat="45.95128" lon="4.61912">
        <ele>421.988464</ele>
        <time>2015-10-11T07:19:57Z</time>
      </trkpt>
      <trkpt lat="45.95129" lon="4.61909">
        <ele>422.39209</ele>
        <time>2015-10-11T07:19:58Z</time>
      </trkpt>
      <trkpt lat="45.95136" lon="4.61901">
        <ele>423.149231</ele>
        <time>2015-10-11T07:20:01Z</time>
      </trkpt>
      <trkpt lat="45.95147" lon="4.61879">
        <ele>424.713867</ele>
        <time>2015-10-11T07:20:08Z</time>
      </trkpt>
      <trkpt lat="45.95148" lon="4.61876">
        <ele>424.983521</ele>
        <time>2015-10-11T07:20:09Z</time>
      </trkpt>
      <trkpt lat="45.9515" lon="4.61874">
        <ele>424.94458</ele>
        <time>2015-10-11T07:20:13Z</time>
      </trkpt>
      <trkpt lat="45.9515" lon="4.61874">
        <ele>424.807159</ele>
        <time>2015-10-11T07:20:16Z</time>
      </trkpt>
      <trkpt lat="45.9515" lon="4.61875">
        <ele>424.789673</ele>
        <time>2015-10-11T07:20:18Z</time>
      </trkpt>
      <trkpt lat="45.95149" lon="4.61873">
        <ele>425.27655</ele>
        <time>2015-10-11T07:20:20Z</time>
      </trkpt>
      <trkpt lat="45.95148" lon="4.61871">
        <ele>425.634155</ele>
        <time>2015-10-11T07:20:22Z</time>
      </trkpt>
      <trkpt lat="45.95148" lon="4.6187">
        <ele>425.817688</ele>
        <time>2015-10-11T07:20:23Z</time>
      </trkpt>
      <trkpt lat="45.95148" lon="4.61868">
        <ele>426.110565</ele>
        <time>2015-10-11T07:20:27Z</time>
      </trkpt>
      <trkpt lat="45.95149" lon="4.61868">
        <ele>426.085052</ele>
        <time>2015-10-11T07:20:28Z</time>
      </trkpt>
      <trkpt lat="45.95149" lon="4.61868">
        <ele>426.077728</ele>
        <time>2015-10-11T07:20:31Z</time>
      </trkpt>
      <trkpt lat="45.95149" lon="4.61868">
        <ele>425.861145</ele>
        <time>2015-10-11T07:20:33Z</time>
      </trkpt>
      <trkpt lat="45.95149" lon="4.61869">
        <ele>425.804779</ele>
        <time>2015-10-11T07:20:36Z</time>
      </trkpt>
      <trkpt lat="45.95149" lon="4.61869">
        <ele>425.824677</ele>
        <time>2015-10-11T07:20:38Z</time>
      </trkpt>
      <trkpt lat="45.9515" lon="4.61869">
        <ele>425.758972</ele>
        <time>2015-10-11T07:20:40Z</time>
      </trkpt>
      <trkpt lat="45.9515" lon="4.61869">
        <ele>425.700531</ele>
        <time>2015-10-11T07:20:42Z</time>
      </trkpt>
      <trkpt lat="45.9515" lon="4.61869">
        <ele>425.641296</ele>
        <time>2015-10-11T07:20:45Z</time>
      </trkpt>
      <trkpt lat="45.9515" lon="4.61869">
        <ele>425.601715</ele>
        <time>2015-10-11T07:20:50Z</time>
      </trkpt>
      <trkpt lat="45.9515" lon="4.6187">
        <ele>425.50946</ele>
        <time>2015-10-11T07:20:52Z</time>
      </trkpt>
      <trkpt lat="45.95143" lon="4.61874">
        <ele>426.220367</ele>
        <time>2015-10-11T07:20:57Z</time>
      </trkpt>
      <trkpt lat="45.9514" lon="4.61875">
        <ele>426.638245</ele>
        <time>2015-10-11T07:20:59Z</time>
      </trkpt>
      <trkpt lat="45.95138" lon="4.61876">
        <ele>426.808319</ele>
        <time>2015-10-11T07:21:00Z</time>
      </trkpt>
      <trkpt lat="45.95133" lon="4.61879">
        <ele>426.972656</ele>
        <time>2015-10-11T07:21:02Z</time>
      </trkpt>
      <trkpt lat="45.9513" lon="4.61881">
        <ele>427.005981</ele>
        <time>2015-10-11T07:21:04Z</time>
      </trkpt>
      <trkpt lat="45.95125" lon="4.61883">
        <ele>427.227234</ele>
        <time>2015-10-11T07:21:06Z</time>
      </trkpt>
      <trkpt lat="45.95117" lon="4.61886">
        <ele>427.59317</ele>
        <time>2015-10-11T07:21:10Z</time>
      </trkpt>
      <trkpt lat="45.9511" lon="4.61888">
        <ele>428.10202</ele>
        <time>2015-10-11T07:21:14Z</time>
      </trkpt>
      <trkpt lat="45.95107" lon="4.61889">
        <ele>428.299286</ele>
        <time>2015-10-11T07:21:16Z</time>
      </trkpt>
      <trkpt lat="45.95103" lon="4.6189">
        <ele>428.501953</ele>
        <time>2015-10-11T07:21:18Z</time>
      </trkpt>
      <trkpt lat="45.951" lon="4.6189">
        <ele>428.707214</ele>
        <time>2015-10-11T07:21:21Z</time>
      </trkpt>
      <trkpt lat="45.95093" lon="4.61892">
        <ele>429.057556</ele>
        <time>2015-10-11T07:21:25Z</time>
      </trkpt>
      <trkpt lat="45.95088" lon="4.61893">
        <ele>429.465302</ele>
        <time>2015-10-11T07:21:29Z</time>
      </trkpt>
      <trkpt lat="45.95084" lon="4.61892">
        <ele>430.050781</ele>
        <time>2015-10-11T07:21:31Z</time>
      </trkpt>
      <trkpt lat="45.95076" lon="4.61891">
        <ele>430.854523</ele>
        <time>2015-10-11T07:21:35Z</time>
      </trkpt>
      <trkpt lat="45.95069" lon="4.61888">
        <ele>432.112213</ele>
        <time>2015-10-11T07:21:39Z</time>
      </trkpt>
      <trkpt lat="45.95066" lon="4.61887">
        <ele>432.621521</ele>
        <time>2015-10-11T07:21:41Z</time>
      </trkpt>
      <trkpt lat="45.95056" lon="4.61883">
        <ele>434.326294</ele>
        <time>2015-10-11T07:21:47Z</time>
      </trkpt>
      <trkpt lat="45.95055" lon="4.61883">
        <ele>434.372314</ele>
        <time>2015-10-11T07:21:48Z</time>
      </trkpt>
      <trkpt lat="45.95046" lon="4.61881">
        <ele>435.652588</ele>
        <time>2015-10-11T07:21:53Z</time>
      </trkpt>
      <trkpt lat="45.95034" lon="4.61881">
        <ele>436.193634</ele>
        <time>2015-10-11T07:21:59Z</time>
      </trkpt>
      <trkpt lat="45.95025" lon="4.6188">
        <ele>436.778503</ele>
        <time>2015-10-11T07:22:04Z</time>
      </trkpt>
      <trkpt lat="45.95014" lon="4.61876">
        <ele>438.028839</ele>
        <time>2015-10-11T07:22:10Z</time>
      </trkpt>
      <trkpt lat="45.95002" lon="4.61873">
        <ele>439.119629</ele>
        <time>2015-10-11T07:22:17Z</time>
      </trkpt>
      <trkpt lat="45.94995" lon="4.61872">
        <ele>439.55368</ele>
        <time>2015-10-11T07:22:21Z</time>
      </trkpt>
      <trkpt lat="45.94993" lon="4.61872">
        <ele>439.670288</ele>
        <time>2015-10-11T07:22:22Z</time>
      </trkpt>
      <trkpt lat="45.94983" lon="4.61868">
        <ele>440.577148</ele>
        <time>2015-10-11T07:22:27Z</time>
      </trkpt>
      <trkpt lat="45.94979" lon="4.61866">
        <ele>441.049957</ele>
        <time>2015-10-11T07:22:31Z</time>
      </trkpt>
      <trkpt lat="45.94972" lon="4.61862">
        <ele>441.963867</ele>
        <time>2015-10-11T07:22:34Z</time>
      </trkpt>
      <trkpt lat="45.94961" lon="4.61858">
        <ele>442.890381</ele>
        <time>2015-10-11T07:22:39Z</time>
      </trkpt>
      <trkpt lat="45.94956" lon="4.61858">
        <ele>442.959564</ele>
        <time>2015-10-11T07:22:42Z</time>
      </trkpt>
      <trkpt lat="45.94954" lon="4.61857">
        <ele>443.051208</ele>
        <time>2015-10-11T07:22:43Z</time>
      </trkpt>
      <trkpt lat="45.9495" lon="4.61856">
        <ele>443.181549</ele>
        <time>2015-10-11T07:22:45Z</time>
      </trkpt>
      <trkpt lat="45.94946" lon="4.61856">
        <ele>443.206177</ele>
        <time>2015-10-11T07:22:47Z</time>
      </trkpt>
      <trkpt lat="45.9494" lon="4.61853">
        <ele>443.63266</ele>
        <time>2015-10-11T07:22:50Z</time>
      </trkpt>
      <trkpt lat="45.94937" lon="4.61852">
        <ele>443.910309</ele>
        <time>2015-10-11T07:22:52Z</time>
      </trkpt>
      <trkpt lat="45.94927" lon="4.61848">
        <ele>444.64389</ele>
        <time>2015-10-11T07:22:57Z</time>
      </trkpt>
      <trkpt lat="45.94921" lon="4.61845">
        <ele>445.17511</ele>
        <time>2015-10-11T07:23:00Z</time>
      </trkpt>
      <trkpt lat="45.94917" lon="4.61843">
        <ele>445.510376</ele>
        <time>2015-10-11T07:23:03Z</time>
      </trkpt>
      <trkpt lat="45.94912" lon="4.61839">
        <ele>445.654419</ele>
        <time>2015-10-11T07:23:05Z</time>
      </trkpt>
      <trkpt lat="45.94906" lon="4.61832">
        <ele>446.070496</ele>
        <time>2015-10-11T07:23:10Z</time>
      </trkpt>
      <trkpt lat="45.94898" lon="4.61822">
        <ele>446.676483</ele>
        <time>2015-10-11T07:23:15Z</time>
      </trkpt>
      <trkpt lat="45.94898" lon="4.61822">
        <ele>446.66626</ele>
        <time>2015-10-11T07:23:16Z</time>
      </trkpt>
      <trkpt lat="45.94892" lon="4.61813">
        <ele>447.461639</ele>
        <time>2015-10-11T07:23:21Z</time>
      </trkpt>
      <trkpt lat="45.94884" lon="4.61803">
        <ele>448.232269</ele>
        <time>2015-10-11T07:23:26Z</time>
      </trkpt>
      <trkpt lat="45.94878" lon="4.61797">
        <ele>448.324005</ele>
        <time>2015-10-11T07:23:30Z</time>
      </trkpt>
      <trkpt lat="45.94877" lon="4.61796">
        <ele>448.375366</ele>
        <time>2015-10-11T07:23:31Z</time>
      </trkpt>
      <trkpt lat="45.9487" lon="4.6179">
        <ele>448.726471</ele>
        <time>2015-10-11T07:23:36Z</time>
      </trkpt>
      <trkpt lat="45.94867" lon="4.61779">
        <ele>450.132507</ele>
        <time>2015-10-11T07:23:40Z</time>
      </trkpt>
      <trkpt lat="45.94865" lon="4.61777">
        <ele>450.060547</ele>
        <time>2015-10-11T07:23:42Z</time>
      </trkpt>
      <trkpt lat="45.94863" lon="4.61774">
        <ele>450.203339</ele>
        <time>2015-10-11T07:23:43Z</time>
      </trkpt>
      <trkpt lat="45.9486" lon="4.61768">
        <ele>450.751587</ele>
        <time>2015-10-11T07:23:46Z</time>
      </trkpt>
      <trkpt lat="45.94859" lon="4.61765">
        <ele>451.14978</ele>
        <time>2015-10-11T07:23:47Z</time>
      </trkpt>
      <trkpt lat="45.94857" lon="4.61761">
        <ele>451.41803</ele>
        <time>2015-10-11T07:23:49Z</time>
      </trkpt>
      <trkpt lat="45.94856" lon="4.61756">
        <ele>451.988861</ele>
        <time>2015-10-11T07:23:51Z</time>
      </trkpt>
      <trkpt lat="45.94851" lon="4.61747">
        <ele>452.923553</ele>
        <time>2015-10-11T07:23:55Z</time>
      </trkpt>
      <trkpt lat="45.9485" lon="4.61742">
        <ele>453.616547</ele>
        <time>2015-10-11T07:23:57Z</time>
      </trkpt>
      <trkpt lat="45.94847" lon="4.61731">
        <ele>455.109955</ele>
        <time>2015-10-11T07:24:01Z</time>
      </trkpt>
      <trkpt lat="45.94842" lon="4.61721">
        <ele>456.346588</ele>
        <time>2015-10-11T07:24:06Z</time>
      </trkpt>
      <trkpt lat="45.94833" lon="4.61713">
        <ele>456.822998</ele>
        <time>2015-10-11T07:24:11Z</time>
      </trkpt>
      <trkpt lat="45.94826" lon="4.61704">
        <ele>457.622131</ele>
        <time>2015-10-11T07:24:16Z</time>
      </trkpt>
      <trkpt lat="45.94826" lon="4.61702">
        <ele>457.846832</ele>
        <time>2015-10-11T07:24:17Z</time>
      </trkpt>
      <trkpt lat="45.94818" lon="4.61696">
        <ele>458.804352</ele>
        <time>2015-10-11T07:24:21Z</time>
      </trkpt>
      <trkpt lat="45.94805" lon="4.6169">
        <ele>459.787415</ele>
        <time>2015-10-11T07:24:27Z</time>
      </trkpt>
      <trkpt lat="45.94797" lon="4.61688">
        <ele>459.971619</ele>
        <time>2015-10-11T07:24:31Z</time>
      </trkpt>
      <trkpt lat="45.94795" lon="4.61688">
        <ele>459.942688</ele>
        <time>2015-10-11T07:24:32Z</time>
      </trkpt>
      <trkpt lat="45.94787" lon="4.61687">
        <ele>459.972656</ele>
        <time>2015-10-11T07:24:36Z</time>
      </trkpt>
      <trkpt lat="45.94782" lon="4.61687">
        <ele>459.859894</ele>
        <time>2015-10-11T07:24:38Z</time>
      </trkpt>
      <trkpt lat="45.94771" lon="4.61687">
        <ele>460.662781</ele>
        <time>2015-10-11T07:24:43Z</time>
      </trkpt>
      <trkpt lat="45.94763" lon="4.61688">
        <ele>461.066956</ele>
        <time>2015-10-11T07:24:48Z</time>
      </trkpt>
      <trkpt lat="45.94749" lon="4.61688">
        <ele>462.257233</ele>
        <time>2015-10-11T07:24:55Z</time>
      </trkpt>
      <trkpt lat="45.94744" lon="4.61689">
        <ele>462.432373</ele>
        <time>2015-10-11T07:24:58Z</time>
      </trkpt>
      <trkpt lat="45.94734" lon="4.6169">
        <ele>463.147278</ele>
        <time>2015-10-11T07:25:02Z</time>
      </trkpt>
      <trkpt lat="45.94722" lon="4.61692">
        <ele>463.565247</ele>
        <time>2015-10-11T07:25:09Z</time>
      </trkpt>
      <trkpt lat="45.94711" lon="4.61694">
        <ele>464.181152</ele>
        <time>2015-10-11T07:25:14Z</time>
      </trkpt>
      <trkpt lat="45.94701" lon="4.61697">
        <ele>464.266968</ele>
        <time>2015-10-11T07:25:19Z</time>
      </trkpt>
      <trkpt lat="45.94695" lon="4.61699">
        <ele>464.493805</ele>
        <time>2015-10-11T07:25:22Z</time>
      </trkpt>
      <trkpt lat="45.94693" lon="4.61699">
        <ele>464.512634</ele>
        <time>2015-10-11T07:25:23Z</time>
      </trkpt>
      <trkpt lat="45.94685" lon="4.61699">
        <ele>464.980652</ele>
        <time>2015-10-11T07:25:27Z</time>
      </trkpt>
      <trkpt lat="45.94677" lon="4.617">
        <ele>465.417084</ele>
        <time>2015-10-11T07:25:32Z</time>
      </trkpt>
      <trkpt lat="45.9467" lon="4.61699">
        <ele>465.840759</ele>
        <time>2015-10-11T07:25:36Z</time>
      </trkpt>
      <trkpt lat="45.94657" lon="4.617">
        <ele>466.483063</ele>
        <time>2015-10-11T07:25:42Z</time>
      </trkpt>
      <trkpt lat="45.94645" lon="4.61701">
        <ele>467.077087</ele>
        <time>2015-10-11T07:25:48Z</time>
      </trkpt>
      <trkpt lat="45.94634" lon="4.61701">
        <ele>467.955414</ele>
        <time>2015-10-11T07:25:53Z</time>
      </trkpt>
      <trkpt lat="45.94622" lon="4.61699">
        <ele>469.349854</ele>
        <time>2015-10-11T07:25:59Z</time>
      </trkpt>
      <trkpt lat="45.94608" lon="4.61696">
        <ele>470.959442</ele>
        <time>2015-10-11T07:26:06Z</time>
      </trkpt>
      <trkpt lat="45.94597" lon="4.61695">
        <ele>472.344208</ele>
        <time>2015-10-11T07:26:12Z</time>
      </trkpt>
      <trkpt lat="45.94586" lon="4.61695">
        <ele>474.042755</ele>
        <time>2015-10-11T07:26:18Z</time>
      </trkpt>
      <trkpt lat="45.94572" lon="4.61701">
        <ele>474.967743</ele>
        <time>2015-10-11T07:26:24Z</time>
      </trkpt>
      <trkpt lat="45.94559" lon="4.61707">
        <ele>475.88092</ele>
        <time>2015-10-11T07:26:30Z</time>
      </trkpt>
      <trkpt lat="45.94544" lon="4.61716">
        <ele>476.977173</ele>
        <time>2015-10-11T07:26:37Z</time>
      </trkpt>
      <trkpt lat="45.94533" lon="4.61722">
        <ele>478.02887</ele>
        <time>2015-10-11T07:26:43Z</time>
      </trkpt>
      <trkpt lat="45.94522" lon="4.61727">
        <ele>478.862732</ele>
        <time>2015-10-11T07:26:48Z</time>
      </trkpt>
      <trkpt lat="45.94505" lon="4.61737">
        <ele>479.920715</ele>
        <time>2015-10-11T07:26:57Z</time>
      </trkpt>
      <trkpt lat="45.94493" lon="4.61742">
        <ele>480.334259</ele>
        <time>2015-10-11T07:27:03Z</time>
      </trkpt>
      <trkpt lat="45.94479" lon="4.61746">
        <ele>481.185699</ele>
        <time>2015-10-11T07:27:10Z</time>
      </trkpt>
      <trkpt lat="45.94468" lon="4.61749">
        <ele>481.889343</ele>
        <time>2015-10-11T07:27:15Z</time>
      </trkpt>
      <trkpt lat="45.94458" lon="4.6175">
        <ele>481.634064</ele>
        <time>2015-10-11T07:27:20Z</time>
      </trkpt>
      <trkpt lat="45.94448" lon="4.61748">
        <ele>481.766449</ele>
        <time>2015-10-11T07:27:25Z</time>
      </trkpt>
      <trkpt lat="45.94434" lon="4.61746">
        <ele>481.889221</ele>
        <time>2015-10-11T07:27:31Z</time>
      </trkpt>
      <trkpt lat="45.94422" lon="4.61743">
        <ele>482.153076</ele>
        <time>2015-10-11T07:27:36Z</time>
      </trkpt>
      <trkpt lat="45.94419" lon="4.61743">
        <ele>481.975403</ele>
        <time>2015-10-11T07:27:37Z</time>
      </trkpt>
      <trkpt lat="45.9441" lon="4.61741">
        <ele>481.488098</ele>
        <time>2015-10-11T07:27:41Z</time>
      </trkpt>
      <trkpt lat="45.94398" lon="4.6174">
        <ele>480.644287</ele>
        <time>2015-10-11T07:27:45Z</time>
      </trkpt>
      <trkpt lat="45.94383" lon="4.61738">
        <ele>479.633331</ele>
        <time>2015-10-11T07:27:51Z</time>
      </trkpt>
      <trkpt lat="45.94379" lon="4.61738">
        <ele>479.418549</ele>
        <time>2015-10-11T07:27:52Z</time>
      </trkpt>
      <trkpt lat="45.9436" lon="4.6174">
        <ele>477.258972</ele>
        <time>2015-10-11T07:27:59Z</time>
      </trkpt>
      <trkpt lat="45.94343" lon="4.61749">
        <ele>474.31839</ele>
        <time>2015-10-11T07:28:05Z</time>
      </trkpt>
      <trkpt lat="45.9434" lon="4.61749">
        <ele>474.01532</ele>
        <time>2015-10-11T07:28:06Z</time>
      </trkpt>
      <trkpt lat="45.94321" lon="4.61749">
        <ele>472.565094</ele>
        <time>2015-10-11T07:28:13Z</time>
      </trkpt>
      <trkpt lat="45.94319" lon="4.61751">
        <ele>471.953552</ele>
        <time>2015-10-11T07:28:14Z</time>
      </trkpt>
      <trkpt lat="45.94316" lon="4.61758">
        <ele>470.764069</ele>
        <time>2015-10-11T07:28:16Z</time>
      </trkpt>
      <trkpt lat="45.94315" lon="4.61762">
        <ele>470.378662</ele>
        <time>2015-10-11T07:28:17Z</time>
      </trkpt>
      <trkpt lat="45.94312" lon="4.6179">
        <ele>467.493805</ele>
        <time>2015-10-11T07:28:24Z</time>
      </trkpt>
      <trkpt lat="45.94311" lon="4.61794">
        <ele>467.07608</ele>
        <time>2015-10-11T07:28:25Z</time>
      </trkpt>
      <trkpt lat="45.94308" lon="4.61805">
        <ele>465.828033</ele>
        <time>2015-10-11T07:28:28Z</time>
      </trkpt>
      <trkpt lat="45.94301" lon="4.61808">
        <ele>465.107361</ele>
        <time>2015-10-11T07:28:30Z</time>
      </trkpt>
      <trkpt lat="45.94295" lon="4.61808">
        <ele>464.723633</ele>
        <time>2015-10-11T07:28:32Z</time>
      </trkpt>
      <trkpt lat="45.9428" lon="4.61804">
        <ele>464.134674</ele>
        <time>2015-10-11T07:28:37Z</time>
      </trkpt>
      <trkpt lat="45.9426" lon="4.618">
        <ele>463.683563</ele>
        <time>2015-10-11T07:28:44Z</time>
      </trkpt>
      <trkpt lat="45.9424" lon="4.61797">
        <ele>463.210297</ele>
        <time>2015-10-11T07:28:51Z</time>
      </trkpt>
      <trkpt lat="45.94226" lon="4.61795">
        <ele>463.29071</ele>
        <time>2015-10-11T07:28:56Z</time>
      </trkpt>
      <trkpt lat="45.94216" lon="4.61792">
        <ele>463.423309</ele>
        <time>2015-10-11T07:29:00Z</time>
      </trkpt>
      <trkpt lat="45.94196" lon="4.6179">
        <ele>463.564697</ele>
        <time>2015-10-11T07:29:07Z</time>
      </trkpt>
      <trkpt lat="45.94191" lon="4.61789">
        <ele>463.748077</ele>
        <time>2015-10-11T07:29:09Z</time>
      </trkpt>
      <trkpt lat="45.94173" lon="4.61785">
        <ele>464.329163</ele>
        <time>2015-10-11T07:29:16Z</time>
      </trkpt>
      <trkpt lat="45.9417" lon="4.61785">
        <ele>464.38327</ele>
        <time>2015-10-11T07:29:17Z</time>
      </trkpt>
      <trkpt lat="45.94152" lon="4.61782">
        <ele>464.897583</ele>
        <time>2015-10-11T07:29:24Z</time>
      </trkpt>
      <trkpt lat="45.94133" lon="4.6178">
        <ele>464.625183</ele>
        <time>2015-10-11T07:29:31Z</time>
      </trkpt>
      <trkpt lat="45.94127" lon="4.61785">
        <ele>463.900085</ele>
        <time>2015-10-11T07:29:34Z</time>
      </trkpt>
      <trkpt lat="45.94126" lon="4.61788">
        <ele>463.448914</ele>
        <time>2015-10-11T07:29:35Z</time>
      </trkpt>
      <trkpt lat="45.94124" lon="4.61804">
        <ele>461.500824</ele>
        <time>2015-10-11T07:29:39Z</time>
      </trkpt>
      <trkpt lat="45.94122" lon="4.61808">
        <ele>460.93927</ele>
        <time>2015-10-11T07:29:40Z</time>
      </trkpt>
      <trkpt lat="45.94113" lon="4.61812">
        <ele>460.197845</ele>
        <time>2015-10-11T07:29:43Z</time>
      </trkpt>
      <trkpt lat="45.94099" lon="4.61807">
        <ele>460.283447</ele>
        <time>2015-10-11T07:29:48Z</time>
      </trkpt>
      <trkpt lat="45.94084" lon="4.61799">
        <ele>460.487823</ele>
        <time>2015-10-11T07:29:54Z</time>
      </trkpt>
      <trkpt lat="45.94066" lon="4.61786">
        <ele>461.151245</ele>
        <time>2015-10-11T07:30:02Z</time>
      </trkpt>
      <trkpt lat="45.94056" lon="4.61777">
        <ele>461.560699</ele>
        <time>2015-10-11T07:30:07Z</time>
      </trkpt>
      <trkpt lat="45.94052" lon="4.61773">
        <ele>461.807922</ele>
        <time>2015-10-11T07:30:09Z</time>
      </trkpt>
      <trkpt lat="45.94042" lon="4.6176">
        <ele>462.478485</ele>
        <time>2015-10-11T07:30:15Z</time>
      </trkpt>
      <trkpt lat="45.9404" lon="4.61757">
        <ele>462.607666</ele>
        <time>2015-10-11T07:30:16Z</time>
      </trkpt>
      <trkpt lat="45.94027" lon="4.61742">
        <ele>463.027435</ele>
        <time>2015-10-11T07:30:22Z</time>
      </trkpt>
      <trkpt lat="45.94024" lon="4.61739">
        <ele>462.872314</ele>
        <time>2015-10-11T07:30:23Z</time>
      </trkpt>
      <trkpt lat="45.94023" lon="4.61736">
        <ele>462.947571</ele>
        <time>2015-10-11T07:30:24Z</time>
      </trkpt>
      <trkpt lat="45.94019" lon="4.61731">
        <ele>462.828339</ele>
        <time>2015-10-11T07:30:26Z</time>
      </trkpt>
      <trkpt lat="45.94008" lon="4.61715">
        <ele>461.967957</ele>
        <time>2015-10-11T07:30:32Z</time>
      </trkpt>
      <trkpt lat="45.94005" lon="4.61709">
        <ele>461.81076</ele>
        <time>2015-10-11T07:30:34Z</time>
      </trkpt>
      <trkpt lat="45.94002" lon="4.61704">
        <ele>461.59964</ele>
        <time>2015-10-11T07:30:36Z</time>
      </trkpt>
      <trkpt lat="45.93998" lon="4.61699">
        <ele>461.133057</ele>
        <time>2015-10-11T07:30:38Z</time>
      </trkpt>
      <trkpt lat="45.93994" lon="4.61694">
        <ele>460.748627</ele>
        <time>2015-10-11T07:30:40Z</time>
      </trkpt>
      <trkpt lat="45.93989" lon="4.61675">
        <ele>460.487885</ele>
        <time>2015-10-11T07:30:45Z</time>
      </trkpt>
      <trkpt lat="45.93983" lon="4.61667">
        <ele>459.340057</ele>
        <time>2015-10-11T07:30:49Z</time>
      </trkpt>
      <trkpt lat="45.93987" lon="4.61664">
        <ele>459.794891</ele>
        <time>2015-10-11T07:30:52Z</time>
      </trkpt>
      <trkpt lat="45.93992" lon="4.61663">
        <ele>460.516724</ele>
        <time>2015-10-11T07:30:54Z</time>
      </trkpt>
      <trkpt lat="45.94" lon="4.61661">
        <ele>461.769806</ele>
        <time>2015-10-11T07:30:58Z</time>
      </trkpt>
      <trkpt lat="45.94015" lon="4.61653">
        <ele>463.650909</ele>
        <time>2015-10-11T07:31:04Z</time>
      </trkpt>
      <trkpt lat="45.94029" lon="4.61651">
        <ele>465.528259</ele>
        <time>2015-10-11T07:31:09Z</time>
      </trkpt>
      <trkpt lat="45.94035" lon="4.61651">
        <ele>466.203735</ele>
        <time>2015-10-11T07:31:12Z</time>
      </trkpt>
      <trkpt lat="45.94035" lon="4.61651">
        <ele>466.252441</ele>
        <time>2015-10-11T07:31:13Z</time>
      </trkpt>
      <trkpt lat="45.94036" lon="4.61656">
        <ele>466.51178</ele>
        <time>2015-10-11T07:31:17Z</time>
      </trkpt>
      <trkpt lat="45.9404" lon="4.6166">
        <ele>467.06369</ele>
        <time>2015-10-11T07:31:23Z</time>
      </trkpt>
      <trkpt lat="45.94048" lon="4.61658">
        <ele>468.052124</ele>
        <time>2015-10-11T07:31:27Z</time>
      </trkpt>
      <trkpt lat="45.9405" lon="4.61657">
        <ele>468.337921</ele>
        <time>2015-10-11T07:31:28Z</time>
      </trkpt>
      <trkpt lat="45.94059" lon="4.61657">
        <ele>469.422638</ele>
        <time>2015-10-11T07:31:32Z</time>
      </trkpt>
      <trkpt lat="45.94071" lon="4.61656">
        <ele>470.831329</ele>
        <time>2015-10-11T07:31:37Z</time>
      </trkpt>
      <trkpt lat="45.94084" lon="4.61648">
        <ele>472.601227</ele>
        <time>2015-10-11T07:31:43Z</time>
      </trkpt>
      <trkpt lat="45.94094" lon="4.61642">
        <ele>474.152435</ele>
        <time>2015-10-11T07:31:48Z</time>
      </trkpt>
      <trkpt lat="45.94099" lon="4.6164">
        <ele>474.941711</ele>
        <time>2015-10-11T07:31:51Z</time>
      </trkpt>
      <trkpt lat="45.94103" lon="4.61637">
        <ele>475.620728</ele>
        <time>2015-10-11T07:31:53Z</time>
      </trkpt>
      <trkpt lat="45.94114" lon="4.61632">
        <ele>477.84903</ele>
        <time>2015-10-11T07:31:59Z</time>
      </trkpt>
      <trkpt lat="45.9412" lon="4.6163">
        <ele>479.213501</ele>
        <time>2015-10-11T07:32:04Z</time>
      </trkpt>
      <trkpt lat="45.94122" lon="4.61629">
        <ele>479.590729</ele>
        <time>2015-10-11T07:32:06Z</time>
      </trkpt>
      <trkpt lat="45.94125" lon="4.61627">
        <ele>480.389801</ele>
        <time>2015-10-11T07:32:10Z</time>
      </trkpt>
      <trkpt lat="45.94127" lon="4.61626">
        <ele>480.777832</ele>
        <time>2015-10-11T07:32:12Z</time>
      </trkpt>
      <trkpt lat="45.94132" lon="4.61625">
        <ele>481.830231</ele>
        <time>2015-10-11T07:32:17Z</time>
      </trkpt>
      <trkpt lat="45.94135" lon="4.61626">
        <ele>482.393311</ele>
        <time>2015-10-11T07:32:21Z</time>
      </trkpt>
      <trkpt lat="45.94136" lon="4.61626">
        <ele>482.519623</ele>
        <time>2015-10-11T07:32:22Z</time>
      </trkpt>
      <trkpt lat="45.94143" lon="4.61627">
        <ele>483.891205</ele>
        <time>2015-10-11T07:32:29Z</time>
      </trkpt>
      <trkpt lat="45.94145" lon="4.61627">
        <ele>484.277252</ele>
        <time>2015-10-11T07:32:31Z</time>
      </trkpt>
      <trkpt lat="45.9415" lon="4.61628">
        <ele>484.996216</ele>
        <time>2015-10-11T07:32:36Z</time>
      </trkpt>
      <trkpt lat="45.94151" lon="4.61628">
        <ele>485.162811</ele>
        <time>2015-10-11T07:32:37Z</time>
      </trkpt>
      <trkpt lat="45.94154" lon="4.61627">
        <ele>486.013947</ele>
        <time>2015-10-11T07:32:41Z</time>
      </trkpt>
      <trkpt lat="45.94155" lon="4.61625">
        <ele>486.389221</ele>
        <time>2015-10-11T07:32:43Z</time>
      </trkpt>
      <trkpt lat="45.94159" lon="4.61621">
        <ele>487.53595</ele>
        <time>2015-10-11T07:32:47Z</time>
      </trkpt>
      <trkpt lat="45.9416" lon="4.61619">
        <ele>487.955017</ele>
        <time>2015-10-11T07:32:49Z</time>
      </trkpt>
      <trkpt lat="45.94164" lon="4.61617">
        <ele>488.802094</ele>
        <time>2015-10-11T07:32:54Z</time>
      </trkpt>
      <trkpt lat="45.94171" lon="4.61615">
        <ele>489.959747</ele>
        <time>2015-10-11T07:33:00Z</time>
      </trkpt>
      <trkpt lat="45.94173" lon="4.61614">
        <ele>490.529419</ele>
        <time>2015-10-11T07:33:03Z</time>
      </trkpt>
      <trkpt lat="45.94178" lon="4.61611">
        <ele>491.703918</ele>
        <time>2015-10-11T07:33:08Z</time>
      </trkpt>
      <trkpt lat="45.94179" lon="4.61611">
        <ele>491.929504</ele>
        <time>2015-10-11T07:33:09Z</time>
      </trkpt>
      <trkpt lat="45.94183" lon="4.61609">
        <ele>492.837036</ele>
        <time>2015-10-11T07:33:13Z</time>
      </trkpt>
      <trkpt lat="45.94186" lon="4.61607">
        <ele>493.706909</ele>
        <time>2015-10-11T07:33:16Z</time>
      </trkpt>
      <trkpt lat="45.94186" lon="4.61605">
        <ele>494.117432</ele>
        <time>2015-10-11T07:33:17Z</time>
      </trkpt>
      <trkpt lat="45.94188" lon="4.61604">
        <ele>494.73877</ele>
        <time>2015-10-11T07:33:19Z</time>
      </trkpt>
      <trkpt lat="45.94189" lon="4.61603">
        <ele>494.947083</ele>
        <time>2015-10-11T07:33:20Z</time>
      </trkpt>
      <trkpt lat="45.94191" lon="4.61602">
        <ele>495.4039</ele>
        <time>2015-10-11T07:33:22Z</time>
      </trkpt>
      <trkpt lat="45.94194" lon="4.61599">
        <ele>496.591248</ele>
        <time>2015-10-11T07:33:26Z</time>
      </trkpt>
      <trkpt lat="45.94195" lon="4.61596">
        <ele>497.386475</ele>
        <time>2015-10-11T07:33:28Z</time>
      </trkpt>
      <trkpt lat="45.94197" lon="4.61591">
        <ele>498.654358</ele>
        <time>2015-10-11T07:33:32Z</time>
      </trkpt>
      <trkpt lat="45.94198" lon="4.61589">
        <ele>499.250702</ele>
        <time>2015-10-11T07:33:34Z</time>
      </trkpt>
      <trkpt lat="45.94199" lon="4.61585">
        <ele>500.295898</ele>
        <time>2015-10-11T07:33:38Z</time>
      </trkpt>
      <trkpt lat="45.942" lon="4.61577">
        <ele>502.073517</ele>
        <time>2015-10-11T07:33:43Z</time>
      </trkpt>
      <trkpt lat="45.942" lon="4.61576">
        <ele>502.322144</ele>
        <time>2015-10-11T07:33:44Z</time>
      </trkpt>
      <trkpt lat="45.94202" lon="4.6157">
        <ele>503.596344</ele>
        <time>2015-10-11T07:33:49Z</time>
      </trkpt>
      <trkpt lat="45.94204" lon="4.61566">
        <ele>504.727509</ele>
        <time>2015-10-11T07:33:52Z</time>
      </trkpt>
      <trkpt lat="45.94204" lon="4.61565">
        <ele>504.959167</ele>
        <time>2015-10-11T07:33:53Z</time>
      </trkpt>
      <trkpt lat="45.94205" lon="4.61561">
        <ele>505.969482</ele>
        <time>2015-10-11T07:33:55Z</time>
      </trkpt>
      <trkpt lat="45.94209" lon="4.61551">
        <ele>507.707336</ele>
        <time>2015-10-11T07:34:02Z</time>
      </trkpt>
      <trkpt lat="45.9421" lon="4.61545">
        <ele>508.420654</ele>
        <time>2015-10-11T07:34:06Z</time>
      </trkpt>
      <trkpt lat="45.9421" lon="4.61544">
        <ele>508.536377</ele>
        <time>2015-10-11T07:34:07Z</time>
      </trkpt>
      <trkpt lat="45.94211" lon="4.61536">
        <ele>509.423065</ele>
        <time>2015-10-11T07:34:13Z</time>
      </trkpt>
      <trkpt lat="45.94211" lon="4.61535">
        <ele>509.600647</ele>
        <time>2015-10-11T07:34:14Z</time>
      </trkpt>
      <trkpt lat="45.94212" lon="4.61529">
        <ele>510.230652</ele>
        <time>2015-10-11T07:34:18Z</time>
      </trkpt>
      <trkpt lat="45.94214" lon="4.61521">
        <ele>511.463593</ele>
        <time>2015-10-11T07:34:24Z</time>
      </trkpt>
      <trkpt lat="45.94216" lon="4.61516">
        <ele>512.407166</ele>
        <time>2015-10-11T07:34:28Z</time>
      </trkpt>
      <trkpt lat="45.94216" lon="4.61514">
        <ele>512.541199</ele>
        <time>2015-10-11T07:34:29Z</time>
      </trkpt>
      <trkpt lat="45.94216" lon="4.61513">
        <ele>512.695251</ele>
        <time>2015-10-11T07:34:30Z</time>
      </trkpt>
      <trkpt lat="45.94218" lon="4.61509">
        <ele>513.335266</ele>
        <time>2015-10-11T07:34:33Z</time>
      </trkpt>
      <trkpt lat="45.94219" lon="4.61507">
        <ele>513.936523</ele>
        <time>2015-10-11T07:34:35Z</time>
      </trkpt>
      <trkpt lat="45.94221" lon="4.61506">
        <ele>514.295471</ele>
        <time>2015-10-11T07:34:36Z</time>
      </trkpt>
      <trkpt lat="45.94225" lon="4.61505">
        <ele>515.456604</ele>
        <time>2015-10-11T07:34:42Z</time>
      </trkpt>
      <trkpt lat="45.94226" lon="4.61506">
        <ele>515.724487</ele>
        <time>2015-10-11T07:34:44Z</time>
      </trkpt>
      <trkpt lat="45.94229" lon="4.61505">
        <ele>516.271057</ele>
        <time>2015-10-11T07:34:46Z</time>
      </trkpt>
      <trkpt lat="45.94233" lon="4.61503">
        <ele>517.600098</ele>
        <time>2015-10-11T07:34:49Z</time>
      </trkpt>
      <trkpt lat="45.94234" lon="4.61502">
        <ele>517.842651</ele>
        <time>2015-10-11T07:34:50Z</time>
      </trkpt>
      <trkpt lat="45.94242" lon="4.615">
        <ele>520.099182</ele>
        <time>2015-10-11T07:34:57Z</time>
      </trkpt>
      <trkpt lat="45.94246" lon="4.61499">
        <ele>521.287537</ele>
        <time>2015-10-11T07:35:00Z</time>
      </trkpt>
      <trkpt lat="45.9425" lon="4.61498">
        <ele>521.773499</ele>
        <time>2015-10-11T07:35:03Z</time>
      </trkpt>
      <trkpt lat="45.94257" lon="4.61494">
        <ele>522.793091</ele>
        <time>2015-10-11T07:35:08Z</time>
      </trkpt>
      <trkpt lat="45.9426" lon="4.61491">
        <ele>523.185364</ele>
        <time>2015-10-11T07:35:10Z</time>
      </trkpt>
      <trkpt lat="45.94271" lon="4.61482">
        <ele>525.052307</ele>
        <time>2015-10-11T07:35:17Z</time>
      </trkpt>
      <trkpt lat="45.94275" lon="4.61481">
        <ele>525.567627</ele>
        <time>2015-10-11T07:35:19Z</time>
      </trkpt>
      <trkpt lat="45.94281" lon="4.61482">
        <ele>526.194458</ele>
        <time>2015-10-11T07:35:22Z</time>
      </trkpt>
      <trkpt lat="45.94293" lon="4.61479">
        <ele>527.871582</ele>
        <time>2015-10-11T07:35:27Z</time>
      </trkpt>
      <trkpt lat="45.94304" lon="4.61478">
        <ele>528.484741</ele>
        <time>2015-10-11T07:35:31Z</time>
      </trkpt>
      <trkpt lat="45.94323" lon="4.6148">
        <ele>528.954956</ele>
        <time>2015-10-11T07:35:38Z</time>
      </trkpt>
      <trkpt lat="45.94326" lon="4.6148">
        <ele>529.029907</ele>
        <time>2015-10-11T07:35:39Z</time>
      </trkpt>
      <trkpt lat="45.94342" lon="4.61482">
        <ele>529.082764</ele>
        <time>2015-10-11T07:35:45Z</time>
      </trkpt>
      <trkpt lat="45.94354" lon="4.61483">
        <ele>528.636292</ele>
        <time>2015-10-11T07:35:50Z</time>
      </trkpt>
      <trkpt lat="45.94371" lon="4.61483">
        <ele>528.417175</ele>
        <time>2015-10-11T07:35:57Z</time>
      </trkpt>
      <trkpt lat="45.94383" lon="4.6148">
        <ele>528.853638</ele>
        <time>2015-10-11T07:36:02Z</time>
      </trkpt>
      <trkpt lat="45.94402" lon="4.61474">
        <ele>529.261902</ele>
        <time>2015-10-11T07:36:09Z</time>
      </trkpt>
      <trkpt lat="45.94417" lon="4.61469">
        <ele>529.605835</ele>
        <time>2015-10-11T07:36:15Z</time>
      </trkpt>
      <trkpt lat="45.94431" lon="4.61463">
        <ele>529.97168</ele>
        <time>2015-10-11T07:36:21Z</time>
      </trkpt>
      <trkpt lat="45.94444" lon="4.61457">
        <ele>530.193604</ele>
        <time>2015-10-11T07:36:27Z</time>
      </trkpt>
      <trkpt lat="45.94451" lon="4.61455">
        <ele>530.136902</ele>
        <time>2015-10-11T07:36:30Z</time>
      </trkpt>
      <trkpt lat="45.94456" lon="4.61453">
        <ele>530.08313</ele>
        <time>2015-10-11T07:36:32Z</time>
      </trkpt>
      <trkpt lat="45.94469" lon="4.61447">
        <ele>530.169556</ele>
        <time>2015-10-11T07:36:38Z</time>
      </trkpt>
      <trkpt lat="45.94483" lon="4.61442">
        <ele>530.297363</ele>
        <time>2015-10-11T07:36:43Z</time>
      </trkpt>
      <trkpt lat="45.94494" lon="4.61436">
        <ele>530.857056</ele>
        <time>2015-10-11T07:36:48Z</time>
      </trkpt>
      <trkpt lat="45.94506" lon="4.61432">
        <ele>531.055054</ele>
        <time>2015-10-11T07:36:53Z</time>
      </trkpt>
      <trkpt lat="45.94508" lon="4.6143">
        <ele>531.257507</ele>
        <time>2015-10-11T07:36:54Z</time>
      </trkpt>
      <trkpt lat="45.94516" lon="4.61426">
        <ele>531.754517</ele>
        <time>2015-10-11T07:36:58Z</time>
      </trkpt>
      <trkpt lat="45.94518" lon="4.61426">
        <ele>531.714539</ele>
        <time>2015-10-11T07:36:59Z</time>
      </trkpt>
      <trkpt lat="45.94526" lon="4.61421">
        <ele>531.79364</ele>
        <time>2015-10-11T07:37:02Z</time>
      </trkpt>
      <trkpt lat="45.94528" lon="4.6142">
        <ele>531.715271</ele>
        <time>2015-10-11T07:37:03Z</time>
      </trkpt>
      <trkpt lat="45.94531" lon="4.61417">
        <ele>531.972412</ele>
        <time>2015-10-11T07:37:05Z</time>
      </trkpt>
      <trkpt lat="45.94536" lon="4.61414">
        <ele>532.001648</ele>
        <time>2015-10-11T07:37:07Z</time>
      </trkpt>
      <trkpt lat="45.94547" lon="4.61409">
        <ele>531.915039</ele>
        <time>2015-10-11T07:37:11Z</time>
      </trkpt>
      <trkpt lat="45.94556" lon="4.61404">
        <ele>532.029724</ele>
        <time>2015-10-11T07:37:14Z</time>
      </trkpt>
      <trkpt lat="45.94564" lon="4.61397">
        <ele>532.570435</ele>
        <time>2015-10-11T07:37:17Z</time>
      </trkpt>
      <trkpt lat="45.94575" lon="4.61392">
        <ele>532.103516</ele>
        <time>2015-10-11T07:37:22Z</time>
      </trkpt>
      <trkpt lat="45.9458" lon="4.6139">
        <ele>531.917908</ele>
        <time>2015-10-11T07:37:25Z</time>
      </trkpt>
      <trkpt lat="45.94591" lon="4.61384">
        <ele>531.729797</ele>
        <time>2015-10-11T07:37:29Z</time>
      </trkpt>
      <trkpt lat="45.946" lon="4.61378">
        <ele>531.81073</ele>
        <time>2015-10-11T07:37:33Z</time>
      </trkpt>
      <trkpt lat="45.94617" lon="4.61365">
        <ele>532.377808</ele>
        <time>2015-10-11T07:37:39Z</time>
      </trkpt>
      <trkpt lat="45.94623" lon="4.61359">
        <ele>532.975769</ele>
        <time>2015-10-11T07:37:42Z</time>
      </trkpt>
      <trkpt lat="45.94625" lon="4.61357">
        <ele>533.098389</ele>
        <time>2015-10-11T07:37:43Z</time>
      </trkpt>
      <trkpt lat="45.94635" lon="4.6135">
        <ele>533.376953</ele>
        <time>2015-10-11T07:37:47Z</time>
      </trkpt>
      <trkpt lat="45.94645" lon="4.61343">
        <ele>533.700684</ele>
        <time>2015-10-11T07:37:51Z</time>
      </trkpt>
      <trkpt lat="45.94647" lon="4.61342">
        <ele>533.714478</ele>
        <time>2015-10-11T07:37:52Z</time>
      </trkpt>
      <trkpt lat="45.94652" lon="4.6134">
        <ele>533.599548</ele>
        <time>2015-10-11T07:37:54Z</time>
      </trkpt>
      <trkpt lat="45.94657" lon="4.61337">
        <ele>533.655518</ele>
        <time>2015-10-11T07:37:56Z</time>
      </trkpt>
      <trkpt lat="45.94667" lon="4.61333">
        <ele>533.523743</ele>
        <time>2015-10-11T07:38:00Z</time>
      </trkpt>
      <trkpt lat="45.94672" lon="4.61333">
        <ele>533.212952</ele>
        <time>2015-10-11T07:38:02Z</time>
      </trkpt>
      <trkpt lat="45.94679" lon="4.6133">
        <ele>533.124268</ele>
        <time>2015-10-11T07:38:04Z</time>
      </trkpt>
      <trkpt lat="45.94691" lon="4.61326">
        <ele>532.869873</ele>
        <time>2015-10-11T07:38:08Z</time>
      </trkpt>
      <trkpt lat="45.94703" lon="4.61324">
        <ele>532.228516</ele>
        <time>2015-10-11T07:38:12Z</time>
      </trkpt>
      <trkpt lat="45.94718" lon="4.6132">
        <ele>531.553345</ele>
        <time>2015-10-11T07:38:17Z</time>
      </trkpt>
      <trkpt lat="45.9473" lon="4.61314">
        <ele>531.378784</ele>
        <time>2015-10-11T07:38:22Z</time>
      </trkpt>
      <trkpt lat="45.94736" lon="4.61308">
        <ele>531.781982</ele>
        <time>2015-10-11T07:38:25Z</time>
      </trkpt>
      <trkpt lat="45.94736" lon="4.61302">
        <ele>532.522949</ele>
        <time>2015-10-11T07:38:27Z</time>
      </trkpt>
      <trkpt lat="45.94735" lon="4.61298">
        <ele>533.252319</ele>
        <time>2015-10-11T07:38:29Z</time>
      </trkpt>
      <trkpt lat="45.94734" lon="4.61293">
        <ele>534.010742</ele>
        <time>2015-10-11T07:38:31Z</time>
      </trkpt>
      <trkpt lat="45.94733" lon="4.61289">
        <ele>534.625671</ele>
        <time>2015-10-11T07:38:33Z</time>
      </trkpt>
      <trkpt lat="45.94732" lon="4.61281">
        <ele>535.848633</ele>
        <time>2015-10-11T07:38:36Z</time>
      </trkpt>
      <trkpt lat="45.94732" lon="4.61279">
        <ele>536.155457</ele>
        <time>2015-10-11T07:38:37Z</time>
      </trkpt>
      <trkpt lat="45.94737" lon="4.61263">
        <ele>537.986084</ele>
        <time>2015-10-11T07:38:44Z</time>
      </trkpt>
      <trkpt lat="45.94744" lon="4.61254">
        <ele>538.745544</ele>
        <time>2015-10-11T07:38:49Z</time>
      </trkpt>
      <trkpt lat="45.94749" lon="4.61247">
        <ele>539.657104</ele>
        <time>2015-10-11T07:38:53Z</time>
      </trkpt>
      <trkpt lat="45.94756" lon="4.61234">
        <ele>541.672424</ele>
        <time>2015-10-11T07:38:58Z</time>
      </trkpt>
      <trkpt lat="45.94758" lon="4.61232">
        <ele>541.87616</ele>
        <time>2015-10-11T07:38:59Z</time>
      </trkpt>
      <trkpt lat="45.94761" lon="4.61225">
        <ele>542.954102</ele>
        <time>2015-10-11T07:39:02Z</time>
      </trkpt>
      <trkpt lat="45.94763" lon="4.61212">
        <ele>544.992737</ele>
        <time>2015-10-11T07:39:08Z</time>
      </trkpt>
      <trkpt lat="45.94766" lon="4.61203">
        <ele>546.194641</ele>
        <time>2015-10-11T07:39:12Z</time>
      </trkpt>
      <trkpt lat="45.94768" lon="4.612">
        <ele>546.708191</ele>
        <time>2015-10-11T07:39:13Z</time>
      </trkpt>
      <trkpt lat="45.94771" lon="4.61196">
        <ele>547.182678</ele>
        <time>2015-10-11T07:39:15Z</time>
      </trkpt>
      <trkpt lat="45.94773" lon="4.61193">
        <ele>547.526917</ele>
        <time>2015-10-11T07:39:16Z</time>
      </trkpt>
      <trkpt lat="45.94778" lon="4.61182">
        <ele>548.597961</ele>
        <time>2015-10-11T07:39:20Z</time>
      </trkpt>
      <trkpt lat="45.9478" lon="4.61179">
        <ele>548.884338</ele>
        <time>2015-10-11T07:39:21Z</time>
      </trkpt>
      <trkpt lat="45.94785" lon="4.61172">
        <ele>549.536926</ele>
        <time>2015-10-11T07:39:25Z</time>
      </trkpt>
      <trkpt lat="45.94786" lon="4.61169">
        <ele>549.706787</ele>
        <time>2015-10-11T07:39:26Z</time>
      </trkpt>
      <trkpt lat="45.9479" lon="4.61157">
        <ele>551.008362</ele>
        <time>2015-10-11T07:39:31Z</time>
      </trkpt>
      <trkpt lat="45.94792" lon="4.61152">
        <ele>551.520874</ele>
        <time>2015-10-11T07:39:33Z</time>
      </trkpt>
      <trkpt lat="45.94796" lon="4.61148">
        <ele>551.72644</ele>
        <time>2015-10-11T07:39:35Z</time>
      </trkpt>
      <trkpt lat="45.94799" lon="4.61143">
        <ele>552.113037</ele>
        <time>2015-10-11T07:39:37Z</time>
      </trkpt>
      <trkpt lat="45.94799" lon="4.6114">
        <ele>552.436218</ele>
        <time>2015-10-11T07:39:38Z</time>
      </trkpt>
      <trkpt lat="45.94801" lon="4.61134">
        <ele>553.086365</ele>
        <time>2015-10-11T07:39:40Z</time>
      </trkpt>
      <trkpt lat="45.94806" lon="4.61118">
        <ele>555.093628</ele>
        <time>2015-10-11T07:39:46Z</time>
      </trkpt>
      <trkpt lat="45.94808" lon="4.6111">
        <ele>556.050659</ele>
        <time>2015-10-11T07:39:49Z</time>
      </trkpt>
      <trkpt lat="45.94809" lon="4.61102">
        <ele>557.092529</ele>
        <time>2015-10-11T07:39:52Z</time>
      </trkpt>
      <trkpt lat="45.94816" lon="4.61085">
        <ele>559.010498</ele>
        <time>2015-10-11T07:39:59Z</time>
      </trkpt>
      <trkpt lat="45.94822" lon="4.61074">
        <ele>560.291382</ele>
        <time>2015-10-11T07:40:04Z</time>
      </trkpt>
      <trkpt lat="45.94823" lon="4.61071">
        <ele>560.553101</ele>
        <time>2015-10-11T07:40:05Z</time>
      </trkpt>
      <trkpt lat="45.94829" lon="4.61055">
        <ele>562.640625</ele>
        <time>2015-10-11T07:40:12Z</time>
      </trkpt>
      <trkpt lat="45.94834" lon="4.61042">
        <ele>564.477295</ele>
        <time>2015-10-11T07:40:18Z</time>
      </trkpt>
      <trkpt lat="45.94834" lon="4.61039">
        <ele>564.811462</ele>
        <time>2015-10-11T07:40:19Z</time>
      </trkpt>
      <trkpt lat="45.94839" lon="4.61029">
        <ele>566.242615</ele>
        <time>2015-10-11T07:40:24Z</time>
      </trkpt>
      <trkpt lat="45.94843" lon="4.61016">
        <ele>567.902222</ele>
        <time>2015-10-11T07:40:29Z</time>
      </trkpt>
      <trkpt lat="45.94844" lon="4.61012">
        <ele>568.414673</ele>
        <time>2015-10-11T07:40:31Z</time>
      </trkpt>
      <trkpt lat="45.94847" lon="4.61005">
        <ele>569.271667</ele>
        <time>2015-10-11T07:40:34Z</time>
      </trkpt>
      <trkpt lat="45.94853" lon="4.60994">
        <ele>570.252136</ele>
        <time>2015-10-11T07:40:39Z</time>
      </trkpt>
      <trkpt lat="45.94855" lon="4.60988">
        <ele>570.786438</ele>
        <time>2015-10-11T07:40:42Z</time>
      </trkpt>
      <trkpt lat="45.94856" lon="4.60983">
        <ele>571.3479</ele>
        <time>2015-10-11T07:40:44Z</time>
      </trkpt>
      <trkpt lat="45.94857" lon="4.6098">
        <ele>571.490662</ele>
        <time>2015-10-11T07:40:45Z</time>
      </trkpt>
      <trkpt lat="45.94861" lon="4.60972">
        <ele>572.156738</ele>
        <time>2015-10-11T07:40:49Z</time>
      </trkpt>
      <trkpt lat="45.94867" lon="4.60959">
        <ele>573.159546</ele>
        <time>2015-10-11T07:40:54Z</time>
      </trkpt>
      <trkpt lat="45.94872" lon="4.60942">
        <ele>574.573975</ele>
        <time>2015-10-11T07:41:00Z</time>
      </trkpt>
      <trkpt lat="45.94875" lon="4.60929">
        <ele>575.312073</ele>
        <time>2015-10-11T07:41:05Z</time>
      </trkpt>
      <trkpt lat="45.94876" lon="4.60914">
        <ele>576.183899</ele>
        <time>2015-10-11T07:41:10Z</time>
      </trkpt>
      <trkpt lat="45.94876" lon="4.60898">
        <ele>577.291016</ele>
        <time>2015-10-11T07:41:15Z</time>
      </trkpt>
      <trkpt lat="45.94877" lon="4.60886">
        <ele>577.99408</ele>
        <time>2015-10-11T07:41:19Z</time>
      </trkpt>
      <trkpt lat="45.94877" lon="4.60883">
        <ele>578.17627</ele>
        <time>2015-10-11T07:41:20Z</time>
      </trkpt>
      <trkpt lat="45.94876" lon="4.60866">
        <ele>578.602844</ele>
        <time>2015-10-11T07:41:25Z</time>
      </trkpt>
      <trkpt lat="45.94873" lon="4.60856">
        <ele>579.040466</ele>
        <time>2015-10-11T07:41:28Z</time>
      </trkpt>
      <trkpt lat="45.94873" lon="4.60854">
        <ele>578.992554</ele>
        <time>2015-10-11T07:41:29Z</time>
      </trkpt>
      <trkpt lat="45.94871" lon="4.60842">
        <ele>579.352844</ele>
        <time>2015-10-11T07:41:33Z</time>
      </trkpt>
      <trkpt lat="45.9487" lon="4.60839">
        <ele>579.753601</ele>
        <time>2015-10-11T07:41:34Z</time>
      </trkpt>
      <trkpt lat="45.94863" lon="4.6082">
        <ele>581.694458</ele>
        <time>2015-10-11T07:41:40Z</time>
      </trkpt>
      <trkpt lat="45.94858" lon="4.608">
        <ele>582.276123</ele>
        <time>2015-10-11T07:41:46Z</time>
      </trkpt>
      <trkpt lat="45.94852" lon="4.60778">
        <ele>581.696655</ele>
        <time>2015-10-11T07:41:52Z</time>
      </trkpt>
      <trkpt lat="45.94846" lon="4.60756">
        <ele>581.536621</ele>
        <time>2015-10-11T07:41:58Z</time>
      </trkpt>
      <trkpt lat="45.94839" lon="4.60734">
        <ele>580.984314</ele>
        <time>2015-10-11T07:42:04Z</time>
      </trkpt>
      <trkpt lat="45.94834" lon="4.6072">
        <ele>580.45343</ele>
        <time>2015-10-11T07:42:08Z</time>
      </trkpt>
      <trkpt lat="45.94832" lon="4.60716">
        <ele>580.468201</ele>
        <time>2015-10-11T07:42:09Z</time>
      </trkpt>
      <trkpt lat="45.94823" lon="4.60691">
        <ele>578.761719</ele>
        <time>2015-10-11T07:42:16Z</time>
      </trkpt>
      <trkpt lat="45.94822" lon="4.60688">
        <ele>578.406677</ele>
        <time>2015-10-11T07:42:17Z</time>
      </trkpt>
      <trkpt lat="45.94815" lon="4.6066">
        <ele>578.339172</ele>
        <time>2015-10-11T07:42:24Z</time>
      </trkpt>
      <trkpt lat="45.94812" lon="4.6064">
        <ele>578.46875</ele>
        <time>2015-10-11T07:42:29Z</time>
      </trkpt>
      <trkpt lat="45.94813" lon="4.60632">
        <ele>578.24176</ele>
        <time>2015-10-11T07:42:31Z</time>
      </trkpt>
      <trkpt lat="45.94815" lon="4.60608">
        <ele>577.683289</ele>
        <time>2015-10-11T07:42:38Z</time>
      </trkpt>
      <trkpt lat="45.94818" lon="4.60591">
        <ele>577.515808</ele>
        <time>2015-10-11T07:42:43Z</time>
      </trkpt>
      <trkpt lat="45.94823" lon="4.60569">
        <ele>577.626587</ele>
        <time>2015-10-11T07:42:49Z</time>
      </trkpt>
      <trkpt lat="45.94833" lon="4.60547">
        <ele>577.428406</ele>
        <time>2015-10-11T07:42:55Z</time>
      </trkpt>
      <trkpt lat="45.94845" lon="4.60527">
        <ele>575.760864</ele>
        <time>2015-10-11T07:43:01Z</time>
      </trkpt>
      <trkpt lat="45.94856" lon="4.60506">
        <ele>574.919373</ele>
        <time>2015-10-11T07:43:07Z</time>
      </trkpt>
      <trkpt lat="45.94869" lon="4.60489">
        <ele>574.388123</ele>
        <time>2015-10-11T07:43:13Z</time>
      </trkpt>
      <trkpt lat="45.94883" lon="4.60472">
        <ele>573.864502</ele>
        <time>2015-10-11T07:43:19Z</time>
      </trkpt>
      <trkpt lat="45.94892" lon="4.60456">
        <ele>573.61853</ele>
        <time>2015-10-11T07:43:24Z</time>
      </trkpt>
      <trkpt lat="45.94903" lon="4.60437">
        <ele>573.147034</ele>
        <time>2015-10-11T07:43:30Z</time>
      </trkpt>
      <trkpt lat="45.94915" lon="4.60417">
        <ele>572.273743</ele>
        <time>2015-10-11T07:43:36Z</time>
      </trkpt>
      <trkpt lat="45.94926" lon="4.60401">
        <ele>571.776001</ele>
        <time>2015-10-11T07:43:41Z</time>
      </trkpt>
      <trkpt lat="45.9494" lon="4.60382">
        <ele>571.834106</ele>
        <time>2015-10-11T07:43:48Z</time>
      </trkpt>
      <trkpt lat="45.94951" lon="4.60366">
        <ele>571.838379</ele>
        <time>2015-10-11T07:43:53Z</time>
      </trkpt>
      <trkpt lat="45.94964" lon="4.60348">
        <ele>571.304077</ele>
        <time>2015-10-11T07:43:59Z</time>
      </trkpt>
      <trkpt lat="45.94978" lon="4.60327">
        <ele>570.959106</ele>
        <time>2015-10-11T07:44:06Z</time>
      </trkpt>
      <trkpt lat="45.94991" lon="4.60308">
        <ele>570.993958</ele>
        <time>2015-10-11T07:44:12Z</time>
      </trkpt>
      <trkpt lat="45.94993" lon="4.60305">
        <ele>570.985718</ele>
        <time>2015-10-11T07:44:13Z</time>
      </trkpt>
      <trkpt lat="45.95004" lon="4.60284">
        <ele>570.791199</ele>
        <time>2015-10-11T07:44:20Z</time>
      </trkpt>
      <trkpt lat="45.95007" lon="4.60281">
        <ele>570.811584</ele>
        <time>2015-10-11T07:44:22Z</time>
      </trkpt>
      <trkpt lat="45.95008" lon="4.60279">
        <ele>570.838623</ele>
        <time>2015-10-11T07:44:25Z</time>
      </trkpt>
      <trkpt lat="45.95009" lon="4.60278">
        <ele>570.850464</ele>
        <time>2015-10-11T07:44:26Z</time>
      </trkpt>
      <trkpt lat="45.95011" lon="4.60274">
        <ele>570.910645</ele>
        <time>2015-10-11T07:44:29Z</time>
      </trkpt>
      <trkpt lat="45.95013" lon="4.60273">
        <ele>570.958923</ele>
        <time>2015-10-11T07:44:31Z</time>
      </trkpt>
      <trkpt lat="45.95014" lon="4.60272">
        <ele>571.023804</ele>
        <time>2015-10-11T07:44:33Z</time>
      </trkpt>
      <trkpt lat="45.95016" lon="4.60272">
        <ele>571.075989</ele>
        <time>2015-10-11T07:44:34Z</time>
      </trkpt>
      <trkpt lat="45.95019" lon="4.6027">
        <ele>571.202698</ele>
        <time>2015-10-11T07:44:37Z</time>
      </trkpt>
      <trkpt lat="45.9502" lon="4.60269">
        <ele>571.269958</ele>
        <time>2015-10-11T07:44:39Z</time>
      </trkpt>
      <trkpt lat="45.95021" lon="4.60269">
        <ele>571.329285</ele>
        <time>2015-10-11T07:44:40Z</time>
      </trkpt>
      <trkpt lat="45.95026" lon="4.60265">
        <ele>571.598267</ele>
        <time>2015-10-11T07:44:45Z</time>
      </trkpt>
      <trkpt lat="45.95027" lon="4.60265">
        <ele>571.632813</ele>
        <time>2015-10-11T07:44:46Z</time>
      </trkpt>
      <trkpt lat="45.9503" lon="4.60263">
        <ele>571.852417</ele>
        <time>2015-10-11T07:44:50Z</time>
      </trkpt>
      <trkpt lat="45.95031" lon="4.6026">
        <ele>571.983398</ele>
        <time>2015-10-11T07:44:53Z</time>
      </trkpt>
      <trkpt lat="45.95032" lon="4.6026">
        <ele>572.022034</ele>
        <time>2015-10-11T07:44:54Z</time>
      </trkpt>
      <trkpt lat="45.95033" lon="4.6026">
        <ele>572.079712</ele>
        <time>2015-10-11T07:44:57Z</time>
      </trkpt>
      <trkpt lat="45.95032" lon="4.6026">
        <ele>572.062317</ele>
        <time>2015-10-11T07:45:00Z</time>
      </trkpt>
      <trkpt lat="45.95032" lon="4.6026">
        <ele>572.056274</ele>
        <time>2015-10-11T07:45:02Z</time>
      </trkpt>
      <trkpt lat="45.95032" lon="4.6026">
        <ele>572.053223</ele>
        <time>2015-10-11T07:45:05Z</time>
      </trkpt>
      <trkpt lat="45.95032" lon="4.6026">
        <ele>572.05603</ele>
        <time>2015-10-11T07:45:08Z</time>
      </trkpt>
      <trkpt lat="45.95033" lon="4.60261">
        <ele>572.048889</ele>
        <time>2015-10-11T07:45:14Z</time>
      </trkpt>
      <trkpt lat="45.95032" lon="4.60261">
        <ele>572.034729</ele>
        <time>2015-10-11T07:45:21Z</time>
      </trkpt>
      <trkpt lat="45.95032" lon="4.60259">
        <ele>572.03595</ele>
        <time>2015-10-11T07:45:30Z</time>
      </trkpt>
      <trkpt lat="45.95031" lon="4.60258">
        <ele>572.039917</ele>
        <time>2015-10-11T07:45:52Z</time>
      </trkpt>
      <trkpt lat="45.95032" lon="4.60258">
        <ele>572.059326</ele>
        <time>2015-10-11T07:45:55Z</time>
      </trkpt>
      <trkpt lat="45.95033" lon="4.6026">
        <ele>572.098816</ele>
        <time>2015-10-11T07:46:06Z</time>
      </trkpt>
      <trkpt lat="45.95033" lon="4.60262">
        <ele>572.064514</ele>
        <time>2015-10-11T07:46:15Z</time>
      </trkpt>
      <trkpt lat="45.95033" lon="4.60262">
        <ele>572.062683</ele>
        <time>2015-10-11T07:46:21Z</time>
      </trkpt>
      <trkpt lat="45.95035" lon="4.6026">
        <ele>572.185486</ele>
        <time>2015-10-11T07:46:28Z</time>
      </trkpt>
      <trkpt lat="45.95035" lon="4.6026">
        <ele>572.194763</ele>
        <time>2015-10-11T07:46:31Z</time>
      </trkpt>
      <trkpt lat="45.9504" lon="4.60256">
        <ele>572.656555</ele>
        <time>2015-10-11T07:47:05Z</time>
      </trkpt>
      <trkpt lat="45.9505" lon="4.6025">
        <ele>573.546875</ele>
        <time>2015-10-11T07:47:14Z</time>
      </trkpt>
      <trkpt lat="45.95056" lon="4.60246">
        <ele>574.218933</ele>
        <time>2015-10-11T07:47:18Z</time>
      </trkpt>
      <trkpt lat="45.9506" lon="4.60243">
        <ele>574.731567</ele>
        <time>2015-10-11T07:47:20Z</time>
      </trkpt>
      <trkpt lat="45.95064" lon="4.6024">
        <ele>575.281311</ele>
        <time>2015-10-11T07:47:22Z</time>
      </trkpt>
      <trkpt lat="45.95068" lon="4.60238">
        <ele>575.818848</ele>
        <time>2015-10-11T07:47:24Z</time>
      </trkpt>
      <trkpt lat="45.95075" lon="4.60234">
        <ele>576.5177</ele>
        <time>2015-10-11T07:47:27Z</time>
      </trkpt>
      <trkpt lat="45.95079" lon="4.60232">
        <ele>577.060486</ele>
        <time>2015-10-11T07:47:29Z</time>
      </trkpt>
      <trkpt lat="45.95085" lon="4.60227">
        <ele>577.814331</ele>
        <time>2015-10-11T07:47:32Z</time>
      </trkpt>
      <trkpt lat="45.95091" lon="4.60222">
        <ele>578.609009</ele>
        <time>2015-10-11T07:47:35Z</time>
      </trkpt>
      <trkpt lat="45.95094" lon="4.60216">
        <ele>579.397888</ele>
        <time>2015-10-11T07:47:38Z</time>
      </trkpt>
      <trkpt lat="45.95098" lon="4.6021">
        <ele>580.139832</ele>
        <time>2015-10-11T07:47:41Z</time>
      </trkpt>
      <trkpt lat="45.951" lon="4.60205">
        <ele>580.875305</ele>
        <time>2015-10-11T07:47:44Z</time>
      </trkpt>
      <trkpt lat="45.95103" lon="4.602">
        <ele>581.677856</ele>
        <time>2015-10-11T07:47:47Z</time>
      </trkpt>
      <trkpt lat="45.95106" lon="4.60193">
        <ele>582.632507</ele>
        <time>2015-10-11T07:47:50Z</time>
      </trkpt>
      <trkpt lat="45.95109" lon="4.60188">
        <ele>583.526733</ele>
        <time>2015-10-11T07:47:53Z</time>
      </trkpt>
      <trkpt lat="45.95112" lon="4.60183">
        <ele>584.490356</ele>
        <time>2015-10-11T07:47:56Z</time>
      </trkpt>
      <trkpt lat="45.95114" lon="4.6018">
        <ele>585.13269</ele>
        <time>2015-10-11T07:47:58Z</time>
      </trkpt>
      <trkpt lat="45.95117" lon="4.60174">
        <ele>586.215088</ele>
        <time>2015-10-11T07:48:01Z</time>
      </trkpt>
      <trkpt lat="45.9512" lon="4.60168">
        <ele>587.133728</ele>
        <time>2015-10-11T07:48:04Z</time>
      </trkpt>
      <trkpt lat="45.95124" lon="4.60161">
        <ele>588.286316</ele>
        <time>2015-10-11T07:48:08Z</time>
      </trkpt>
      <trkpt lat="45.95126" lon="4.60155">
        <ele>589.240784</ele>
        <time>2015-10-11T07:48:11Z</time>
      </trkpt>
      <trkpt lat="45.95131" lon="4.60147">
        <ele>590.647461</ele>
        <time>2015-10-11T07:48:16Z</time>
      </trkpt>
      <trkpt lat="45.95133" lon="4.60145">
        <ele>591.058655</ele>
        <time>2015-10-11T07:48:18Z</time>
      </trkpt>
      <trkpt lat="45.95134" lon="4.60143">
        <ele>591.494446</ele>
        <time>2015-10-11T07:48:20Z</time>
      </trkpt>
      <trkpt lat="45.95138" lon="4.60137">
        <ele>592.62207</ele>
        <time>2015-10-11T07:48:25Z</time>
      </trkpt>
      <trkpt lat="45.9514" lon="4.60134">
        <ele>593.142883</ele>
        <time>2015-10-11T07:48:28Z</time>
      </trkpt>
      <trkpt lat="45.95141" lon="4.60131">
        <ele>593.668335</ele>
        <time>2015-10-11T07:48:30Z</time>
      </trkpt>
      <trkpt lat="45.95143" lon="4.60129">
        <ele>594.187988</ele>
        <time>2015-10-11T07:48:32Z</time>
      </trkpt>
      <trkpt lat="45.95145" lon="4.60126">
        <ele>594.854675</ele>
        <time>2015-10-11T07:48:34Z</time>
      </trkpt>
      <trkpt lat="45.95147" lon="4.60123">
        <ele>595.518311</ele>
        <time>2015-10-11T07:48:36Z</time>
      </trkpt>
      <trkpt lat="45.95152" lon="4.6012">
        <ele>596.775452</ele>
        <time>2015-10-11T07:48:41Z</time>
      </trkpt>
      <trkpt lat="45.95153" lon="4.60118">
        <ele>597.049561</ele>
        <time>2015-10-11T07:48:42Z</time>
      </trkpt>
      <trkpt lat="45.95156" lon="4.60113">
        <ele>598.298096</ele>
        <time>2015-10-11T07:48:46Z</time>
      </trkpt>
      <trkpt lat="45.95158" lon="4.6011">
        <ele>598.811523</ele>
        <time>2015-10-11T07:48:48Z</time>
      </trkpt>
      <trkpt lat="45.9516" lon="4.60107">
        <ele>599.447266</ele>
        <time>2015-10-11T07:48:51Z</time>
      </trkpt>
      <trkpt lat="45.95161" lon="4.60104">
        <ele>599.843811</ele>
        <time>2015-10-11T07:48:53Z</time>
      </trkpt>
      <trkpt lat="45.95164" lon="4.60098">
        <ele>600.660767</ele>
        <time>2015-10-11T07:48:58Z</time>
      </trkpt>
      <trkpt lat="45.95165" lon="4.60094">
        <ele>601.264771</ele>
        <time>2015-10-11T07:49:01Z</time>
      </trkpt>
      <trkpt lat="45.95166" lon="4.60093">
        <ele>601.494568</ele>
        <time>2015-10-11T07:49:02Z</time>
      </trkpt>
      <trkpt lat="45.95168" lon="4.60092">
        <ele>601.849915</ele>
        <time>2015-10-11T07:49:04Z</time>
      </trkpt>
      <trkpt lat="45.95169" lon="4.60087">
        <ele>602.47937</ele>
        <time>2015-10-11T07:49:08Z</time>
      </trkpt>
      <trkpt lat="45.9517" lon="4.60085">
        <ele>602.78009</ele>
        <time>2015-10-11T07:49:09Z</time>
      </trkpt>
      <trkpt lat="45.95172" lon="4.60079">
        <ele>603.563782</ele>
        <time>2015-10-11T07:49:13Z</time>
      </trkpt>
      <trkpt lat="45.95173" lon="4.60078">
        <ele>603.775208</ele>
        <time>2015-10-11T07:49:14Z</time>
      </trkpt>
      <trkpt lat="45.95174" lon="4.60077">
        <ele>604.008423</ele>
        <time>2015-10-11T07:49:15Z</time>
      </trkpt>
      <trkpt lat="45.95176" lon="4.60074">
        <ele>604.576843</ele>
        <time>2015-10-11T07:49:18Z</time>
      </trkpt>
      <trkpt lat="45.95179" lon="4.60067">
        <ele>605.330933</ele>
        <time>2015-10-11T07:49:22Z</time>
      </trkpt>
      <trkpt lat="45.95179" lon="4.60066">
        <ele>605.483032</ele>
        <time>2015-10-11T07:49:23Z</time>
      </trkpt>
      <trkpt lat="45.95183" lon="4.60059">
        <ele>606.467224</ele>
        <time>2015-10-11T07:49:29Z</time>
      </trkpt>
      <trkpt lat="45.95184" lon="4.60056">
        <ele>606.83252</ele>
        <time>2015-10-11T07:49:31Z</time>
      </trkpt>
      <trkpt lat="45.95186" lon="4.60053">
        <ele>607.309021</ele>
        <time>2015-10-11T07:49:34Z</time>
      </trkpt>
      <trkpt lat="45.95189" lon="4.60048">
        <ele>608.219421</ele>
        <time>2015-10-11T07:49:39Z</time>
      </trkpt>
      <trkpt lat="45.95193" lon="4.60042">
        <ele>609.206787</ele>
        <time>2015-10-11T07:49:44Z</time>
      </trkpt>
      <trkpt lat="45.95193" lon="4.60041">
        <ele>609.373352</ele>
        <time>2015-10-11T07:49:45Z</time>
      </trkpt>
      <trkpt lat="45.95195" lon="4.60036">
        <ele>609.971497</ele>
        <time>2015-10-11T07:49:48Z</time>
      </trkpt>
      <trkpt lat="45.95196" lon="4.60034">
        <ele>610.248413</ele>
        <time>2015-10-11T07:49:50Z</time>
      </trkpt>
      <trkpt lat="45.95196" lon="4.60033">
        <ele>610.370605</ele>
        <time>2015-10-11T07:49:51Z</time>
      </trkpt>
      <trkpt lat="45.95198" lon="4.60029">
        <ele>611.044739</ele>
        <time>2015-10-11T07:49:54Z</time>
      </trkpt>
      <trkpt lat="45.95201" lon="4.60023">
        <ele>611.990112</ele>
        <time>2015-10-11T07:49:58Z</time>
      </trkpt>
      <trkpt lat="45.95205" lon="4.60013">
        <ele>613.596558</ele>
        <time>2015-10-11T07:50:04Z</time>
      </trkpt>
      <trkpt lat="45.95206" lon="4.60011">
        <ele>613.876282</ele>
        <time>2015-10-11T07:50:05Z</time>
      </trkpt>
      <trkpt lat="45.95207" lon="4.6001">
        <ele>614.069702</ele>
        <time>2015-10-11T07:50:06Z</time>
      </trkpt>
      <trkpt lat="45.95209" lon="4.60005">
        <ele>614.967407</ele>
        <time>2015-10-11T07:50:09Z</time>
      </trkpt>
      <trkpt lat="45.95214" lon="4.59994">
        <ele>616.822998</ele>
        <time>2015-10-11T07:50:15Z</time>
      </trkpt>
      <trkpt lat="45.95215" lon="4.59987">
        <ele>617.632141</ele>
        <time>2015-10-11T07:50:19Z</time>
      </trkpt>
      <trkpt lat="45.95215" lon="4.59985">
        <ele>617.785156</ele>
        <time>2015-10-11T07:50:20Z</time>
      </trkpt>
      <trkpt lat="45.95216" lon="4.59975">
        <ele>618.856628</ele>
        <time>2015-10-11T07:50:25Z</time>
      </trkpt>
      <trkpt lat="45.95219" lon="4.59962">
        <ele>620.454102</ele>
        <time>2015-10-11T07:50:32Z</time>
      </trkpt>
      <trkpt lat="45.95218" lon="4.59961">
        <ele>620.522034</ele>
        <time>2015-10-11T07:50:33Z</time>
      </trkpt>
      <trkpt lat="45.95219" lon="4.59955">
        <ele>621.244568</ele>
        <time>2015-10-11T07:50:37Z</time>
      </trkpt>
      <trkpt lat="45.95219" lon="4.59953">
        <ele>621.415894</ele>
        <time>2015-10-11T07:50:38Z</time>
      </trkpt>
      <trkpt lat="45.9522" lon="4.59946">
        <ele>622.130371</ele>
        <time>2015-10-11T07:50:41Z</time>
      </trkpt>
      <trkpt lat="45.95219" lon="4.59944">
        <ele>622.252197</ele>
        <time>2015-10-11T07:50:42Z</time>
      </trkpt>
      <trkpt lat="45.95219" lon="4.5994">
        <ele>622.485535</ele>
        <time>2015-10-11T07:50:44Z</time>
      </trkpt>
      <trkpt lat="45.9522" lon="4.59937">
        <ele>622.907715</ele>
        <time>2015-10-11T07:50:46Z</time>
      </trkpt>
      <trkpt lat="45.95222" lon="4.5993">
        <ele>623.94751</ele>
        <time>2015-10-11T07:50:49Z</time>
      </trkpt>
      <trkpt lat="45.95225" lon="4.59922">
        <ele>625.159546</ele>
        <time>2015-10-11T07:50:54Z</time>
      </trkpt>
      <trkpt lat="45.95226" lon="4.59909">
        <ele>625.832825</ele>
        <time>2015-10-11T07:51:00Z</time>
      </trkpt>
      <trkpt lat="45.95228" lon="4.59905">
        <ele>626.221313</ele>
        <time>2015-10-11T07:51:03Z</time>
      </trkpt>
      <trkpt lat="45.9523" lon="4.59899">
        <ele>626.727966</ele>
        <time>2015-10-11T07:51:06Z</time>
      </trkpt>
      <trkpt lat="45.9523" lon="4.59897">
        <ele>626.836304</ele>
        <time>2015-10-11T07:51:07Z</time>
      </trkpt>
      <trkpt lat="45.95232" lon="4.59891">
        <ele>627.355957</ele>
        <time>2015-10-11T07:51:10Z</time>
      </trkpt>
      <trkpt lat="45.95232" lon="4.59889">
        <ele>627.526184</ele>
        <time>2015-10-11T07:51:11Z</time>
      </trkpt>
      <trkpt lat="45.95233" lon="4.59887">
        <ele>627.720398</ele>
        <time>2015-10-11T07:51:12Z</time>
      </trkpt>
      <trkpt lat="45.95238" lon="4.59881">
        <ele>628.567322</ele>
        <time>2015-10-11T07:51:16Z</time>
      </trkpt>
      <trkpt lat="45.95244" lon="4.59875">
        <ele>629.577759</ele>
        <time>2015-10-11T07:51:19Z</time>
      </trkpt>
      <trkpt lat="45.95246" lon="4.5987">
        <ele>630.200562</ele>
        <time>2015-10-11T07:51:21Z</time>
      </trkpt>
      <trkpt lat="45.95251" lon="4.59855">
        <ele>631.655029</ele>
        <time>2015-10-11T07:51:26Z</time>
      </trkpt>
      <trkpt lat="45.95251" lon="4.59851">
        <ele>631.796021</ele>
        <time>2015-10-11T07:51:27Z</time>
      </trkpt>
      <trkpt lat="45.95253" lon="4.59844">
        <ele>632.226746</ele>
        <time>2015-10-11T07:51:29Z</time>
      </trkpt>
      <trkpt lat="45.95255" lon="4.59834">
        <ele>632.963013</ele>
        <time>2015-10-11T07:51:32Z</time>
      </trkpt>
      <trkpt lat="45.95256" lon="4.59831">
        <ele>633.125671</ele>
        <time>2015-10-11T07:51:33Z</time>
      </trkpt>
      <trkpt lat="45.95258" lon="4.59821">
        <ele>633.786804</ele>
        <time>2015-10-11T07:51:36Z</time>
      </trkpt>
      <trkpt lat="45.95259" lon="4.59817">
        <ele>634.105896</ele>
        <time>2015-10-11T07:51:37Z</time>
      </trkpt>
      <trkpt lat="45.9526" lon="4.5981">
        <ele>634.493469</ele>
        <time>2015-10-11T07:51:39Z</time>
      </trkpt>
      <trkpt lat="45.95261" lon="4.59804">
        <ele>634.860168</ele>
        <time>2015-10-11T07:51:41Z</time>
      </trkpt>
      <trkpt lat="45.95264" lon="4.59793">
        <ele>635.753052</ele>
        <time>2015-10-11T07:51:45Z</time>
      </trkpt>
      <trkpt lat="45.95265" lon="4.5979">
        <ele>636.02301</ele>
        <time>2015-10-11T07:51:46Z</time>
      </trkpt>
      <trkpt lat="45.95269" lon="4.59777">
        <ele>636.790527</ele>
        <time>2015-10-11T07:51:50Z</time>
      </trkpt>
      <trkpt lat="45.9527" lon="4.59776">
        <ele>637.00116</ele>
        <time>2015-10-11T07:51:51Z</time>
      </trkpt>
      <trkpt lat="45.95274" lon="4.5977">
        <ele>637.572449</ele>
        <time>2015-10-11T07:51:54Z</time>
      </trkpt>
      <trkpt lat="45.95275" lon="4.59768">
        <ele>637.716309</ele>
        <time>2015-10-11T07:51:55Z</time>
      </trkpt>
      <trkpt lat="45.95279" lon="4.59756">
        <ele>638.314087</ele>
        <time>2015-10-11T07:51:59Z</time>
      </trkpt>
      <trkpt lat="45.95284" lon="4.59745">
        <ele>639.049133</ele>
        <time>2015-10-11T07:52:04Z</time>
      </trkpt>
      <trkpt lat="45.95291" lon="4.59734">
        <ele>639.996643</ele>
        <time>2015-10-11T07:52:09Z</time>
      </trkpt>
      <trkpt lat="45.95296" lon="4.59717">
        <ele>640.669922</ele>
        <time>2015-10-11T07:52:15Z</time>
      </trkpt>
      <trkpt lat="45.953" lon="4.59707">
        <ele>641.262573</ele>
        <time>2015-10-11T07:52:19Z</time>
      </trkpt>
      <trkpt lat="45.95306" lon="4.59693">
        <ele>642.09491</ele>
        <time>2015-10-11T07:52:24Z</time>
      </trkpt>
      <trkpt lat="45.95307" lon="4.59691">
        <ele>642.283142</ele>
        <time>2015-10-11T07:52:25Z</time>
      </trkpt>
      <trkpt lat="45.95314" lon="4.59681">
        <ele>643.24469</ele>
        <time>2015-10-11T07:52:30Z</time>
      </trkpt>
      <trkpt lat="45.95316" lon="4.5968">
        <ele>643.516479</ele>
        <time>2015-10-11T07:52:31Z</time>
      </trkpt>
      <trkpt lat="45.9532" lon="4.5967">
        <ele>644.027344</ele>
        <time>2015-10-11T07:52:35Z</time>
      </trkpt>
      <trkpt lat="45.95324" lon="4.59658">
        <ele>644.092285</ele>
        <time>2015-10-11T07:52:39Z</time>
      </trkpt>
      <trkpt lat="45.95325" lon="4.59655">
        <ele>644.121887</ele>
        <time>2015-10-11T07:52:40Z</time>
      </trkpt>
      <trkpt lat="45.95331" lon="4.59645">
        <ele>644.288879</ele>
        <time>2015-10-11T07:52:43Z</time>
      </trkpt>
      <trkpt lat="45.95338" lon="4.5963">
        <ele>644.496216</ele>
        <time>2015-10-11T07:52:48Z</time>
      </trkpt>
      <trkpt lat="45.95341" lon="4.59624">
        <ele>644.599121</ele>
        <time>2015-10-11T07:52:50Z</time>
      </trkpt>
      <trkpt lat="45.95343" lon="4.59618">
        <ele>644.671936</ele>
        <time>2015-10-11T07:52:52Z</time>
      </trkpt>
      <trkpt lat="45.95349" lon="4.59606">
        <ele>644.935791</ele>
        <time>2015-10-11T07:52:56Z</time>
      </trkpt>
      <trkpt lat="45.9535" lon="4.59604">
        <ele>644.984558</ele>
        <time>2015-10-11T07:52:57Z</time>
      </trkpt>
      <trkpt lat="45.95357" lon="4.59591">
        <ele>645.204041</ele>
        <time>2015-10-11T07:53:02Z</time>
      </trkpt>
      <trkpt lat="45.95363" lon="4.59581">
        <ele>645.486755</ele>
        <time>2015-10-11T07:53:07Z</time>
      </trkpt>
      <trkpt lat="45.95364" lon="4.59578">
        <ele>645.506409</ele>
        <time>2015-10-11T07:53:08Z</time>
      </trkpt>
      <trkpt lat="45.95369" lon="4.59562">
        <ele>645.437988</ele>
        <time>2015-10-11T07:53:13Z</time>
      </trkpt>
      <trkpt lat="45.95375" lon="4.5955">
        <ele>645.499634</ele>
        <time>2015-10-11T07:53:17Z</time>
      </trkpt>
      <trkpt lat="45.95376" lon="4.59547">
        <ele>645.503052</ele>
        <time>2015-10-11T07:53:18Z</time>
      </trkpt>
      <trkpt lat="45.95379" lon="4.59542">
        <ele>645.585938</ele>
        <time>2015-10-11T07:53:20Z</time>
      </trkpt>
      <trkpt lat="45.9539" lon="4.59528">
        <ele>645.932434</ele>
        <time>2015-10-11T07:53:26Z</time>
      </trkpt>
      <trkpt lat="45.954" lon="4.59518">
        <ele>646.409851</ele>
        <time>2015-10-11T07:53:31Z</time>
      </trkpt>
      <trkpt lat="45.95409" lon="4.5951">
        <ele>646.858337</ele>
        <time>2015-10-11T07:53:35Z</time>
      </trkpt>
      <trkpt lat="45.95413" lon="4.59507">
        <ele>647.020874</ele>
        <time>2015-10-11T07:53:37Z</time>
      </trkpt>
      <trkpt lat="45.9542" lon="4.59498">
        <ele>647.189819</ele>
        <time>2015-10-11T07:53:41Z</time>
      </trkpt>
      <trkpt lat="45.95425" lon="4.59495">
        <ele>647.279053</ele>
        <time>2015-10-11T07:53:43Z</time>
      </trkpt>
      <trkpt lat="45.95427" lon="4.59493">
        <ele>647.326416</ele>
        <time>2015-10-11T07:53:44Z</time>
      </trkpt>
      <trkpt lat="45.9543" lon="4.59488">
        <ele>647.404358</ele>
        <time>2015-10-11T07:53:46Z</time>
      </trkpt>
      <trkpt lat="45.95439" lon="4.59475">
        <ele>647.528198</ele>
        <time>2015-10-11T07:53:51Z</time>
      </trkpt>
      <trkpt lat="45.95449" lon="4.59466">
        <ele>647.72644</ele>
        <time>2015-10-11T07:53:56Z</time>
      </trkpt>
      <trkpt lat="45.95459" lon="4.59453">
        <ele>648.016418</ele>
        <time>2015-10-11T07:54:01Z</time>
      </trkpt>
      <trkpt lat="45.95474" lon="4.59438">
        <ele>648.11853</ele>
        <time>2015-10-11T07:54:08Z</time>
      </trkpt>
      <trkpt lat="45.95488" lon="4.59428">
        <ele>648.107056</ele>
        <time>2015-10-11T07:54:14Z</time>
      </trkpt>
      <trkpt lat="45.95498" lon="4.59419">
        <ele>648.019348</ele>
        <time>2015-10-11T07:54:19Z</time>
      </trkpt>
      <trkpt lat="45.95506" lon="4.59411">
        <ele>647.79187</ele>
        <time>2015-10-11T07:54:24Z</time>
      </trkpt>
      <trkpt lat="45.95515" lon="4.59404">
        <ele>647.618164</ele>
        <time>2015-10-11T07:54:28Z</time>
      </trkpt>
      <trkpt lat="45.95527" lon="4.59394">
        <ele>647.431335</ele>
        <time>2015-10-11T07:54:33Z</time>
      </trkpt>
      <trkpt lat="45.95542" lon="4.59382">
        <ele>647.315247</ele>
        <time>2015-10-11T07:54:39Z</time>
      </trkpt>
      <trkpt lat="45.95556" lon="4.59371">
        <ele>647.242004</ele>
        <time>2015-10-11T07:54:44Z</time>
      </trkpt>
      <trkpt lat="45.95571" lon="4.59363">
        <ele>647.108398</ele>
        <time>2015-10-11T07:54:50Z</time>
      </trkpt>
      <trkpt lat="45.95576" lon="4.59361">
        <ele>647.069946</ele>
        <time>2015-10-11T07:54:52Z</time>
      </trkpt>
      <trkpt lat="45.95588" lon="4.59356">
        <ele>646.913452</ele>
        <time>2015-10-11T07:54:57Z</time>
      </trkpt>
      <trkpt lat="45.95602" lon="4.59349">
        <ele>646.385254</ele>
        <time>2015-10-11T07:55:02Z</time>
      </trkpt>
      <trkpt lat="45.95621" lon="4.59339">
        <ele>645.699768</ele>
        <time>2015-10-11T07:55:09Z</time>
      </trkpt>
      <trkpt lat="45.95632" lon="4.59334">
        <ele>645.42865</ele>
        <time>2015-10-11T07:55:13Z</time>
      </trkpt>
      <trkpt lat="45.95649" lon="4.59327">
        <ele>644.812134</ele>
        <time>2015-10-11T07:55:19Z</time>
      </trkpt>
      <trkpt lat="45.95665" lon="4.59318">
        <ele>644.173462</ele>
        <time>2015-10-11T07:55:25Z</time>
      </trkpt>
      <trkpt lat="45.95681" lon="4.5931">
        <ele>643.985046</ele>
        <time>2015-10-11T07:55:31Z</time>
      </trkpt>
      <trkpt lat="45.95694" lon="4.59303">
        <ele>643.587158</ele>
        <time>2015-10-11T07:55:36Z</time>
      </trkpt>
      <trkpt lat="45.95713" lon="4.59294">
        <ele>642.375671</ele>
        <time>2015-10-11T07:55:43Z</time>
      </trkpt>
      <trkpt lat="45.95716" lon="4.59293">
        <ele>642.063477</ele>
        <time>2015-10-11T07:55:44Z</time>
      </trkpt>
      <trkpt lat="45.95733" lon="4.59284">
        <ele>640.35321</ele>
        <time>2015-10-11T07:55:50Z</time>
      </trkpt>
      <trkpt lat="45.95749" lon="4.59276">
        <ele>638.353516</ele>
        <time>2015-10-11T07:55:56Z</time>
      </trkpt>
      <trkpt lat="45.95765" lon="4.59266">
        <ele>636.95575</ele>
        <time>2015-10-11T07:56:02Z</time>
      </trkpt>
      <trkpt lat="45.95778" lon="4.59258">
        <ele>636.303589</ele>
        <time>2015-10-11T07:56:07Z</time>
      </trkpt>
      <trkpt lat="45.95796" lon="4.59249">
        <ele>635.859985</ele>
        <time>2015-10-11T07:56:14Z</time>
      </trkpt>
      <trkpt lat="45.95808" lon="4.59243">
        <ele>635.838928</ele>
        <time>2015-10-11T07:56:19Z</time>
      </trkpt>
      <trkpt lat="45.95824" lon="4.59237">
        <ele>635.900208</ele>
        <time>2015-10-11T07:56:25Z</time>
      </trkpt>
      <trkpt lat="45.95837" lon="4.59234">
        <ele>635.26825</ele>
        <time>2015-10-11T07:56:30Z</time>
      </trkpt>
      <trkpt lat="45.95856" lon="4.59229">
        <ele>634.551758</ele>
        <time>2015-10-11T07:56:37Z</time>
      </trkpt>
      <trkpt lat="45.95869" lon="4.59223">
        <ele>634.193726</ele>
        <time>2015-10-11T07:56:42Z</time>
      </trkpt>
      <trkpt lat="45.95881" lon="4.59217">
        <ele>633.859558</ele>
        <time>2015-10-11T07:56:47Z</time>
      </trkpt>
      <trkpt lat="45.95896" lon="4.59208">
        <ele>633.56012</ele>
        <time>2015-10-11T07:56:53Z</time>
      </trkpt>
      <trkpt lat="45.9591" lon="4.59194">
        <ele>633.559998</ele>
        <time>2015-10-11T07:56:59Z</time>
      </trkpt>
      <trkpt lat="45.95919" lon="4.59185">
        <ele>633.750305</ele>
        <time>2015-10-11T07:57:03Z</time>
      </trkpt>
      <trkpt lat="45.95936" lon="4.59167">
        <ele>633.592468</ele>
        <time>2015-10-11T07:57:10Z</time>
      </trkpt>
      <trkpt lat="45.95951" lon="4.5916">
        <ele>633.375793</ele>
        <time>2015-10-11T07:57:16Z</time>
      </trkpt>
      <trkpt lat="45.95961" lon="4.59166">
        <ele>633.605896</ele>
        <time>2015-10-11T07:57:21Z</time>
      </trkpt>
      <trkpt lat="45.95973" lon="4.59178">
        <ele>633.975769</ele>
        <time>2015-10-11T07:57:28Z</time>
      </trkpt>
      <trkpt lat="45.95982" lon="4.59187">
        <ele>633.752869</ele>
        <time>2015-10-11T07:57:33Z</time>
      </trkpt>
      <trkpt lat="45.95984" lon="4.5919">
        <ele>633.685059</ele>
        <time>2015-10-11T07:57:34Z</time>
      </trkpt>
      <trkpt lat="45.95992" lon="4.59201">
        <ele>633.356812</ele>
        <time>2015-10-11T07:57:40Z</time>
      </trkpt>
      <trkpt lat="45.96003" lon="4.59214">
        <ele>632.964661</ele>
        <time>2015-10-11T07:57:47Z</time>
      </trkpt>
      <trkpt lat="45.96017" lon="4.59227">
        <ele>632.897156</ele>
        <time>2015-10-11T07:57:54Z</time>
      </trkpt>
      <trkpt lat="45.96028" lon="4.59239">
        <ele>632.799194</ele>
        <time>2015-10-11T07:58:00Z</time>
      </trkpt>
      <trkpt lat="45.96043" lon="4.59247">
        <ele>632.790649</ele>
        <time>2015-10-11T07:58:06Z</time>
      </trkpt>
      <trkpt lat="45.96055" lon="4.59253">
        <ele>632.005676</ele>
        <time>2015-10-11T07:58:11Z</time>
      </trkpt>
      <trkpt lat="45.96067" lon="4.59258">
        <ele>631.262573</ele>
        <time>2015-10-11T07:58:16Z</time>
      </trkpt>
      <trkpt lat="45.96081" lon="4.5926">
        <ele>631.294678</ele>
        <time>2015-10-11T07:58:22Z</time>
      </trkpt>
      <trkpt lat="45.96092" lon="4.59261">
        <ele>631.477417</ele>
        <time>2015-10-11T07:58:27Z</time>
      </trkpt>
      <trkpt lat="45.96105" lon="4.59262">
        <ele>632.52124</ele>
        <time>2015-10-11T07:58:32Z</time>
      </trkpt>
      <trkpt lat="45.96116" lon="4.59265">
        <ele>632.93811</ele>
        <time>2015-10-11T07:58:37Z</time>
      </trkpt>
      <trkpt lat="45.96122" lon="4.59266">
        <ele>633.373047</ele>
        <time>2015-10-11T07:58:40Z</time>
      </trkpt>
      <trkpt lat="45.96125" lon="4.59267">
        <ele>633.384338</ele>
        <time>2015-10-11T07:58:41Z</time>
      </trkpt>
      <trkpt lat="45.96133" lon="4.59269">
        <ele>633.705688</ele>
        <time>2015-10-11T07:58:45Z</time>
      </trkpt>
      <trkpt lat="45.96146" lon="4.59274">
        <ele>633.957092</ele>
        <time>2015-10-11T07:58:50Z</time>
      </trkpt>
      <trkpt lat="45.96159" lon="4.59278">
        <ele>634.376343</ele>
        <time>2015-10-11T07:58:55Z</time>
      </trkpt>
      <trkpt lat="45.9617" lon="4.59283">
        <ele>634.681458</ele>
        <time>2015-10-11T07:59:00Z</time>
      </trkpt>
      <trkpt lat="45.96181" lon="4.59289">
        <ele>634.553833</ele>
        <time>2015-10-11T07:59:05Z</time>
      </trkpt>
      <trkpt lat="45.96196" lon="4.59299">
        <ele>633.721313</ele>
        <time>2015-10-11T07:59:11Z</time>
      </trkpt>
      <trkpt lat="45.96204" lon="4.59305">
        <ele>633.38446</ele>
        <time>2015-10-11T07:59:15Z</time>
      </trkpt>
      <trkpt lat="45.96217" lon="4.5931">
        <ele>633.564758</ele>
        <time>2015-10-11T07:59:20Z</time>
      </trkpt>
      <trkpt lat="45.96229" lon="4.59314">
        <ele>633.81012</ele>
        <time>2015-10-11T07:59:25Z</time>
      </trkpt>
      <trkpt lat="45.96241" lon="4.59322">
        <ele>632.972534</ele>
        <time>2015-10-11T07:59:30Z</time>
      </trkpt>
      <trkpt lat="45.96249" lon="4.59327">
        <ele>632.165283</ele>
        <time>2015-10-11T07:59:34Z</time>
      </trkpt>
      <trkpt lat="45.9625" lon="4.59328">
        <ele>631.924194</ele>
        <time>2015-10-11T07:59:35Z</time>
      </trkpt>
      <trkpt lat="45.9626" lon="4.59336">
        <ele>630.923767</ele>
        <time>2015-10-11T07:59:40Z</time>
      </trkpt>
      <trkpt lat="45.96273" lon="4.59343">
        <ele>630.185181</ele>
        <time>2015-10-11T07:59:46Z</time>
      </trkpt>
      <trkpt lat="45.96285" lon="4.59352">
        <ele>628.837585</ele>
        <time>2015-10-11T07:59:51Z</time>
      </trkpt>
      <trkpt lat="45.96296" lon="4.59362">
        <ele>627.5625</ele>
        <time>2015-10-11T07:59:56Z</time>
      </trkpt>
      <trkpt lat="45.96297" lon="4.59364">
        <ele>627.29657</ele>
        <time>2015-10-11T07:59:57Z</time>
      </trkpt>
      <trkpt lat="45.96307" lon="4.59374">
        <ele>625.84967</ele>
        <time>2015-10-11T08:00:01Z</time>
      </trkpt>
      <trkpt lat="45.9631" lon="4.59381">
        <ele>624.813538</ele>
        <time>2015-10-11T08:00:03Z</time>
      </trkpt>
      <trkpt lat="45.96318" lon="4.59389">
        <ele>623.605774</ele>
        <time>2015-10-11T08:00:06Z</time>
      </trkpt>
      <trkpt lat="45.96327" lon="4.59398">
        <ele>621.644836</ele>
        <time>2015-10-11T08:00:10Z</time>
      </trkpt>
      <trkpt lat="45.9634" lon="4.59408">
        <ele>619.478271</ele>
        <time>2015-10-11T08:00:15Z</time>
      </trkpt>
      <trkpt lat="45.96348" lon="4.59413">
        <ele>618.488953</ele>
        <time>2015-10-11T08:00:19Z</time>
      </trkpt>
      <trkpt lat="45.96359" lon="4.59422">
        <ele>616.208801</ele>
        <time>2015-10-11T08:00:24Z</time>
      </trkpt>
      <trkpt lat="45.96373" lon="4.59431">
        <ele>614.03949</ele>
        <time>2015-10-11T08:00:29Z</time>
      </trkpt>
      <trkpt lat="45.96381" lon="4.59435">
        <ele>612.98468</ele>
        <time>2015-10-11T08:00:32Z</time>
      </trkpt>
      <trkpt lat="45.96393" lon="4.59446">
        <ele>610.196167</ele>
        <time>2015-10-11T08:00:37Z</time>
      </trkpt>
      <trkpt lat="45.964" lon="4.59451">
        <ele>608.918579</ele>
        <time>2015-10-11T08:00:41Z</time>
      </trkpt>
      <trkpt lat="45.96413" lon="4.59458">
        <ele>607.44342</ele>
        <time>2015-10-11T08:00:46Z</time>
      </trkpt>
      <trkpt lat="45.96423" lon="4.59464">
        <ele>606.172974</ele>
        <time>2015-10-11T08:00:50Z</time>
      </trkpt>
      <trkpt lat="45.96433" lon="4.59471">
        <ele>604.626892</ele>
        <time>2015-10-11T08:00:54Z</time>
      </trkpt>
      <trkpt lat="45.96443" lon="4.5948">
        <ele>602.422791</ele>
        <time>2015-10-11T08:00:59Z</time>
      </trkpt>
      <trkpt lat="45.96452" lon="4.59487">
        <ele>600.989929</ele>
        <time>2015-10-11T08:01:03Z</time>
      </trkpt>
      <trkpt lat="45.96456" lon="4.59498">
        <ele>598.605103</ele>
        <time>2015-10-11T08:01:07Z</time>
      </trkpt>
      <trkpt lat="45.96461" lon="4.59506">
        <ele>596.803467</ele>
        <time>2015-10-11T08:01:10Z</time>
      </trkpt>
      <trkpt lat="45.9647" lon="4.59512">
        <ele>595.995178</ele>
        <time>2015-10-11T08:01:13Z</time>
      </trkpt>
      <trkpt lat="45.96473" lon="4.59514">
        <ele>595.76593</ele>
        <time>2015-10-11T08:01:14Z</time>
      </trkpt>
      <trkpt lat="45.96483" lon="4.59522">
        <ele>594.496216</ele>
        <time>2015-10-11T08:01:18Z</time>
      </trkpt>
      <trkpt lat="45.96496" lon="4.59537">
        <ele>593.119873</ele>
        <time>2015-10-11T08:01:24Z</time>
      </trkpt>
      <trkpt lat="45.96507" lon="4.59548">
        <ele>593.409485</ele>
        <time>2015-10-11T08:01:29Z</time>
      </trkpt>
      <trkpt lat="45.96515" lon="4.59557">
        <ele>593.333557</ele>
        <time>2015-10-11T08:01:33Z</time>
      </trkpt>
      <trkpt lat="45.96525" lon="4.59572">
        <ele>592.217896</ele>
        <time>2015-10-11T08:01:38Z</time>
      </trkpt>
      <trkpt lat="45.96531" lon="4.5959">
        <ele>590.001587</ele>
        <time>2015-10-11T08:01:43Z</time>
      </trkpt>
      <trkpt lat="45.96537" lon="4.59609">
        <ele>588.73175</ele>
        <time>2015-10-11T08:01:49Z</time>
      </trkpt>
      <trkpt lat="45.9654" lon="4.59615">
        <ele>588.319702</ele>
        <time>2015-10-11T08:01:51Z</time>
      </trkpt>
      <trkpt lat="45.96542" lon="4.59622">
        <ele>587.883179</ele>
        <time>2015-10-11T08:01:53Z</time>
      </trkpt>
      <trkpt lat="45.96546" lon="4.59631">
        <ele>587.470154</ele>
        <time>2015-10-11T08:01:56Z</time>
      </trkpt>
      <trkpt lat="45.96548" lon="4.59645">
        <ele>585.944153</ele>
        <time>2015-10-11T08:02:00Z</time>
      </trkpt>
      <trkpt lat="45.96549" lon="4.59653">
        <ele>584.987549</ele>
        <time>2015-10-11T08:02:03Z</time>
      </trkpt>
      <trkpt lat="45.96549" lon="4.59657">
        <ele>584.351013</ele>
        <time>2015-10-11T08:02:04Z</time>
      </trkpt>
      <trkpt lat="45.9655" lon="4.59663">
        <ele>583.794861</ele>
        <time>2015-10-11T08:02:06Z</time>
      </trkpt>
      <trkpt lat="45.96551" lon="4.59669">
        <ele>583.153198</ele>
        <time>2015-10-11T08:02:08Z</time>
      </trkpt>
      <trkpt lat="45.96553" lon="4.59677">
        <ele>582.630188</ele>
        <time>2015-10-11T08:02:10Z</time>
      </trkpt>
      <trkpt lat="45.96558" lon="4.59691">
        <ele>581.691833</ele>
        <time>2015-10-11T08:02:14Z</time>
      </trkpt>
      <trkpt lat="45.96568" lon="4.59711">
        <ele>581.127075</ele>
        <time>2015-10-11T08:02:20Z</time>
      </trkpt>
      <trkpt lat="45.96581" lon="4.5973">
        <ele>580.810425</ele>
        <time>2015-10-11T08:02:27Z</time>
      </trkpt>
      <trkpt lat="45.96593" lon="4.59745">
        <ele>579.588745</ele>
        <time>2015-10-11T08:02:33Z</time>
      </trkpt>
      <trkpt lat="45.96603" lon="4.59757">
        <ele>578.923523</ele>
        <time>2015-10-11T08:02:38Z</time>
      </trkpt>
      <trkpt lat="45.96614" lon="4.59775">
        <ele>577.656433</ele>
        <time>2015-10-11T08:02:44Z</time>
      </trkpt>
      <trkpt lat="45.96622" lon="4.59787">
        <ele>576.961975</ele>
        <time>2015-10-11T08:02:49Z</time>
      </trkpt>
      <trkpt lat="45.96628" lon="4.598">
        <ele>575.439087</ele>
        <time>2015-10-11T10:25:01Z</time>
      </trkpt>
      <trkpt lat="45.96596" lon="4.59786">
        <ele>573.674011</ele>
        <time>2015-10-11T10:25:06Z</time>
      </trkpt>
      <trkpt lat="45.96555" lon="4.59764">
        <ele>570.005737</ele>
        <time>2015-10-11T10:25:11Z</time>
      </trkpt>
      <trkpt lat="45.9651" lon="4.59717">
        <ele>568.099304</ele>
        <time>2015-10-11T10:25:27Z</time>
      </trkpt>
      <trkpt lat="45.96476" lon="4.59725">
        <ele>561.605347</ele>
        <time>2015-10-11T10:25:30Z</time>
      </trkpt>
      <trkpt lat="45.96446" lon="4.59733">
        <ele>557.84021</ele>
        <time>2015-10-11T10:25:31Z</time>
      </trkpt>
      <trkpt lat="45.96405" lon="4.59768">
        <ele>553.726501</ele>
        <time>2015-10-11T10:25:36Z</time>
      </trkpt>
      <trkpt lat="45.96386" lon="4.59822">
        <ele>547.90564</ele>
        <time>2015-10-11T10:25:37Z</time>
      </trkpt>
      <trkpt lat="45.96351" lon="4.59897">
        <ele>541.598572</ele>
        <time>2015-10-11T10:25:38Z</time>
      </trkpt>
      <trkpt lat="45.96321" lon="4.59947">
        <ele>533.112549</ele>
        <time>2015-10-11T10:25:41Z</time>
      </trkpt>
      <trkpt lat="45.96306" lon="4.59995">
        <ele>524.592407</ele>
        <time>2015-10-11T10:30:33Z</time>
      </trkpt>
      <trkpt lat="45.96264" lon="4.60035">
        <ele>514.510193</ele>
        <time>2015-10-11T10:30:36Z</time>
      </trkpt>
      <trkpt lat="45.96227" lon="4.6007">
        <ele>499.436401</ele>
        <time>2015-10-11T10:30:37Z</time>
      </trkpt>
      <trkpt lat="45.96217" lon="4.60101">
        <ele>490.048981</ele>
        <time>2015-10-11T10:30:41Z</time>
      </trkpt>
      <trkpt lat="45.96205" lon="4.60107">
        <ele>485.19516</ele>
        <time>2015-10-11T10:30:42Z</time>
      </trkpt>
      <trkpt lat="45.96183" lon="4.60099">
        <ele>480.747986</ele>
        <time>2015-10-11T10:30:44Z</time>
      </trkpt>
      <trkpt lat="45.96158" lon="4.60082">
        <ele>477.360809</ele>
        <time>2015-10-11T10:30:49Z</time>
      </trkpt>
      <trkpt lat="45.96154" lon="4.60072">
        <ele>477.410797</ele>
        <time>2015-10-11T10:30:50Z</time>
      </trkpt>
      <trkpt lat="45.96123" lon="4.60069">
        <ele>470.585785</ele>
        <time>2015-10-11T10:30:52Z</time>
      </trkpt>
      <trkpt lat="45.96101" lon="4.60099">
        <ele>467.822723</ele>
        <time>2015-10-11T10:30:53Z</time>
      </trkpt>
      <trkpt lat="45.96057" lon="4.60126">
        <ele>470.037048</ele>
        <time>2015-10-11T10:30:55Z</time>
      </trkpt>
      <trkpt lat="45.96059" lon="4.6031">
        <ele>458.907684</ele>
        <time>2015-10-11T10:30:57Z</time>
      </trkpt>
      <trkpt lat="45.96057" lon="4.60354">
        <ele>458.621704</ele>
        <time>2015-10-11T10:31:02Z</time>
      </trkpt>
      <trkpt lat="45.96067" lon="4.60428">
        <ele>451.204712</ele>
        <time>2015-10-11T10:31:05Z</time>
      </trkpt>
      <trkpt lat="45.96066" lon="4.60506">
        <ele>445.818695</ele>
        <time>2015-10-11T10:31:09Z</time>
      </trkpt>
      <trkpt lat="45.96067" lon="4.60529">
        <ele>443.467712</ele>
        <time>2015-10-11T10:37:41Z</time>
      </trkpt>
      <trkpt lat="45.96063" lon="4.60527">
        <ele>444.761597</ele>
        <time>2015-10-11T10:37:46Z</time>
      </trkpt>
      <trkpt lat="45.96062" lon="4.60527">
        <ele>445.172424</ele>
        <time>2015-10-11T10:37:47Z</time>
      </trkpt>
      <trkpt lat="45.96058" lon="4.60525">
        <ele>446.138397</ele>
        <time>2015-10-11T10:37:50Z</time>
      </trkpt>
      <trkpt lat="45.96053" lon="4.60521">
        <ele>447.939697</ele>
        <time>2015-10-11T10:37:56Z</time>
      </trkpt>
      <trkpt lat="45.96048" lon="4.60518">
        <ele>449.59848</ele>
        <time>2015-10-11T10:38:02Z</time>
      </trkpt>
      <trkpt lat="45.96046" lon="4.60514">
        <ele>450.45636</ele>
        <time>2015-10-11T10:38:05Z</time>
      </trkpt>
      <trkpt lat="45.96044" lon="4.60513">
        <ele>451.03775</ele>
        <time>2015-10-11T10:38:07Z</time>
      </trkpt>
      <trkpt lat="45.96037" lon="4.6051">
        <ele>453.349945</ele>
        <time>2015-10-11T10:38:14Z</time>
      </trkpt>
      <trkpt lat="45.96031" lon="4.60509">
        <ele>454.889893</ele>
        <time>2015-10-11T10:38:19Z</time>
      </trkpt>
      <trkpt lat="45.96028" lon="4.60508">
        <ele>455.759796</ele>
        <time>2015-10-11T10:38:22Z</time>
      </trkpt>
      <trkpt lat="45.96027" lon="4.60509">
        <ele>456.142151</ele>
        <time>2015-10-11T10:38:24Z</time>
      </trkpt>
      <trkpt lat="45.96026" lon="4.6051">
        <ele>456.203766</ele>
        <time>2015-10-11T10:38:25Z</time>
      </trkpt>
      <trkpt lat="45.96022" lon="4.60515">
        <ele>456.78183</ele>
        <time>2015-10-11T10:38:31Z</time>
      </trkpt>
      <trkpt lat="45.96021" lon="4.60518">
        <ele>456.918335</ele>
        <time>2015-10-11T10:38:33Z</time>
      </trkpt>
      <trkpt lat="45.96019" lon="4.6052">
        <ele>457.218323</ele>
        <time>2015-10-11T10:38:35Z</time>
      </trkpt>
      <trkpt lat="45.96017" lon="4.60522">
        <ele>457.598114</ele>
        <time>2015-10-11T10:38:37Z</time>
      </trkpt>
      <trkpt lat="45.96011" lon="4.60528">
        <ele>459.02713</ele>
        <time>2015-10-11T10:38:42Z</time>
      </trkpt>
      <trkpt lat="45.9601" lon="4.60531">
        <ele>459.115143</ele>
        <time>2015-10-11T10:38:43Z</time>
      </trkpt>
      <trkpt lat="45.96001" lon="4.60544">
        <ele>459.963043</ele>
        <time>2015-10-11T10:38:49Z</time>
      </trkpt>
      <trkpt lat="45.95999" lon="4.6055">
        <ele>459.996765</ele>
        <time>2015-10-11T10:38:52Z</time>
      </trkpt>
      <trkpt lat="45.95996" lon="4.60555">
        <ele>460.078888</ele>
        <time>2015-10-11T10:38:54Z</time>
      </trkpt>
      <trkpt lat="45.95991" lon="4.60567">
        <ele>459.976929</ele>
        <time>2015-10-11T10:38:59Z</time>
      </trkpt>
      <trkpt lat="45.95987" lon="4.60576">
        <ele>460.028442</ele>
        <time>2015-10-11T10:39:04Z</time>
      </trkpt>
      <trkpt lat="45.95986" lon="4.60584">
        <ele>459.121979</ele>
        <time>2015-10-11T10:39:08Z</time>
      </trkpt>
      <trkpt lat="45.95987" lon="4.60588">
        <ele>458.482666</ele>
        <time>2015-10-11T10:39:10Z</time>
      </trkpt>
      <trkpt lat="45.95988" lon="4.60591">
        <ele>457.730408</ele>
        <time>2015-10-11T10:39:14Z</time>
      </trkpt>
      <trkpt lat="45.95989" lon="4.60593">
        <ele>457.176941</ele>
        <time>2015-10-11T10:39:15Z</time>
      </trkpt>
      <trkpt lat="45.95989" lon="4.60597">
        <ele>456.521301</ele>
        <time>2015-10-11T10:39:16Z</time>
      </trkpt>
      <trkpt lat="45.95987" lon="4.60604">
        <ele>456.216919</ele>
        <time>2015-10-11T10:39:18Z</time>
      </trkpt>
      <trkpt lat="45.9598" lon="4.6062">
        <ele>455.760468</ele>
        <time>2015-10-11T10:39:23Z</time>
      </trkpt>
      <trkpt lat="45.95978" lon="4.60624">
        <ele>455.655975</ele>
        <time>2015-10-11T10:39:24Z</time>
      </trkpt>
      <trkpt lat="45.9597" lon="4.60637">
        <ele>455.674805</ele>
        <time>2015-10-11T10:39:29Z</time>
      </trkpt>
      <trkpt lat="45.95966" lon="4.60651">
        <ele>454.66861</ele>
        <time>2015-10-11T10:39:35Z</time>
      </trkpt>
      <trkpt lat="45.95965" lon="4.60665">
        <ele>452.401062</ele>
        <time>2015-10-11T10:39:40Z</time>
      </trkpt>
      <trkpt lat="45.9597" lon="4.60683">
        <ele>448.497437</ele>
        <time>2015-10-11T10:39:45Z</time>
      </trkpt>
      <trkpt lat="45.9597" lon="4.60704">
        <ele>445.074188</ele>
        <time>2015-10-11T10:39:51Z</time>
      </trkpt>
      <trkpt lat="45.95965" lon="4.60711">
        <ele>444.98642</ele>
        <time>2015-10-11T10:39:53Z</time>
      </trkpt>
      <trkpt lat="45.95955" lon="4.60721">
        <ele>445.075134</ele>
        <time>2015-10-11T10:39:56Z</time>
      </trkpt>
      <trkpt lat="45.95947" lon="4.6073">
        <ele>445.000122</ele>
        <time>2015-10-11T10:39:59Z</time>
      </trkpt>
      <trkpt lat="45.95938" lon="4.60741">
        <ele>444.913757</ele>
        <time>2015-10-11T10:40:03Z</time>
      </trkpt>
      <trkpt lat="45.95926" lon="4.60756">
        <ele>444.40683</ele>
        <time>2015-10-11T10:40:09Z</time>
      </trkpt>
      <trkpt lat="45.95924" lon="4.60763">
        <ele>443.378418</ele>
        <time>2015-10-11T10:40:12Z</time>
      </trkpt>
      <trkpt lat="45.95926" lon="4.60765">
        <ele>442.967194</ele>
        <time>2015-10-11T10:40:13Z</time>
      </trkpt>
      <trkpt lat="45.95937" lon="4.60778">
        <ele>439.653992</ele>
        <time>2015-10-11T10:40:18Z</time>
      </trkpt>
      <trkpt lat="45.9595" lon="4.60796">
        <ele>435.939941</ele>
        <time>2015-10-11T10:40:25Z</time>
      </trkpt>
      <trkpt lat="45.9596" lon="4.60809">
        <ele>433.848602</ele>
        <time>2015-10-11T10:40:30Z</time>
      </trkpt>
      <trkpt lat="45.95973" lon="4.60827">
        <ele>431.581573</ele>
        <time>2015-10-11T10:40:37Z</time>
      </trkpt>
      <trkpt lat="45.95981" lon="4.60841">
        <ele>430.102325</ele>
        <time>2015-10-11T10:40:42Z</time>
      </trkpt>
      <trkpt lat="45.95975" lon="4.60856">
        <ele>429.658386</ele>
        <time>2015-10-11T10:40:46Z</time>
      </trkpt>
      <trkpt lat="45.95966" lon="4.60857">
        <ele>430.080933</ele>
        <time>2015-10-11T10:40:49Z</time>
      </trkpt>
      <trkpt lat="45.95963" lon="4.60857">
        <ele>430.147247</ele>
        <time>2015-10-11T10:40:50Z</time>
      </trkpt>
      <trkpt lat="45.95946" lon="4.60854">
        <ele>430.725922</ele>
        <time>2015-10-11T10:40:56Z</time>
      </trkpt>
      <trkpt lat="45.95932" lon="4.60845">
        <ele>431.941498</ele>
        <time>2015-10-11T10:41:01Z</time>
      </trkpt>
      <trkpt lat="45.95918" lon="4.60834">
        <ele>433.492462</ele>
        <time>2015-10-11T10:41:07Z</time>
      </trkpt>
      <trkpt lat="45.95907" lon="4.60827">
        <ele>434.353973</ele>
        <time>2015-10-11T10:41:11Z</time>
      </trkpt>
      <trkpt lat="45.959" lon="4.6082">
        <ele>435.162354</ele>
        <time>2015-10-11T10:41:14Z</time>
      </trkpt>
      <trkpt lat="45.95892" lon="4.60815">
        <ele>435.881714</ele>
        <time>2015-10-11T10:41:17Z</time>
      </trkpt>
      <trkpt lat="45.95887" lon="4.60813">
        <ele>436.241089</ele>
        <time>2015-10-11T10:41:19Z</time>
      </trkpt>
      <trkpt lat="45.95871" lon="4.60806">
        <ele>436.770569</ele>
        <time>2015-10-11T10:41:25Z</time>
      </trkpt>
      <trkpt lat="45.95853" lon="4.60805">
        <ele>436.006744</ele>
        <time>2015-10-11T10:41:31Z</time>
      </trkpt>
      <trkpt lat="45.95841" lon="4.60805">
        <ele>435.376373</ele>
        <time>2015-10-11T10:41:36Z</time>
      </trkpt>
      <trkpt lat="45.95828" lon="4.60802">
        <ele>435.083435</ele>
        <time>2015-10-11T10:41:41Z</time>
      </trkpt>
      <trkpt lat="45.95814" lon="4.60798">
        <ele>434.695435</ele>
        <time>2015-10-11T10:41:47Z</time>
      </trkpt>
      <trkpt lat="45.95799" lon="4.60794">
        <ele>434.281097</ele>
        <time>2015-10-11T10:41:53Z</time>
      </trkpt>
      <trkpt lat="45.95782" lon="4.6079">
        <ele>433.981262</ele>
        <time>2015-10-11T10:41:59Z</time>
      </trkpt>
      <trkpt lat="45.95763" lon="4.60786">
        <ele>434.050903</ele>
        <time>2015-10-11T10:42:06Z</time>
      </trkpt>
      <trkpt lat="45.95745" lon="4.60783">
        <ele>433.942841</ele>
        <time>2015-10-11T10:42:12Z</time>
      </trkpt>
      <trkpt lat="45.95728" lon="4.60781">
        <ele>434.198914</ele>
        <time>2015-10-11T10:42:18Z</time>
      </trkpt>
      <trkpt lat="45.95716" lon="4.6078">
        <ele>434.382507</ele>
        <time>2015-10-11T10:42:22Z</time>
      </trkpt>
      <trkpt lat="45.95699" lon="4.60779">
        <ele>434.404205</ele>
        <time>2015-10-11T10:42:28Z</time>
      </trkpt>
      <trkpt lat="45.95681" lon="4.60775">
        <ele>434.741302</ele>
        <time>2015-10-11T10:42:34Z</time>
      </trkpt>
      <trkpt lat="45.95661" lon="4.60773">
        <ele>434.494202</ele>
        <time>2015-10-11T10:42:41Z</time>
      </trkpt>
      <trkpt lat="45.95659" lon="4.60772">
        <ele>434.770477</ele>
        <time>2015-10-11T10:42:42Z</time>
      </trkpt>
      <trkpt lat="45.95657" lon="4.60773">
        <ele>434.349365</ele>
        <time>2015-10-11T10:42:44Z</time>
      </trkpt>
      <trkpt lat="45.95654" lon="4.60774">
        <ele>434.170593</ele>
        <time>2015-10-11T10:42:45Z</time>
      </trkpt>
      <trkpt lat="45.9564" lon="4.60773">
        <ele>434.346405</ele>
        <time>2015-10-11T10:42:50Z</time>
      </trkpt>
      <trkpt lat="45.95623" lon="4.6077">
        <ele>434.841766</ele>
        <time>2015-10-11T10:42:56Z</time>
      </trkpt>
      <trkpt lat="45.95608" lon="4.60765">
        <ele>435.901459</ele>
        <time>2015-10-11T10:43:02Z</time>
      </trkpt>
      <trkpt lat="45.9559" lon="4.60764">
        <ele>436.612427</ele>
        <time>2015-10-11T10:43:09Z</time>
      </trkpt>
      <trkpt lat="45.95577" lon="4.60765">
        <ele>436.623993</ele>
        <time>2015-10-11T10:43:14Z</time>
      </trkpt>
      <trkpt lat="45.95563" lon="4.60768">
        <ele>436.666229</ele>
        <time>2015-10-11T10:43:19Z</time>
      </trkpt>
      <trkpt lat="45.95545" lon="4.60774">
        <ele>436.451202</ele>
        <time>2015-10-11T10:43:25Z</time>
      </trkpt>
      <trkpt lat="45.95527" lon="4.60786">
        <ele>436.184601</ele>
        <time>2015-10-11T10:43:32Z</time>
      </trkpt>
      <trkpt lat="45.95513" lon="4.60803">
        <ele>435.799591</ele>
        <time>2015-10-11T10:43:38Z</time>
      </trkpt>
      <trkpt lat="45.95501" lon="4.60823">
        <ele>435.308289</ele>
        <time>2015-10-11T10:43:44Z</time>
      </trkpt>
      <trkpt lat="45.95494" lon="4.60844">
        <ele>434.745117</ele>
        <time>2015-10-11T10:43:50Z</time>
      </trkpt>
      <trkpt lat="45.95486" lon="4.60869">
        <ele>434.95932</ele>
        <time>2015-10-11T10:43:56Z</time>
      </trkpt>
      <trkpt lat="45.95479" lon="4.60893">
        <ele>435.247681</ele>
        <time>2015-10-11T10:44:02Z</time>
      </trkpt>
      <trkpt lat="45.95475" lon="4.60895">
        <ele>435.899567</ele>
        <time>2015-10-11T10:44:04Z</time>
      </trkpt>
      <trkpt lat="45.95474" lon="4.60893">
        <ele>436.252533</ele>
        <time>2015-10-11T10:44:05Z</time>
      </trkpt>
      <trkpt lat="45.9547" lon="4.60883">
        <ele>437.513367</ele>
        <time>2015-10-11T10:44:09Z</time>
      </trkpt>
      <trkpt lat="45.95466" lon="4.60877">
        <ele>438.3862</ele>
        <time>2015-10-11T10:44:11Z</time>
      </trkpt>
      <trkpt lat="45.95459" lon="4.60868">
        <ele>440.203583</ele>
        <time>2015-10-11T10:44:16Z</time>
      </trkpt>
      <trkpt lat="45.95457" lon="4.60868">
        <ele>440.64621</ele>
        <time>2015-10-11T10:44:17Z</time>
      </trkpt>
      <trkpt lat="45.95446" lon="4.60869">
        <ele>442.872498</ele>
        <time>2015-10-11T10:44:23Z</time>
      </trkpt>
      <trkpt lat="45.95436" lon="4.60869">
        <ele>444.972473</ele>
        <time>2015-10-11T10:44:28Z</time>
      </trkpt>
      <trkpt lat="45.95434" lon="4.60869">
        <ele>445.490509</ele>
        <time>2015-10-11T10:44:29Z</time>
      </trkpt>
      <trkpt lat="45.95422" lon="4.6087">
        <ele>447.989502</ele>
        <time>2015-10-11T10:44:35Z</time>
      </trkpt>
      <trkpt lat="45.95419" lon="4.6087">
        <ele>448.760712</ele>
        <time>2015-10-11T10:44:37Z</time>
      </trkpt>
      <trkpt lat="45.95409" lon="4.6087">
        <ele>450.986206</ele>
        <time>2015-10-11T10:44:43Z</time>
      </trkpt>
      <trkpt lat="45.95403" lon="4.60871">
        <ele>452.175537</ele>
        <time>2015-10-11T10:44:47Z</time>
      </trkpt>
      <trkpt lat="45.954" lon="4.60871">
        <ele>453.043274</ele>
        <time>2015-10-11T10:44:50Z</time>
      </trkpt>
      <trkpt lat="45.95393" lon="4.60871">
        <ele>454.403748</ele>
        <time>2015-10-11T10:44:55Z</time>
      </trkpt>
      <trkpt lat="45.95389" lon="4.6087">
        <ele>455.275848</ele>
        <time>2015-10-11T10:44:58Z</time>
      </trkpt>
      <trkpt lat="45.95385" lon="4.60868">
        <ele>456.276825</ele>
        <time>2015-10-11T10:45:01Z</time>
      </trkpt>
      <trkpt lat="45.95384" lon="4.60863">
        <ele>456.675598</ele>
        <time>2015-10-11T10:45:03Z</time>
      </trkpt>
      <trkpt lat="45.9538" lon="4.60853">
        <ele>457.798615</ele>
        <time>2015-10-11T10:45:07Z</time>
      </trkpt>
      <trkpt lat="45.95376" lon="4.60845">
        <ele>458.967285</ele>
        <time>2015-10-11T10:45:11Z</time>
      </trkpt>
      <trkpt lat="45.95374" lon="4.60844">
        <ele>459.422974</ele>
        <time>2015-10-11T10:45:12Z</time>
      </trkpt>
      <trkpt lat="45.95372" lon="4.60841">
        <ele>460.069611</ele>
        <time>2015-10-11T10:45:14Z</time>
      </trkpt>
      <trkpt lat="45.95372" lon="4.6084">
        <ele>460.138184</ele>
        <time>2015-10-11T10:45:15Z</time>
      </trkpt>
      <trkpt lat="45.95372" lon="4.60838">
        <ele>460.095978</ele>
        <time>2015-10-11T10:45:18Z</time>
      </trkpt>
      <trkpt lat="45.95372" lon="4.60837">
        <ele>460.03125</ele>
        <time>2015-10-11T10:45:25Z</time>
      </trkpt>
      <trkpt lat="45.95373" lon="4.60836">
        <ele>459.886047</ele>
        <time>2015-10-11T10:45:30Z</time>
      </trkpt>
      <trkpt lat="45.95373" lon="4.60837">
        <ele>459.843964</ele>
        <time>2015-10-11T10:45:34Z</time>
      </trkpt>
      <trkpt lat="45.95373" lon="4.60837">
        <ele>459.804565</ele>
        <time>2015-10-11T10:45:37Z</time>
      </trkpt>
      <trkpt lat="45.95374" lon="4.60837">
        <ele>459.697052</ele>
        <time>2015-10-11T10:45:39Z</time>
      </trkpt>
      <trkpt lat="45.95374" lon="4.60837">
        <ele>459.700989</ele>
        <time>2015-10-11T10:45:41Z</time>
      </trkpt>
      <trkpt lat="45.95373" lon="4.60836">
        <ele>459.92514</ele>
        <time>2015-10-11T10:45:44Z</time>
      </trkpt>
      <trkpt lat="45.95373" lon="4.60835">
        <ele>459.844727</ele>
        <time>2015-10-11T10:45:46Z</time>
      </trkpt>
      <trkpt lat="45.95373" lon="4.60835">
        <ele>459.851013</ele>
        <time>2015-10-11T10:45:47Z</time>
      </trkpt>
      <trkpt lat="45.95373" lon="4.60836">
        <ele>459.78302</ele>
        <time>2015-10-11T10:45:49Z</time>
      </trkpt>
      <trkpt lat="45.95373" lon="4.60835">
        <ele>459.801971</ele>
        <time>2015-10-11T10:45:51Z</time>
      </trkpt>
      <trkpt lat="45.95374" lon="4.60836">
        <ele>459.732574</ele>
        <time>2015-10-11T10:45:53Z</time>
      </trkpt>
      <trkpt lat="45.95373" lon="4.60835">
        <ele>459.828644</ele>
        <time>2015-10-11T10:45:55Z</time>
      </trkpt>
      <trkpt lat="45.95374" lon="4.60835">
        <ele>459.755432</ele>
        <time>2015-10-11T10:45:57Z</time>
      </trkpt>
      <trkpt lat="45.95373" lon="4.60831">
        <ele>459.845978</ele>
        <time>2015-10-11T10:46:00Z</time>
      </trkpt>
      <trkpt lat="45.95372" lon="4.6082">
        <ele>460.127747</ele>
        <time>2015-10-11T10:46:04Z</time>
      </trkpt>
      <trkpt lat="45.95373" lon="4.60799">
        <ele>460.061707</ele>
        <time>2015-10-11T10:46:10Z</time>
      </trkpt>
      <trkpt lat="45.95373" lon="4.60788">
        <ele>459.953125</ele>
        <time>2015-10-11T10:46:13Z</time>
      </trkpt>
      <trkpt lat="45.95373" lon="4.60777">
        <ele>459.965729</ele>
        <time>2015-10-11T10:46:16Z</time>
      </trkpt>
      <trkpt lat="45.95374" lon="4.60762">
        <ele>459.744843</ele>
        <time>2015-10-11T10:46:20Z</time>
      </trkpt>
      <trkpt lat="45.95376" lon="4.60755">
        <ele>459.37439</ele>
        <time>2015-10-11T10:46:22Z</time>
      </trkpt>
      <trkpt lat="45.95375" lon="4.60751">
        <ele>459.47348</ele>
        <time>2015-10-11T10:46:24Z</time>
      </trkpt>
      <trkpt lat="45.95373" lon="4.60751">
        <ele>459.824799</ele>
        <time>2015-10-11T10:46:25Z</time>
      </trkpt>
      <trkpt lat="45.95367" lon="4.60758">
        <ele>461.296753</ele>
        <time>2015-10-11T10:46:29Z</time>
      </trkpt>
      <trkpt lat="45.9536" lon="4.60762">
        <ele>462.858307</ele>
        <time>2015-10-11T10:46:33Z</time>
      </trkpt>
      <trkpt lat="45.95355" lon="4.60763">
        <ele>463.863953</ele>
        <time>2015-10-11T10:46:35Z</time>
      </trkpt>
      <trkpt lat="45.95349" lon="4.60765">
        <ele>465.167542</ele>
        <time>2015-10-11T10:46:38Z</time>
      </trkpt>
      <trkpt lat="45.95346" lon="4.60765">
        <ele>465.951477</ele>
        <time>2015-10-11T10:46:40Z</time>
      </trkpt>
      <trkpt lat="45.95346" lon="4.60764">
        <ele>466.01001</ele>
        <time>2015-10-11T10:46:41Z</time>
      </trkpt>
      <trkpt lat="45.95343" lon="4.60765">
        <ele>466.638824</ele>
        <time>2015-10-11T10:46:44Z</time>
      </trkpt>
      <trkpt lat="45.95338" lon="4.60763">
        <ele>467.641846</ele>
        <time>2015-10-11T10:46:48Z</time>
      </trkpt>
      <trkpt lat="45.95335" lon="4.60762">
        <ele>468.388275</ele>
        <time>2015-10-11T10:46:51Z</time>
      </trkpt>
      <trkpt lat="45.95325" lon="4.60758">
        <ele>470.538849</ele>
        <time>2015-10-11T10:46:59Z</time>
      </trkpt>
      <trkpt lat="45.95317" lon="4.60756">
        <ele>472.290466</ele>
        <time>2015-10-11T10:47:06Z</time>
      </trkpt>
      <trkpt lat="45.95309" lon="4.60754">
        <ele>473.920563</ele>
        <time>2015-10-11T10:47:13Z</time>
      </trkpt>
      <trkpt lat="45.95308" lon="4.60754">
        <ele>474.096527</ele>
        <time>2015-10-11T10:47:14Z</time>
      </trkpt>
      <trkpt lat="45.95305" lon="4.60753">
        <ele>474.813446</ele>
        <time>2015-10-11T10:47:17Z</time>
      </trkpt>
      <trkpt lat="45.95304" lon="4.60753">
        <ele>475.09021</ele>
        <time>2015-10-11T10:47:18Z</time>
      </trkpt>
      <trkpt lat="45.95293" lon="4.60752">
        <ele>477.234406</ele>
        <time>2015-10-11T10:47:26Z</time>
      </trkpt>
      <trkpt lat="45.95289" lon="4.60751">
        <ele>478.067291</ele>
        <time>2015-10-11T10:47:30Z</time>
      </trkpt>
      <trkpt lat="45.95287" lon="4.60751">
        <ele>478.338196</ele>
        <time>2015-10-11T10:47:32Z</time>
      </trkpt>
      <trkpt lat="45.95281" lon="4.60749">
        <ele>479.352753</ele>
        <time>2015-10-11T10:47:38Z</time>
      </trkpt>
      <trkpt lat="45.9528" lon="4.60751">
        <ele>479.602661</ele>
        <time>2015-10-11T10:47:40Z</time>
      </trkpt>
      <trkpt lat="45.95279" lon="4.6075">
        <ele>479.833069</ele>
        <time>2015-10-11T10:47:41Z</time>
      </trkpt>
      <trkpt lat="45.95276" lon="4.60749">
        <ele>480.287628</ele>
        <time>2015-10-11T10:47:43Z</time>
      </trkpt>
      <trkpt lat="45.95273" lon="4.60749">
        <ele>480.912323</ele>
        <time>2015-10-11T10:47:46Z</time>
      </trkpt>
      <trkpt lat="45.95265" lon="4.60748">
        <ele>482.287018</ele>
        <time>2015-10-11T10:47:52Z</time>
      </trkpt>
      <trkpt lat="45.95257" lon="4.60748">
        <ele>483.893158</ele>
        <time>2015-10-11T10:47:59Z</time>
      </trkpt>
      <trkpt lat="45.95249" lon="4.60747">
        <ele>485.181702</ele>
        <time>2015-10-11T10:48:04Z</time>
      </trkpt>
      <trkpt lat="45.95247" lon="4.60748">
        <ele>485.622345</ele>
        <time>2015-10-11T10:48:06Z</time>
      </trkpt>
      <trkpt lat="45.95241" lon="4.60746">
        <ele>486.705383</ele>
        <time>2015-10-11T10:48:11Z</time>
      </trkpt>
      <trkpt lat="45.9523" lon="4.60743">
        <ele>488.642639</ele>
        <time>2015-10-11T10:48:19Z</time>
      </trkpt>
      <trkpt lat="45.95219" lon="4.60739">
        <ele>490.506683</ele>
        <time>2015-10-11T10:48:28Z</time>
      </trkpt>
      <trkpt lat="45.95207" lon="4.60735">
        <ele>492.538422</ele>
        <time>2015-10-11T10:48:38Z</time>
      </trkpt>
      <trkpt lat="45.95198" lon="4.60731">
        <ele>494.150665</ele>
        <time>2015-10-11T10:48:46Z</time>
      </trkpt>
      <trkpt lat="45.95189" lon="4.60727">
        <ele>495.516724</ele>
        <time>2015-10-11T10:48:53Z</time>
      </trkpt>
      <trkpt lat="45.95182" lon="4.60723">
        <ele>496.641602</ele>
        <time>2015-10-11T10:48:59Z</time>
      </trkpt>
      <trkpt lat="45.95181" lon="4.60722">
        <ele>496.819641</ele>
        <time>2015-10-11T10:49:00Z</time>
      </trkpt>
      <trkpt lat="45.9517" lon="4.60718">
        <ele>498.461487</ele>
        <time>2015-10-11T10:49:08Z</time>
      </trkpt>
      <trkpt lat="45.95162" lon="4.60716">
        <ele>499.775726</ele>
        <time>2015-10-11T10:49:15Z</time>
      </trkpt>
      <trkpt lat="45.95151" lon="4.60711">
        <ele>501.436218</ele>
        <time>2015-10-11T10:49:23Z</time>
      </trkpt>
      <trkpt lat="45.95142" lon="4.60707">
        <ele>502.688751</ele>
        <time>2015-10-11T10:49:30Z</time>
      </trkpt>
      <trkpt lat="45.95135" lon="4.60702">
        <ele>503.697357</ele>
        <time>2015-10-11T10:49:36Z</time>
      </trkpt>
      <trkpt lat="45.95129" lon="4.60699">
        <ele>504.489319</ele>
        <time>2015-10-11T10:49:41Z</time>
      </trkpt>
      <trkpt lat="45.95128" lon="4.60698">
        <ele>504.650848</ele>
        <time>2015-10-11T10:49:42Z</time>
      </trkpt>
      <trkpt lat="45.95123" lon="4.60696">
        <ele>505.31192</ele>
        <time>2015-10-11T10:49:46Z</time>
      </trkpt>
      <trkpt lat="45.95121" lon="4.60695">
        <ele>505.616852</ele>
        <time>2015-10-11T10:49:48Z</time>
      </trkpt>
      <trkpt lat="45.95112" lon="4.60689">
        <ele>507.510773</ele>
        <time>2015-10-11T10:49:55Z</time>
      </trkpt>
      <trkpt lat="45.95104" lon="4.60684">
        <ele>509.482849</ele>
        <time>2015-10-11T10:50:01Z</time>
      </trkpt>
      <trkpt lat="45.95095" lon="4.60677">
        <ele>511.668518</ele>
        <time>2015-10-11T10:50:08Z</time>
      </trkpt>
      <trkpt lat="45.95087" lon="4.60669">
        <ele>513.740845</ele>
        <time>2015-10-11T10:50:15Z</time>
      </trkpt>
      <trkpt lat="45.95081" lon="4.60661">
        <ele>515.25769</ele>
        <time>2015-10-11T10:50:21Z</time>
      </trkpt>
      <trkpt lat="45.95073" lon="4.60653">
        <ele>517.1922</ele>
        <time>2015-10-11T10:50:28Z</time>
      </trkpt>
      <trkpt lat="45.95068" lon="4.60647">
        <ele>518.415039</ele>
        <time>2015-10-11T10:50:33Z</time>
      </trkpt>
      <trkpt lat="45.95061" lon="4.60639">
        <ele>520.09845</ele>
        <time>2015-10-11T10:50:40Z</time>
      </trkpt>
      <trkpt lat="45.95053" lon="4.60628">
        <ele>522.163757</ele>
        <time>2015-10-11T10:50:49Z</time>
      </trkpt>
      <trkpt lat="45.95047" lon="4.60619">
        <ele>524.646179</ele>
        <time>2015-10-11T10:50:56Z</time>
      </trkpt>
      <trkpt lat="45.95046" lon="4.60619">
        <ele>524.741394</ele>
        <time>2015-10-11T10:50:57Z</time>
      </trkpt>
      <trkpt lat="45.95043" lon="4.60614">
        <ele>526.072327</ele>
        <time>2015-10-11T10:51:00Z</time>
      </trkpt>
      <trkpt lat="45.95041" lon="4.6061">
        <ele>527.310547</ele>
        <time>2015-10-11T10:51:04Z</time>
      </trkpt>
      <trkpt lat="45.95039" lon="4.60607">
        <ele>528.151001</ele>
        <time>2015-10-11T10:51:06Z</time>
      </trkpt>
      <trkpt lat="45.95034" lon="4.60596">
        <ele>530.962646</ele>
        <time>2015-10-11T10:51:14Z</time>
      </trkpt>
      <trkpt lat="45.95033" lon="4.60593">
        <ele>531.736572</ele>
        <time>2015-10-11T10:51:18Z</time>
      </trkpt>
      <trkpt lat="45.95035" lon="4.60591">
        <ele>531.810608</ele>
        <time>2015-10-11T10:51:20Z</time>
      </trkpt>
      <trkpt lat="45.95035" lon="4.6059">
        <ele>531.974121</ele>
        <time>2015-10-11T10:51:21Z</time>
      </trkpt>
      <trkpt lat="45.95037" lon="4.60586">
        <ele>532.354004</ele>
        <time>2015-10-11T10:51:26Z</time>
      </trkpt>
      <trkpt lat="45.95039" lon="4.60579">
        <ele>533.123169</ele>
        <time>2015-10-11T10:51:32Z</time>
      </trkpt>
      <trkpt lat="45.95042" lon="4.60575">
        <ele>533.431946</ele>
        <time>2015-10-11T10:51:36Z</time>
      </trkpt>
      <trkpt lat="45.95043" lon="4.60573">
        <ele>533.546387</ele>
        <time>2015-10-11T10:51:38Z</time>
      </trkpt>
      <trkpt lat="45.95046" lon="4.60563">
        <ele>534.747437</ele>
        <time>2015-10-11T10:51:45Z</time>
      </trkpt>
      <trkpt lat="45.95049" lon="4.60554">
        <ele>536.319336</ele>
        <time>2015-10-11T10:51:52Z</time>
      </trkpt>
      <trkpt lat="45.9505" lon="4.60553">
        <ele>536.380615</ele>
        <time>2015-10-11T10:51:53Z</time>
      </trkpt>
      <trkpt lat="45.95053" lon="4.60547">
        <ele>537.313354</ele>
        <time>2015-10-11T10:51:57Z</time>
      </trkpt>
      <trkpt lat="45.95054" lon="4.60544">
        <ele>537.937622</ele>
        <time>2015-10-11T10:51:58Z</time>
      </trkpt>
      <trkpt lat="45.95057" lon="4.6054">
        <ele>538.506958</ele>
        <time>2015-10-11T10:52:02Z</time>
      </trkpt>
      <trkpt lat="45.95059" lon="4.60534">
        <ele>539.550598</ele>
        <time>2015-10-11T10:52:06Z</time>
      </trkpt>
      <trkpt lat="45.95063" lon="4.60528">
        <ele>540.600159</ele>
        <time>2015-10-11T10:52:11Z</time>
      </trkpt>
      <trkpt lat="45.95068" lon="4.6052">
        <ele>541.643616</ele>
        <time>2015-10-11T10:52:17Z</time>
      </trkpt>
      <trkpt lat="45.95069" lon="4.60519">
        <ele>541.906616</ele>
        <time>2015-10-11T10:52:18Z</time>
      </trkpt>
      <trkpt lat="45.95075" lon="4.60508">
        <ele>543.624329</ele>
        <time>2015-10-11T10:52:25Z</time>
      </trkpt>
      <trkpt lat="45.9508" lon="4.60495">
        <ele>545.818115</ele>
        <time>2015-10-11T10:52:33Z</time>
      </trkpt>
      <trkpt lat="45.95084" lon="4.60484">
        <ele>546.967285</ele>
        <time>2015-10-11T10:52:39Z</time>
      </trkpt>
      <trkpt lat="45.95087" lon="4.60475">
        <ele>548.104004</ele>
        <time>2015-10-11T10:52:45Z</time>
      </trkpt>
      <trkpt lat="45.95089" lon="4.60461">
        <ele>550.033203</ele>
        <time>2015-10-11T10:52:53Z</time>
      </trkpt>
      <trkpt lat="45.95089" lon="4.60452">
        <ele>551.442688</ele>
        <time>2015-10-11T10:52:58Z</time>
      </trkpt>
      <trkpt lat="45.95088" lon="4.60442">
        <ele>553.176086</ele>
        <time>2015-10-11T10:53:04Z</time>
      </trkpt>
      <trkpt lat="45.95088" lon="4.60433">
        <ele>554.716187</ele>
        <time>2015-10-11T10:53:10Z</time>
      </trkpt>
      <trkpt lat="45.95086" lon="4.60424">
        <ele>555.958618</ele>
        <time>2015-10-11T10:53:16Z</time>
      </trkpt>
      <trkpt lat="45.95086" lon="4.60421">
        <ele>556.39679</ele>
        <time>2015-10-11T10:53:18Z</time>
      </trkpt>
      <trkpt lat="45.95085" lon="4.60415">
        <ele>557.118652</ele>
        <time>2015-10-11T10:53:22Z</time>
      </trkpt>
      <trkpt lat="45.95085" lon="4.60413">
        <ele>557.348633</ele>
        <time>2015-10-11T10:53:23Z</time>
      </trkpt>
      <trkpt lat="45.95083" lon="4.60401">
        <ele>558.934814</ele>
        <time>2015-10-11T10:53:30Z</time>
      </trkpt>
      <trkpt lat="45.95085" lon="4.60392">
        <ele>559.722229</ele>
        <time>2015-10-11T10:53:36Z</time>
      </trkpt>
      <trkpt lat="45.95087" lon="4.60382">
        <ele>560.697205</ele>
        <time>2015-10-11T10:53:43Z</time>
      </trkpt>
      <trkpt lat="45.95086" lon="4.6038">
        <ele>560.949402</ele>
        <time>2015-10-11T10:53:44Z</time>
      </trkpt>
      <trkpt lat="45.95086" lon="4.60374">
        <ele>561.612244</ele>
        <time>2015-10-11T10:53:48Z</time>
      </trkpt>
      <trkpt lat="45.95081" lon="4.60362">
        <ele>563.57312</ele>
        <time>2015-10-11T10:53:56Z</time>
      </trkpt>
      <trkpt lat="45.95078" lon="4.60357">
        <ele>564.507813</ele>
        <time>2015-10-11T10:54:00Z</time>
      </trkpt>
      <trkpt lat="45.95076" lon="4.60355">
        <ele>564.944214</ele>
        <time>2015-10-11T10:54:02Z</time>
      </trkpt>
      <trkpt lat="45.95069" lon="4.60346">
        <ele>566.354858</ele>
        <time>2015-10-11T10:54:09Z</time>
      </trkpt>
      <trkpt lat="45.95064" lon="4.60334">
        <ele>567.820129</ele>
        <time>2015-10-11T10:54:17Z</time>
      </trkpt>
      <trkpt lat="45.95059" lon="4.60325">
        <ele>568.947876</ele>
        <time>2015-10-11T10:54:24Z</time>
      </trkpt>
      <trkpt lat="45.95052" lon="4.60312">
        <ele>570.203674</ele>
        <time>2015-10-11T10:54:32Z</time>
      </trkpt>
      <trkpt lat="45.95045" lon="4.60298">
        <ele>571.178223</ele>
        <time>2015-10-11T10:54:41Z</time>
      </trkpt>
      <trkpt lat="45.95038" lon="4.60287">
        <ele>571.516357</ele>
        <time>2015-10-11T10:54:49Z</time>
      </trkpt>
      <trkpt lat="45.95034" lon="4.60278">
        <ele>571.67041</ele>
        <time>2015-10-11T10:54:54Z</time>
      </trkpt>
      <trkpt lat="45.95033" lon="4.60277">
        <ele>571.674133</ele>
        <time>2015-10-11T10:54:55Z</time>
      </trkpt>
      <trkpt lat="45.95031" lon="4.60273">
        <ele>571.669434</ele>
        <time>2015-10-11T10:54:58Z</time>
      </trkpt>
      <trkpt lat="45.9503" lon="4.60272">
        <ele>571.634033</ele>
        <time>2015-10-11T10:54:59Z</time>
      </trkpt>
      <trkpt lat="45.95026" lon="4.60273">
        <ele>571.490234</ele>
        <time>2015-10-11T10:55:02Z</time>
      </trkpt>
      <trkpt lat="45.95023" lon="4.60275">
        <ele>571.318054</ele>
        <time>2015-10-11T10:55:05Z</time>
      </trkpt>
      <trkpt lat="45.95018" lon="4.60278">
        <ele>571.136414</ele>
        <time>2015-10-11T10:55:07Z</time>
      </trkpt>
      <trkpt lat="45.95016" lon="4.60278">
        <ele>571.062927</ele>
        <time>2015-10-11T10:55:08Z</time>
      </trkpt>
      <trkpt lat="45.95005" lon="4.60286">
        <ele>570.818604</ele>
        <time>2015-10-11T10:55:13Z</time>
      </trkpt>
      <trkpt lat="45.95003" lon="4.60288">
        <ele>570.824707</ele>
        <time>2015-10-11T10:55:14Z</time>
      </trkpt>
      <trkpt lat="45.94993" lon="4.60303">
        <ele>570.988831</ele>
        <time>2015-10-11T10:55:20Z</time>
      </trkpt>
      <trkpt lat="45.94982" lon="4.60322">
        <ele>570.941162</ele>
        <time>2015-10-11T10:55:27Z</time>
      </trkpt>
      <trkpt lat="45.94974" lon="4.60333">
        <ele>571.010498</ele>
        <time>2015-10-11T10:55:31Z</time>
      </trkpt>
      <trkpt lat="45.94963" lon="4.60348">
        <ele>571.311768</ele>
        <time>2015-10-11T10:55:37Z</time>
      </trkpt>
      <trkpt lat="45.94952" lon="4.60365">
        <ele>571.823669</ele>
        <time>2015-10-11T10:55:44Z</time>
      </trkpt>
      <trkpt lat="45.94942" lon="4.60379">
        <ele>571.889404</ele>
        <time>2015-10-11T10:55:49Z</time>
      </trkpt>
      <trkpt lat="45.9493" lon="4.60395">
        <ele>571.712952</ele>
        <time>2015-10-11T10:55:55Z</time>
      </trkpt>
      <trkpt lat="45.94919" lon="4.60411">
        <ele>572.035278</ele>
        <time>2015-10-11T10:56:01Z</time>
      </trkpt>
      <trkpt lat="45.94907" lon="4.6043">
        <ele>572.858948</ele>
        <time>2015-10-11T10:56:08Z</time>
      </trkpt>
      <trkpt lat="45.94897" lon="4.60449">
        <ele>573.674805</ele>
        <time>2015-10-11T10:56:15Z</time>
      </trkpt>
      <trkpt lat="45.94885" lon="4.60466">
        <ele>573.729553</ele>
        <time>2015-10-11T10:56:22Z</time>
      </trkpt>
      <trkpt lat="45.94877" lon="4.60481">
        <ele>574.146057</ele>
        <time>2015-10-11T10:56:27Z</time>
      </trkpt>
      <trkpt lat="45.94869" lon="4.60494">
        <ele>574.395325</ele>
        <time>2015-10-11T10:56:32Z</time>
      </trkpt>
      <trkpt lat="45.9486" lon="4.60507">
        <ele>574.832031</ele>
        <time>2015-10-11T10:56:37Z</time>
      </trkpt>
      <trkpt lat="45.9485" lon="4.60523">
        <ele>575.973755</ele>
        <time>2015-10-11T10:56:43Z</time>
      </trkpt>
      <trkpt lat="45.94838" lon="4.60543">
        <ele>577.006714</ele>
        <time>2015-10-11T10:56:50Z</time>
      </trkpt>
      <trkpt lat="45.9483" lon="4.60559">
        <ele>577.748962</ele>
        <time>2015-10-11T10:56:56Z</time>
      </trkpt>
      <trkpt lat="45.94822" lon="4.60577">
        <ele>577.514587</ele>
        <time>2015-10-11T10:57:03Z</time>
      </trkpt>
      <trkpt lat="45.94815" lon="4.60599">
        <ele>577.687866</ele>
        <time>2015-10-11T10:57:10Z</time>
      </trkpt>
      <trkpt lat="45.94812" lon="4.60621">
        <ele>578.125244</ele>
        <time>2015-10-11T10:57:17Z</time>
      </trkpt>
      <trkpt lat="45.94812" lon="4.60626">
        <ele>578.19696</ele>
        <time>2015-10-11T10:57:19Z</time>
      </trkpt>
      <trkpt lat="45.94811" lon="4.60638">
        <ele>578.529968</ele>
        <time>2015-10-11T10:57:22Z</time>
      </trkpt>
      <trkpt lat="45.94808" lon="4.60662">
        <ele>579.711792</ele>
        <time>2015-10-11T10:57:28Z</time>
      </trkpt>
      <trkpt lat="45.94806" lon="4.60672">
        <ele>580.322449</ele>
        <time>2015-10-11T10:57:31Z</time>
      </trkpt>
      <trkpt lat="45.94806" lon="4.60674">
        <ele>580.392578</ele>
        <time>2015-10-11T10:57:33Z</time>
      </trkpt>
      <trkpt lat="45.94805" lon="4.60683">
        <ele>581.405518</ele>
        <time>2015-10-11T10:57:39Z</time>
      </trkpt>
      <trkpt lat="45.94805" lon="4.60688">
        <ele>582.31134</ele>
        <time>2015-10-11T10:57:43Z</time>
      </trkpt>
      <trkpt lat="45.94805" lon="4.6069">
        <ele>582.693054</ele>
        <time>2015-10-11T10:57:45Z</time>
      </trkpt>
      <trkpt lat="45.94803" lon="4.60695">
        <ele>584.093689</ele>
        <time>2015-10-11T10:57:50Z</time>
      </trkpt>
      <trkpt lat="45.94802" lon="4.60698">
        <ele>584.665955</ele>
        <time>2015-10-11T10:57:52Z</time>
      </trkpt>
      <trkpt lat="45.94801" lon="4.60701">
        <ele>585.13916</ele>
        <time>2015-10-11T10:57:55Z</time>
      </trkpt>
      <trkpt lat="45.94801" lon="4.60703">
        <ele>585.660339</ele>
        <time>2015-10-11T10:57:58Z</time>
      </trkpt>
      <trkpt lat="45.948" lon="4.60708">
        <ele>586.53717</ele>
        <time>2015-10-11T10:58:04Z</time>
      </trkpt>
      <trkpt lat="45.94799" lon="4.60715">
        <ele>588.067383</ele>
        <time>2015-10-11T10:58:11Z</time>
      </trkpt>
      <trkpt lat="45.94799" lon="4.6072">
        <ele>588.981873</ele>
        <time>2015-10-11T10:58:16Z</time>
      </trkpt>
      <trkpt lat="45.94798" lon="4.60723">
        <ele>589.617004</ele>
        <time>2015-10-11T10:58:19Z</time>
      </trkpt>
      <trkpt lat="45.94796" lon="4.60729">
        <ele>590.679321</ele>
        <time>2015-10-11T10:58:25Z</time>
      </trkpt>
      <trkpt lat="45.94796" lon="4.6073">
        <ele>590.908325</ele>
        <time>2015-10-11T10:58:26Z</time>
      </trkpt>
      <trkpt lat="45.94794" lon="4.60738">
        <ele>592.508972</ele>
        <time>2015-10-11T10:58:33Z</time>
      </trkpt>
      <trkpt lat="45.94794" lon="4.60742">
        <ele>593.363831</ele>
        <time>2015-10-11T10:58:36Z</time>
      </trkpt>
      <trkpt lat="45.94794" lon="4.60744">
        <ele>593.692993</ele>
        <time>2015-10-11T10:58:38Z</time>
      </trkpt>
      <trkpt lat="45.94791" lon="4.60752">
        <ele>594.424927</ele>
        <time>2015-10-11T10:58:47Z</time>
      </trkpt>
      <trkpt lat="45.9479" lon="4.60759">
        <ele>595.022522</ele>
        <time>2015-10-11T10:58:54Z</time>
      </trkpt>
      <trkpt lat="45.94789" lon="4.60765">
        <ele>595.620605</ele>
        <time>2015-10-11T10:59:00Z</time>
      </trkpt>
      <trkpt lat="45.94788" lon="4.60773">
        <ele>596.40979</ele>
        <time>2015-10-11T10:59:07Z</time>
      </trkpt>
      <trkpt lat="45.94784" lon="4.60784">
        <ele>597.485474</ele>
        <time>2015-10-11T10:59:13Z</time>
      </trkpt>
      <trkpt lat="45.94777" lon="4.60797">
        <ele>598.926758</ele>
        <time>2015-10-11T10:59:19Z</time>
      </trkpt>
      <trkpt lat="45.94764" lon="4.60809">
        <ele>599.905212</ele>
        <time>2015-10-11T10:59:26Z</time>
      </trkpt>
      <trkpt lat="45.9475" lon="4.6082">
        <ele>599.045349</ele>
        <time>2015-10-11T10:59:32Z</time>
      </trkpt>
      <trkpt lat="45.94738" lon="4.60829">
        <ele>597.82019</ele>
        <time>2015-10-11T10:59:37Z</time>
      </trkpt>
      <trkpt lat="45.94726" lon="4.60838">
        <ele>597.10614</ele>
        <time>2015-10-11T10:59:42Z</time>
      </trkpt>
      <trkpt lat="45.94714" lon="4.60847">
        <ele>596.811096</ele>
        <time>2015-10-11T10:59:47Z</time>
      </trkpt>
      <trkpt lat="45.94713" lon="4.60848">
        <ele>596.819702</ele>
        <time>2015-10-11T10:59:48Z</time>
      </trkpt>
      <trkpt lat="45.947" lon="4.60856">
        <ele>595.830322</ele>
        <time>2015-10-11T10:59:53Z</time>
      </trkpt>
      <trkpt lat="45.94684" lon="4.60868">
        <ele>595.128235</ele>
        <time>2015-10-11T10:59:59Z</time>
      </trkpt>
      <trkpt lat="45.94682" lon="4.60869">
        <ele>594.826965</ele>
        <time>2015-10-11T11:00:00Z</time>
      </trkpt>
      <trkpt lat="45.94665" lon="4.60882">
        <ele>592.672485</ele>
        <time>2015-10-11T11:00:07Z</time>
      </trkpt>
      <trkpt lat="45.94652" lon="4.60892">
        <ele>590.108398</ele>
        <time>2015-10-11T11:00:13Z</time>
      </trkpt>
      <trkpt lat="45.9465" lon="4.60894">
        <ele>589.709473</ele>
        <time>2015-10-11T11:00:14Z</time>
      </trkpt>
      <trkpt lat="45.94641" lon="4.60901">
        <ele>588.193115</ele>
        <time>2015-10-11T11:00:18Z</time>
      </trkpt>
      <trkpt lat="45.94638" lon="4.60904">
        <ele>587.80957</ele>
        <time>2015-10-11T11:00:19Z</time>
      </trkpt>
      <trkpt lat="45.94631" lon="4.60909">
        <ele>586.895447</ele>
        <time>2015-10-11T11:00:22Z</time>
      </trkpt>
      <trkpt lat="45.9463" lon="4.60912">
        <ele>586.727234</ele>
        <time>2015-10-11T11:00:23Z</time>
      </trkpt>
      <trkpt lat="45.94623" lon="4.60919">
        <ele>586.129089</ele>
        <time>2015-10-11T11:00:26Z</time>
      </trkpt>
      <trkpt lat="45.94617" lon="4.60926">
        <ele>585.434998</ele>
        <time>2015-10-11T11:00:29Z</time>
      </trkpt>
      <trkpt lat="45.94613" lon="4.6093">
        <ele>584.325562</ele>
        <time>2015-10-11T11:00:31Z</time>
      </trkpt>
      <trkpt lat="45.94608" lon="4.60932">
        <ele>582.72821</ele>
        <time>2015-10-11T11:00:33Z</time>
      </trkpt>
      <trkpt lat="45.94597" lon="4.60935">
        <ele>579.714355</ele>
        <time>2015-10-11T11:00:38Z</time>
      </trkpt>
      <trkpt lat="45.94588" lon="4.60945">
        <ele>577.373413</ele>
        <time>2015-10-11T11:00:43Z</time>
      </trkpt>
      <trkpt lat="45.9458" lon="4.60966">
        <ele>576.596191</ele>
        <time>2015-10-11T11:00:49Z</time>
      </trkpt>
      <trkpt lat="45.9458" lon="4.60972">
        <ele>576.967957</ele>
        <time>2015-10-11T11:00:51Z</time>
      </trkpt>
      <trkpt lat="45.94577" lon="4.60977">
        <ele>576.805725</ele>
        <time>2015-10-11T11:00:53Z</time>
      </trkpt>
      <trkpt lat="45.94574" lon="4.60988">
        <ele>577.018494</ele>
        <time>2015-10-11T11:00:56Z</time>
      </trkpt>
      <trkpt lat="45.94574" lon="4.60989">
        <ele>577.139038</ele>
        <time>2015-10-11T11:00:57Z</time>
      </trkpt>
      <trkpt lat="45.94567" lon="4.61003">
        <ele>576.194397</ele>
        <time>2015-10-11T11:01:02Z</time>
      </trkpt>
      <trkpt lat="45.9456" lon="4.6102">
        <ele>575.308472</ele>
        <time>2015-10-11T11:01:07Z</time>
      </trkpt>
      <trkpt lat="45.94553" lon="4.61033">
        <ele>574.456726</ele>
        <time>2015-10-11T11:01:12Z</time>
      </trkpt>
      <trkpt lat="45.94548" lon="4.61051">
        <ele>575.001404</ele>
        <time>2015-10-11T11:01:18Z</time>
      </trkpt>
      <trkpt lat="45.94551" lon="4.61072">
        <ele>575.455811</ele>
        <time>2015-10-11T11:01:24Z</time>
      </trkpt>
      <trkpt lat="45.94549" lon="4.61075">
        <ele>575.135315</ele>
        <time>2015-10-11T11:01:25Z</time>
      </trkpt>
      <trkpt lat="45.94546" lon="4.61077">
        <ele>574.62677</ele>
        <time>2015-10-11T11:01:27Z</time>
      </trkpt>
      <trkpt lat="45.94539" lon="4.61084">
        <ele>573.528076</ele>
        <time>2015-10-11T11:01:31Z</time>
      </trkpt>
      <trkpt lat="45.94529" lon="4.61093">
        <ele>572.575012</ele>
        <time>2015-10-11T11:01:35Z</time>
      </trkpt>
      <trkpt lat="45.94523" lon="4.61107">
        <ele>572.343811</ele>
        <time>2015-10-11T11:01:39Z</time>
      </trkpt>
      <trkpt lat="45.94519" lon="4.61114">
        <ele>572.036438</ele>
        <time>2015-10-11T11:01:41Z</time>
      </trkpt>
      <trkpt lat="45.94513" lon="4.61122">
        <ele>571.354126</ele>
        <time>2015-10-11T11:01:44Z</time>
      </trkpt>
      <trkpt lat="45.94499" lon="4.61142">
        <ele>569.223755</ele>
        <time>2015-10-11T11:01:51Z</time>
      </trkpt>
      <trkpt lat="45.94489" lon="4.61155">
        <ele>568.321533</ele>
        <time>2015-10-11T11:01:56Z</time>
      </trkpt>
      <trkpt lat="45.94475" lon="4.61167">
        <ele>567.208374</ele>
        <time>2015-10-11T11:02:02Z</time>
      </trkpt>
      <trkpt lat="45.94464" lon="4.61178">
        <ele>565.987976</ele>
        <time>2015-10-11T11:02:07Z</time>
      </trkpt>
      <trkpt lat="45.94456" lon="4.61194">
        <ele>564.653503</ele>
        <time>2015-10-11T11:02:12Z</time>
      </trkpt>
      <trkpt lat="45.94446" lon="4.61215">
        <ele>563.382019</ele>
        <time>2015-10-11T11:02:18Z</time>
      </trkpt>
      <trkpt lat="45.94439" lon="4.61221">
        <ele>562.960999</ele>
        <time>2015-10-11T11:02:22Z</time>
      </trkpt>
      <trkpt lat="45.94426" lon="4.61235">
        <ele>561.891113</ele>
        <time>2015-10-11T11:02:28Z</time>
      </trkpt>
      <trkpt lat="45.94415" lon="4.61245">
        <ele>560.282349</ele>
        <time>2015-10-11T11:02:33Z</time>
      </trkpt>
      <trkpt lat="45.94405" lon="4.61258">
        <ele>557.816467</ele>
        <time>2015-10-11T11:02:38Z</time>
      </trkpt>
      <trkpt lat="45.94396" lon="4.61268">
        <ele>556.277893</ele>
        <time>2015-10-11T11:02:43Z</time>
      </trkpt>
      <trkpt lat="45.94385" lon="4.61286">
        <ele>554.583496</ele>
        <time>2015-10-11T11:02:49Z</time>
      </trkpt>
      <trkpt lat="45.94378" lon="4.61294">
        <ele>553.122253</ele>
        <time>2015-10-11T11:02:53Z</time>
      </trkpt>
      <trkpt lat="45.94368" lon="4.61304">
        <ele>551.611572</ele>
        <time>2015-10-11T11:02:58Z</time>
      </trkpt>
      <trkpt lat="45.94357" lon="4.61315">
        <ele>549.821899</ele>
        <time>2015-10-11T11:03:03Z</time>
      </trkpt>
      <trkpt lat="45.94347" lon="4.61328">
        <ele>548.249207</ele>
        <time>2015-10-11T11:03:09Z</time>
      </trkpt>
      <trkpt lat="45.94346" lon="4.61331">
        <ele>548.063965</ele>
        <time>2015-10-11T11:03:10Z</time>
      </trkpt>
      <trkpt lat="45.94339" lon="4.61337">
        <ele>547.355652</ele>
        <time>2015-10-11T11:03:13Z</time>
      </trkpt>
      <trkpt lat="45.94332" lon="4.61346">
        <ele>545.785034</ele>
        <time>2015-10-11T11:03:17Z</time>
      </trkpt>
      <trkpt lat="45.94321" lon="4.61359">
        <ele>544.053589</ele>
        <time>2015-10-11T11:03:23Z</time>
      </trkpt>
      <trkpt lat="45.94317" lon="4.61371">
        <ele>543.317261</ele>
        <time>2015-10-11T11:03:27Z</time>
      </trkpt>
      <trkpt lat="45.9431" lon="4.61383">
        <ele>541.02832</ele>
        <time>2015-10-11T11:03:31Z</time>
      </trkpt>
      <trkpt lat="45.94299" lon="4.614">
        <ele>538.179993</ele>
        <time>2015-10-11T11:03:38Z</time>
      </trkpt>
      <trkpt lat="45.94291" lon="4.61412">
        <ele>535.862671</ele>
        <time>2015-10-11T11:03:43Z</time>
      </trkpt>
      <trkpt lat="45.94285" lon="4.61419">
        <ele>534.035706</ele>
        <time>2015-10-11T11:03:47Z</time>
      </trkpt>
      <trkpt lat="45.94285" lon="4.61423">
        <ele>533.746948</ele>
        <time>2015-10-11T11:03:48Z</time>
      </trkpt>
      <trkpt lat="45.94281" lon="4.61426">
        <ele>532.648682</ele>
        <time>2015-10-11T11:03:50Z</time>
      </trkpt>
      <trkpt lat="45.94275" lon="4.61435">
        <ele>530.647827</ele>
        <time>2015-10-11T11:03:54Z</time>
      </trkpt>
      <trkpt lat="45.94273" lon="4.61437">
        <ele>530.121521</ele>
        <time>2015-10-11T11:03:55Z</time>
      </trkpt>
      <trkpt lat="45.94266" lon="4.61451">
        <ele>527.342407</ele>
        <time>2015-10-11T11:04:00Z</time>
      </trkpt>
      <trkpt lat="45.94261" lon="4.61465">
        <ele>525.353638</ele>
        <time>2015-10-11T11:04:05Z</time>
      </trkpt>
      <trkpt lat="45.94254" lon="4.61481">
        <ele>523.354736</ele>
        <time>2015-10-11T11:04:11Z</time>
      </trkpt>
      <trkpt lat="45.9425" lon="4.61492">
        <ele>522.439331</ele>
        <time>2015-10-11T11:04:14Z</time>
      </trkpt>
      <trkpt lat="45.94248" lon="4.61497">
        <ele>521.8479</ele>
        <time>2015-10-11T11:04:16Z</time>
      </trkpt>
      <trkpt lat="45.94244" lon="4.61497">
        <ele>520.937927</ele>
        <time>2015-10-11T11:04:18Z</time>
      </trkpt>
      <trkpt lat="45.94231" lon="4.61495">
        <ele>518.114014</ele>
        <time>2015-10-11T11:04:23Z</time>
      </trkpt>
      <trkpt lat="45.94221" lon="4.61495">
        <ele>515.672241</ele>
        <time>2015-10-11T11:04:28Z</time>
      </trkpt>
      <trkpt lat="45.94216" lon="4.61507">
        <ele>513.120972</ele>
        <time>2015-10-11T11:04:32Z</time>
      </trkpt>
      <trkpt lat="45.94215" lon="4.61509">
        <ele>512.712585</ele>
        <time>2015-10-11T11:04:33Z</time>
      </trkpt>
      <trkpt lat="45.94215" lon="4.61513">
        <ele>512.359619</ele>
        <time>2015-10-11T11:04:34Z</time>
      </trkpt>
      <trkpt lat="45.94213" lon="4.6152">
        <ele>511.250153</ele>
        <time>2015-10-11T11:04:36Z</time>
      </trkpt>
      <trkpt lat="45.94213" lon="4.61529">
        <ele>510.498444</ele>
        <time>2015-10-11T11:04:39Z</time>
      </trkpt>
      <trkpt lat="45.94214" lon="4.61535">
        <ele>510.040222</ele>
        <time>2015-10-11T11:04:41Z</time>
      </trkpt>
      <trkpt lat="45.94212" lon="4.61539">
        <ele>509.389618</ele>
        <time>2015-10-11T11:04:43Z</time>
      </trkpt>
      <trkpt lat="45.94212" lon="4.61548">
        <ele>508.414795</ele>
        <time>2015-10-11T11:04:46Z</time>
      </trkpt>
      <trkpt lat="45.94207" lon="4.61567">
        <ele>504.88681</ele>
        <time>2015-10-11T11:04:53Z</time>
      </trkpt>
      <trkpt lat="45.94205" lon="4.61583">
        <ele>501.561279</ele>
        <time>2015-10-11T11:04:58Z</time>
      </trkpt>
      <trkpt lat="45.94205" lon="4.61585">
        <ele>501.00177</ele>
        <time>2015-10-11T11:04:59Z</time>
      </trkpt>
      <trkpt lat="45.94202" lon="4.61591">
        <ele>499.396515</ele>
        <time>2015-10-11T11:05:02Z</time>
      </trkpt>
      <trkpt lat="45.94202" lon="4.61595">
        <ele>498.586761</ele>
        <time>2015-10-11T11:05:03Z</time>
      </trkpt>
      <trkpt lat="45.94198" lon="4.61599">
        <ele>497.256836</ele>
        <time>2015-10-11T11:05:05Z</time>
      </trkpt>
      <trkpt lat="45.94189" lon="4.61606">
        <ele>494.414764</ele>
        <time>2015-10-11T11:05:10Z</time>
      </trkpt>
      <trkpt lat="45.94186" lon="4.61609">
        <ele>493.341949</ele>
        <time>2015-10-11T11:05:12Z</time>
      </trkpt>
      <trkpt lat="45.94179" lon="4.61614">
        <ele>491.524994</ele>
        <time>2015-10-11T11:05:15Z</time>
      </trkpt>
      <trkpt lat="45.94167" lon="4.61618">
        <ele>489.064423</ele>
        <time>2015-10-11T11:05:20Z</time>
      </trkpt>
      <trkpt lat="45.94165" lon="4.61619">
        <ele>488.679199</ele>
        <time>2015-10-11T11:05:21Z</time>
      </trkpt>
      <trkpt lat="45.94155" lon="4.6163">
        <ele>485.464081</ele>
        <time>2015-10-11T11:05:26Z</time>
      </trkpt>
      <trkpt lat="45.9415" lon="4.6163">
        <ele>484.817169</ele>
        <time>2015-10-11T11:05:28Z</time>
      </trkpt>
      <trkpt lat="45.94146" lon="4.61628">
        <ele>484.147644</ele>
        <time>2015-10-11T11:05:30Z</time>
      </trkpt>
      <trkpt lat="45.94133" lon="4.61626">
        <ele>481.925903</ele>
        <time>2015-10-11T11:05:35Z</time>
      </trkpt>
      <trkpt lat="45.94127" lon="4.6163">
        <ele>480.385895</ele>
        <time>2015-10-11T11:05:40Z</time>
      </trkpt>
      <trkpt lat="45.94126" lon="4.6163">
        <ele>480.260284</ele>
        <time>2015-10-11T11:05:48Z</time>
      </trkpt>
      <trkpt lat="45.94125" lon="4.61629">
        <ele>480.180603</ele>
        <time>2015-10-11T11:05:50Z</time>
      </trkpt>
      <trkpt lat="45.94125" lon="4.61628">
        <ele>480.192535</ele>
        <time>2015-10-11T11:05:54Z</time>
      </trkpt>
      <trkpt lat="45.94125" lon="4.61628">
        <ele>480.326508</ele>
        <time>2015-10-11T11:05:56Z</time>
      </trkpt>
      <trkpt lat="45.94126" lon="4.61628">
        <ele>480.384613</ele>
        <time>2015-10-11T11:05:58Z</time>
      </trkpt>
      <trkpt lat="45.94126" lon="4.61628">
        <ele>480.373199</ele>
        <time>2015-10-11T11:06:00Z</time>
      </trkpt>
      <trkpt lat="45.94126" lon="4.61628">
        <ele>480.344696</ele>
        <time>2015-10-11T11:06:02Z</time>
      </trkpt>
      <trkpt lat="45.94126" lon="4.61628">
        <ele>480.359161</ele>
        <time>2015-10-11T11:06:04Z</time>
      </trkpt>
      <trkpt lat="45.94126" lon="4.61628">
        <ele>480.378082</ele>
        <time>2015-10-11T11:06:07Z</time>
      </trkpt>
      <trkpt lat="45.94126" lon="4.61628">
        <ele>480.423767</ele>
        <time>2015-10-11T11:06:12Z</time>
      </trkpt>
      <trkpt lat="45.94126" lon="4.61627">
        <ele>480.444855</ele>
        <time>2015-10-11T11:06:14Z</time>
      </trkpt>
      <trkpt lat="45.94126" lon="4.61627">
        <ele>480.442657</ele>
        <time>2015-10-11T11:06:15Z</time>
      </trkpt>
      <trkpt lat="45.94126" lon="4.61627">
        <ele>480.473419</ele>
        <time>2015-10-11T11:06:16Z</time>
      </trkpt>
      <trkpt lat="45.94126" lon="4.61627">
        <ele>480.451965</ele>
        <time>2015-10-11T11:06:20Z</time>
      </trkpt>
      <trkpt lat="45.94126" lon="4.61627">
        <ele>480.440338</ele>
        <time>2015-10-11T11:06:24Z</time>
      </trkpt>
      <trkpt lat="45.94126" lon="4.61627">
        <ele>480.455566</ele>
        <time>2015-10-11T11:06:27Z</time>
      </trkpt>
      <trkpt lat="45.94126" lon="4.61627">
        <ele>480.545776</ele>
        <time>2015-10-11T11:06:32Z</time>
      </trkpt>
      <trkpt lat="45.94126" lon="4.61627">
        <ele>480.543915</ele>
        <time>2015-10-11T11:06:33Z</time>
      </trkpt>
      <trkpt lat="45.94126" lon="4.61627">
        <ele>480.534332</ele>
        <time>2015-10-11T11:06:34Z</time>
      </trkpt>
      <trkpt lat="45.94126" lon="4.61627">
        <ele>480.553589</ele>
        <time>2015-10-11T11:06:40Z</time>
      </trkpt>
      <trkpt lat="45.94126" lon="4.61627">
        <ele>480.524139</ele>
        <time>2015-10-11T11:06:43Z</time>
      </trkpt>
      <trkpt lat="45.94122" lon="4.61628">
        <ele>479.690674</ele>
        <time>2015-10-11T11:06:50Z</time>
      </trkpt>
      <trkpt lat="45.94111" lon="4.61632">
        <ele>477.357178</ele>
        <time>2015-10-11T11:06:56Z</time>
      </trkpt>
      <trkpt lat="45.94096" lon="4.61637">
        <ele>474.68988</ele>
        <time>2015-10-11T11:07:02Z</time>
      </trkpt>
      <trkpt lat="45.94084" lon="4.61643">
        <ele>472.74762</ele>
        <time>2015-10-11T11:07:07Z</time>
      </trkpt>
      <trkpt lat="45.94079" lon="4.61647">
        <ele>471.934357</ele>
        <time>2015-10-11T11:07:09Z</time>
      </trkpt>
      <trkpt lat="45.94069" lon="4.61656">
        <ele>470.591156</ele>
        <time>2015-10-11T11:07:14Z</time>
      </trkpt>
      <trkpt lat="45.94058" lon="4.61657">
        <ele>469.263763</ele>
        <time>2015-10-11T11:07:19Z</time>
      </trkpt>
      <trkpt lat="45.94046" lon="4.61658">
        <ele>467.76239</ele>
        <time>2015-10-11T11:07:24Z</time>
      </trkpt>
      <trkpt lat="45.94043" lon="4.61659">
        <ele>467.478699</ele>
        <time>2015-10-11T11:07:25Z</time>
      </trkpt>
      <trkpt lat="45.94032" lon="4.61665">
        <ele>466.267975</ele>
        <time>2015-10-11T11:07:30Z</time>
      </trkpt>
      <trkpt lat="45.94031" lon="4.61667">
        <ele>466.105133</ele>
        <time>2015-10-11T11:07:31Z</time>
      </trkpt>
      <trkpt lat="45.94022" lon="4.61679">
        <ele>465.443176</ele>
        <time>2015-10-11T11:07:36Z</time>
      </trkpt>
      <trkpt lat="45.94016" lon="4.61688">
        <ele>464.391205</ele>
        <time>2015-10-11T11:07:40Z</time>
      </trkpt>
      <trkpt lat="45.94015" lon="4.61686">
        <ele>464.317719</ele>
        <time>2015-10-11T11:07:41Z</time>
      </trkpt>
      <trkpt lat="45.9401" lon="4.6168">
        <ele>463.677521</ele>
        <time>2015-10-11T11:07:44Z</time>
      </trkpt>
      <trkpt lat="45.94007" lon="4.6168">
        <ele>463.286133</ele>
        <time>2015-10-11T11:07:45Z</time>
      </trkpt>
      <trkpt lat="45.93998" lon="4.61677">
        <ele>461.935852</ele>
        <time>2015-10-11T11:07:49Z</time>
      </trkpt>
      <trkpt lat="45.93994" lon="4.6167">
        <ele>461.091766</ele>
        <time>2015-10-11T11:07:52Z</time>
      </trkpt>
      <trkpt lat="45.93985" lon="4.61659">
        <ele>459.501343</ele>
        <time>2015-10-11T11:07:57Z</time>
      </trkpt>
      <trkpt lat="45.93983" lon="4.61659">
        <ele>459.211395</ele>
        <time>2015-10-11T11:07:58Z</time>
      </trkpt>
      <trkpt lat="45.9398" lon="4.61657">
        <ele>458.650024</ele>
        <time>2015-10-11T11:08:00Z</time>
      </trkpt>
      <trkpt lat="45.93976" lon="4.61651">
        <ele>457.914856</ele>
        <time>2015-10-11T11:08:03Z</time>
      </trkpt>
      <trkpt lat="45.93971" lon="4.61645">
        <ele>457.099518</ele>
        <time>2015-10-11T11:08:06Z</time>
      </trkpt>
      <trkpt lat="45.9397" lon="4.61643">
        <ele>456.897186</ele>
        <time>2015-10-11T11:08:07Z</time>
      </trkpt>
      <trkpt lat="45.93966" lon="4.61634">
        <ele>456.110199</ele>
        <time>2015-10-11T11:08:11Z</time>
      </trkpt>
      <trkpt lat="45.93964" lon="4.61633">
        <ele>455.814178</ele>
        <time>2015-10-11T11:08:12Z</time>
      </trkpt>
      <trkpt lat="45.93958" lon="4.61627">
        <ele>454.753967</ele>
        <time>2015-10-11T11:08:16Z</time>
      </trkpt>
      <trkpt lat="45.93954" lon="4.61623">
        <ele>454.095459</ele>
        <time>2015-10-11T11:08:18Z</time>
      </trkpt>
      <trkpt lat="45.93943" lon="4.61609">
        <ele>452.100433</ele>
        <time>2015-10-11T11:08:23Z</time>
      </trkpt>
      <trkpt lat="45.93935" lon="4.61599">
        <ele>450.621765</ele>
        <time>2015-10-11T11:08:27Z</time>
      </trkpt>
      <trkpt lat="45.93933" lon="4.61598">
        <ele>450.285583</ele>
        <time>2015-10-11T11:08:28Z</time>
      </trkpt>
      <trkpt lat="45.93931" lon="4.61598">
        <ele>449.948181</ele>
        <time>2015-10-11T11:08:30Z</time>
      </trkpt>
      <trkpt lat="45.93923" lon="4.616">
        <ele>448.986115</ele>
        <time>2015-10-11T11:08:35Z</time>
      </trkpt>
      <trkpt lat="45.93907" lon="4.61606">
        <ele>446.933228</ele>
        <time>2015-10-11T11:08:40Z</time>
      </trkpt>
      <trkpt lat="45.93891" lon="4.61613">
        <ele>444.970062</ele>
        <time>2015-10-11T11:08:45Z</time>
      </trkpt>
      <trkpt lat="45.93883" lon="4.61618">
        <ele>443.892395</ele>
        <time>2015-10-11T11:08:48Z</time>
      </trkpt>
      <trkpt lat="45.9387" lon="4.61628">
        <ele>442.211487</ele>
        <time>2015-10-11T11:08:53Z</time>
      </trkpt>
      <trkpt lat="45.93855" lon="4.61642">
        <ele>440.196411</ele>
        <time>2015-10-11T11:08:59Z</time>
      </trkpt>
      <trkpt lat="45.93853" lon="4.61649">
        <ele>439.891296</ele>
        <time>2015-10-11T11:09:01Z</time>
      </trkpt>
      <trkpt lat="45.93853" lon="4.61652">
        <ele>439.901611</ele>
        <time>2015-10-11T11:09:02Z</time>
      </trkpt>
      <trkpt lat="45.93852" lon="4.6167">
        <ele>439.862061</ele>
        <time>2015-10-11T11:09:07Z</time>
      </trkpt>
      <trkpt lat="45.93853" lon="4.61683">
        <ele>439.718994</ele>
        <time>2015-10-11T11:09:12Z</time>
      </trkpt>
      <trkpt lat="45.93856" lon="4.617">
        <ele>439.541626</ele>
        <time>2015-10-11T11:09:17Z</time>
      </trkpt>
      <trkpt lat="45.93857" lon="4.61717">
        <ele>439.337799</ele>
        <time>2015-10-11T11:09:23Z</time>
      </trkpt>
      <trkpt lat="45.93862" lon="4.61733">
        <ele>439.422546</ele>
        <time>2015-10-11T11:09:28Z</time>
      </trkpt>
      <trkpt lat="45.93868" lon="4.61755">
        <ele>439.521881</ele>
        <time>2015-10-11T11:09:35Z</time>
      </trkpt>
      <trkpt lat="45.93871" lon="4.61763">
        <ele>439.533539</ele>
        <time>2015-10-11T11:09:38Z</time>
      </trkpt>
      <trkpt lat="45.93872" lon="4.61768">
        <ele>439.512695</ele>
        <time>2015-10-11T11:09:40Z</time>
      </trkpt>
      <trkpt lat="45.93874" lon="4.61776">
        <ele>439.388672</ele>
        <time>2015-10-11T11:09:43Z</time>
      </trkpt>
      <trkpt lat="45.93878" lon="4.61785">
        <ele>439.475403</ele>
        <time>2015-10-11T11:09:46Z</time>
      </trkpt>
      <trkpt lat="45.93879" lon="4.61792">
        <ele>439.290436</ele>
        <time>2015-10-11T11:09:48Z</time>
      </trkpt>
      <trkpt lat="45.93875" lon="4.61797">
        <ele>438.677032</ele>
        <time>2015-10-11T11:09:50Z</time>
      </trkpt>
      <trkpt lat="45.93863" lon="4.61807">
        <ele>436.690094</ele>
        <time>2015-10-11T11:09:55Z</time>
      </trkpt>
      <trkpt lat="45.9385" lon="4.61812">
        <ele>434.751312</ele>
        <time>2015-10-11T11:10:00Z</time>
      </trkpt>
      <trkpt lat="45.93839" lon="4.61815">
        <ele>433.278412</ele>
        <time>2015-10-11T11:10:04Z</time>
      </trkpt>
      <trkpt lat="45.93828" lon="4.6182">
        <ele>431.546143</ele>
        <time>2015-10-11T11:10:08Z</time>
      </trkpt>
      <trkpt lat="45.93808" lon="4.61825">
        <ele>428.610962</ele>
        <time>2015-10-11T11:10:15Z</time>
      </trkpt>
      <trkpt lat="45.93793" lon="4.61832">
        <ele>426.336639</ele>
        <time>2015-10-11T11:10:21Z</time>
      </trkpt>
      <trkpt lat="45.93773" lon="4.61835">
        <ele>424.035522</ele>
        <time>2015-10-11T11:10:29Z</time>
      </trkpt>
      <trkpt lat="45.93756" lon="4.61833">
        <ele>422.419708</ele>
        <time>2015-10-11T11:10:36Z</time>
      </trkpt>
      <trkpt lat="45.93738" lon="4.61833">
        <ele>420.69281</ele>
        <time>2015-10-11T11:10:42Z</time>
      </trkpt>
      <trkpt lat="45.93724" lon="4.61834">
        <ele>419.383057</ele>
        <time>2015-10-11T11:10:47Z</time>
      </trkpt>
      <trkpt lat="45.93707" lon="4.61837">
        <ele>417.715942</ele>
        <time>2015-10-11T11:10:53Z</time>
      </trkpt>
      <trkpt lat="45.93689" lon="4.6184">
        <ele>416.07077</ele>
        <time>2015-10-11T11:10:59Z</time>
      </trkpt>
      <trkpt lat="45.93686" lon="4.6184">
        <ele>415.847382</ele>
        <time>2015-10-11T11:11:00Z</time>
      </trkpt>
      <trkpt lat="45.93671" lon="4.61846">
        <ele>414.568573</ele>
        <time>2015-10-11T11:11:05Z</time>
      </trkpt>
      <trkpt lat="45.93665" lon="4.61847">
        <ele>414.097473</ele>
        <time>2015-10-11T11:11:07Z</time>
      </trkpt>
      <trkpt lat="45.93653" lon="4.6185">
        <ele>413.053955</ele>
        <time>2015-10-11T11:11:11Z</time>
      </trkpt>
      <trkpt lat="45.93634" lon="4.61854">
        <ele>410.773987</ele>
        <time>2015-10-11T11:11:17Z</time>
      </trkpt>
      <trkpt lat="45.93616" lon="4.61855">
        <ele>408.735901</ele>
        <time>2015-10-11T11:11:23Z</time>
      </trkpt>
      <trkpt lat="45.93597" lon="4.6186">
        <ele>406.181061</ele>
        <time>2015-10-11T11:11:29Z</time>
      </trkpt>
      <trkpt lat="45.93579" lon="4.61868">
        <ele>403.507416</ele>
        <time>2015-10-11T11:11:36Z</time>
      </trkpt>
      <trkpt lat="45.93565" lon="4.61875">
        <ele>401.424164</ele>
        <time>2015-10-11T11:11:41Z</time>
      </trkpt>
      <trkpt lat="45.93545" lon="4.61883">
        <ele>397.395508</ele>
        <time>2015-10-11T11:11:48Z</time>
      </trkpt>
      <trkpt lat="45.93543" lon="4.61884">
        <ele>396.794922</ele>
        <time>2015-10-11T11:11:49Z</time>
      </trkpt>
      <trkpt lat="45.93525" lon="4.61884">
        <ele>393.324402</ele>
        <time>2015-10-11T11:11:55Z</time>
      </trkpt>
      <trkpt lat="45.93516" lon="4.61878">
        <ele>391.457367</ele>
        <time>2015-10-11T11:11:59Z</time>
      </trkpt>
      <trkpt lat="45.93514" lon="4.61875">
        <ele>391.051544</ele>
        <time>2015-10-11T11:12:00Z</time>
      </trkpt>
      <trkpt lat="45.93507" lon="4.61857">
        <ele>389.537903</ele>
        <time>2015-10-11T11:12:05Z</time>
      </trkpt>
      <trkpt lat="45.93492" lon="4.61845">
        <ele>386.03772</ele>
        <time>2015-10-11T11:12:12Z</time>
      </trkpt>
      <trkpt lat="45.93486" lon="4.61838">
        <ele>384.777802</ele>
        <time>2015-10-11T11:12:16Z</time>
      </trkpt>
      <trkpt lat="45.93485" lon="4.61834">
        <ele>384.908508</ele>
        <time>2015-10-11T11:12:18Z</time>
      </trkpt>
      <trkpt lat="45.93485" lon="4.61834">
        <ele>384.950104</ele>
        <time>2015-10-11T11:12:21Z</time>
      </trkpt>
      <trkpt lat="45.93485" lon="4.61833">
        <ele>384.897339</ele>
        <time>2015-10-11T11:12:23Z</time>
      </trkpt>
      <trkpt lat="45.93483" lon="4.61827">
        <ele>384.829742</ele>
        <time>2015-10-11T11:12:26Z</time>
      </trkpt>
      <trkpt lat="45.93483" lon="4.61824">
        <ele>384.96759</ele>
        <time>2015-10-11T11:12:27Z</time>
      </trkpt>
      <trkpt lat="45.93483" lon="4.61824">
        <ele>384.876892</ele>
        <time>2015-10-11T11:12:28Z</time>
      </trkpt>
      <trkpt lat="45.93479" lon="4.61813">
        <ele>384.733185</ele>
        <time>2015-10-11T11:12:31Z</time>
      </trkpt>
      <trkpt lat="45.93478" lon="4.61811">
        <ele>384.694489</ele>
        <time>2015-10-11T11:12:32Z</time>
      </trkpt>
      <trkpt lat="45.9347" lon="4.61784">
        <ele>385.003632</ele>
        <time>2015-10-11T11:12:41Z</time>
      </trkpt>
      <trkpt lat="45.93463" lon="4.61762">
        <ele>384.630066</ele>
        <time>2015-10-11T11:12:48Z</time>
      </trkpt>
      <trkpt lat="45.93462" lon="4.61759">
        <ele>384.573456</ele>
        <time>2015-10-11T11:12:49Z</time>
      </trkpt>
      <trkpt lat="45.93455" lon="4.61732">
        <ele>384.187408</ele>
        <time>2015-10-11T11:12:57Z</time>
      </trkpt>
      <trkpt lat="45.9345" lon="4.61713">
        <ele>383.379242</ele>
        <time>2015-10-11T11:13:03Z</time>
      </trkpt>
      <trkpt lat="45.93446" lon="4.61687">
        <ele>381.863037</ele>
        <time>2015-10-11T11:13:10Z</time>
      </trkpt>
      <trkpt lat="45.93445" lon="4.61683">
        <ele>381.679657</ele>
        <time>2015-10-11T11:13:11Z</time>
      </trkpt>
      <trkpt lat="45.93446" lon="4.61656">
        <ele>381.011902</ele>
        <time>2015-10-11T11:13:18Z</time>
      </trkpt>
      <trkpt lat="45.93452" lon="4.6164">
        <ele>381.623688</ele>
        <time>2015-10-11T11:13:24Z</time>
      </trkpt>
      <trkpt lat="45.93456" lon="4.61628">
        <ele>381.780975</ele>
        <time>2015-10-11T11:13:28Z</time>
      </trkpt>
      <trkpt lat="45.93458" lon="4.61621">
        <ele>382.050171</ele>
        <time>2015-10-11T11:13:31Z</time>
      </trkpt>
      <trkpt lat="45.93466" lon="4.61602">
        <ele>382.939941</ele>
        <time>2015-10-11T11:13:38Z</time>
      </trkpt>
      <trkpt lat="45.93474" lon="4.61589">
        <ele>384.028961</ele>
        <time>2015-10-11T11:13:44Z</time>
      </trkpt>
      <trkpt lat="45.93486" lon="4.61578">
        <ele>385.451935</ele>
        <time>2015-10-11T11:13:51Z</time>
      </trkpt>
      <trkpt lat="45.93494" lon="4.61574">
        <ele>387.012421</ele>
        <time>2015-10-11T11:13:56Z</time>
      </trkpt>
      <trkpt lat="45.93502" lon="4.61566">
        <ele>387.999329</ele>
        <time>2015-10-11T11:14:01Z</time>
      </trkpt>
      <trkpt lat="45.93506" lon="4.61562">
        <ele>388.271698</ele>
        <time>2015-10-11T11:14:03Z</time>
      </trkpt>
      <trkpt lat="45.93518" lon="4.61547">
        <ele>389.384644</ele>
        <time>2015-10-11T11:14:10Z</time>
      </trkpt>
      <trkpt lat="45.93533" lon="4.61529">
        <ele>390.367462</ele>
        <time>2015-10-11T11:14:18Z</time>
      </trkpt>
      <trkpt lat="45.93537" lon="4.61524">
        <ele>390.269073</ele>
        <time>2015-10-11T11:14:20Z</time>
      </trkpt>
      <trkpt lat="45.9355" lon="4.61504">
        <ele>389.27124</ele>
        <time>2015-10-11T11:14:28Z</time>
      </trkpt>
      <trkpt lat="45.93552" lon="4.61501">
        <ele>389.228729</ele>
        <time>2015-10-11T11:14:29Z</time>
      </trkpt>
      <trkpt lat="45.93559" lon="4.61495">
        <ele>389.519379</ele>
        <time>2015-10-11T11:14:33Z</time>
      </trkpt>
      <trkpt lat="45.9356" lon="4.61496">
        <ele>389.939789</ele>
        <time>2015-10-11T11:14:34Z</time>
      </trkpt>
      <trkpt lat="45.9356" lon="4.61505">
        <ele>391.575562</ele>
        <time>2015-10-11T11:14:38Z</time>
      </trkpt>
      <trkpt lat="45.93559" lon="4.61523">
        <ele>394.794861</ele>
        <time>2015-10-11T11:14:44Z</time>
      </trkpt>
      <trkpt lat="45.93558" lon="4.61546">
        <ele>397.754089</ele>
        <time>2015-10-11T11:14:52Z</time>
      </trkpt>
      <trkpt lat="45.93557" lon="4.61562">
        <ele>399.325378</ele>
        <time>2015-10-11T11:14:58Z</time>
      </trkpt>
      <trkpt lat="45.93556" lon="4.61567">
        <ele>399.814087</ele>
        <time>2015-10-11T11:15:00Z</time>
      </trkpt>
      <trkpt lat="45.93556" lon="4.6158">
        <ele>401.09082</ele>
        <time>2015-10-11T11:15:05Z</time>
      </trkpt>
      <trkpt lat="45.93555" lon="4.61585">
        <ele>401.670013</ele>
        <time>2015-10-11T11:15:07Z</time>
      </trkpt>
      <trkpt lat="45.93559" lon="4.616">
        <ele>403.347229</ele>
        <time>2015-10-11T11:15:13Z</time>
      </trkpt>
      <trkpt lat="45.93565" lon="4.61614">
        <ele>404.313751</ele>
        <time>2015-10-11T11:15:19Z</time>
      </trkpt>
      <trkpt lat="45.93578" lon="4.61628">
        <ele>406.060242</ele>
        <time>2015-10-11T11:15:28Z</time>
      </trkpt>
      <trkpt lat="45.93588" lon="4.61628">
        <ele>407.330048</ele>
        <time>2015-10-11T11:15:33Z</time>
      </trkpt>
      <trkpt lat="45.9359" lon="4.61628">
        <ele>407.604187</ele>
        <time>2015-10-11T11:15:34Z</time>
      </trkpt>
      <trkpt lat="45.93603" lon="4.61627">
        <ele>409.136536</ele>
        <time>2015-10-11T11:15:40Z</time>
      </trkpt>
      <trkpt lat="45.93618" lon="4.61629">
        <ele>411.04834</ele>
        <time>2015-10-11T11:15:47Z</time>
      </trkpt>
      <trkpt lat="45.9363" lon="4.61633">
        <ele>412.703186</ele>
        <time>2015-10-11T11:15:53Z</time>
      </trkpt>
      <trkpt lat="45.93642" lon="4.6164">
        <ele>414.475555</ele>
        <time>2015-10-11T11:16:00Z</time>
      </trkpt>
      <trkpt lat="45.93657" lon="4.61643">
        <ele>416.486267</ele>
        <time>2015-10-11T11:16:07Z</time>
      </trkpt>
      <trkpt lat="45.93672" lon="4.61638">
        <ele>418.060913</ele>
        <time>2015-10-11T11:16:13Z</time>
      </trkpt>
      <trkpt lat="45.93687" lon="4.61634">
        <ele>419.626892</ele>
        <time>2015-10-11T11:16:20Z</time>
      </trkpt>
      <trkpt lat="45.93687" lon="4.61633">
        <ele>419.660034</ele>
        <time>2015-10-11T11:16:21Z</time>
      </trkpt>
    </trkseg>
  </trk>
</gpx>